<?xml version='1.0' encoding='UTF-8'?><gpx version="1.1" creator="JPX - https://github.com/jenetics/jpx" xmlns="http://www.topografix.com/GPX/1/1"><trk><trkseg><trkpt lat="39.29603979853121" lon="9.39201117667988"><ele>537.0</ele><time>2026-03-28T10:57:21.999Z</time></trkpt><trkpt lat="39.29611235924148" lon="9.392091845572986"><ele>537.0</ele><time>2026-03-28T10:57:23.999Z</time></trkpt><trkpt lat="39.296186438010444" lon="9.392066060678154"><ele>537.0</ele><time>2026-03-28T10:57:26.999Z</time></trkpt><trkpt lat="39.29617440103406" lon="9.391969587205816"><ele>537.0</ele><time>2026-03-28T10:57:30.999Z</time></trkpt><trkpt lat="39.29611526477465" lon="9.391882636419165"><ele>537.0</ele><time>2026-03-28T10:57:32.999Z</time></trkpt><trkpt lat="39.296061339203916" lon="9.39182334366585"><ele>537.0</ele><time>2026-03-28T10:57:33.999Z</time></trkpt><trkpt lat="39.29599664727558" lon="9.39178254626028"><ele>537.0</ele><time>2026-03-28T10:57:34.999Z</time></trkpt><trkpt lat="39.29593222124261" lon="9.391732708970617"><ele>537.0</ele><time>2026-03-28T10:57:35.999Z</time></trkpt><trkpt lat="39.2958606589591" lon="9.391685751749417"><ele>537.0</ele><time>2026-03-28T10:57:36.999Z</time></trkpt><trkpt lat="39.295788193991555" lon="9.391659963617045"><ele>537.0</ele><time>2026-03-28T10:57:37.999Z</time></trkpt><trkpt lat="39.29573279160168" lon="9.391727909674884"><ele>537.0</ele><time>2026-03-28T10:57:38.999Z</time></trkpt><trkpt lat="39.295626328125756" lon="9.39171857689957"><ele>537.0</ele><time>2026-03-28T10:57:41.999Z</time></trkpt><trkpt lat="39.29548740901489" lon="9.391716733944033"><ele>539.8000000000001</ele><time>2026-03-28T10:57:43.999Z</time></trkpt><trkpt lat="39.29537490759262" lon="9.391684885151449"><ele>542.6</ele><time>2026-03-28T10:57:45.999Z</time></trkpt><trkpt lat="39.29526592154374" lon="9.391645860192419"><ele>545.4000000000001</ele><time>2026-03-28T10:57:47.999Z</time></trkpt><trkpt lat="39.29518921080316" lon="9.39161839202106"><ele>548.2</ele><time>2026-03-28T10:57:49.999Z</time></trkpt><trkpt lat="39.295124522186434" lon="9.391568910523317"><ele>551.0</ele><time>2026-03-28T10:57:51.999Z</time></trkpt><trkpt lat="39.29500979749743" lon="9.391494868449444"><ele>551.0</ele><time>2026-03-28T10:57:53.999Z</time></trkpt><trkpt lat="39.29493246459901" lon="9.391484553386231"><ele>551.0</ele><time>2026-03-28T10:57:54.999Z</time></trkpt><trkpt lat="39.29486517775629" lon="9.391477561347322"><ele>551.0</ele><time>2026-03-28T10:57:55.999Z</time></trkpt><trkpt lat="39.294787528307154" lon="9.391466380167444"><ele>551.0</ele><time>2026-03-28T10:57:56.999Z</time></trkpt><trkpt lat="39.29470886179959" lon="9.39145228412516"><ele>551.0</ele><time>2026-03-28T10:57:58.999Z</time></trkpt><trkpt lat="39.294644901760606" lon="9.391422420663934"><ele>551.0</ele><time>2026-03-28T10:58:00.999Z</time></trkpt><trkpt lat="39.29482546003707" lon="9.390799738652428"><ele>548.8333333333333</ele><time>2026-03-28T10:58:03.999Z</time></trkpt><trkpt lat="39.29475072403721" lon="9.390796954784996"><ele>546.6666666666666</ele><time>2026-03-28T10:59:21Z</time></trkpt><trkpt lat="39.29466974329529" lon="9.390787128088904"><ele>544.5</ele><time>2026-03-28T10:59:23Z</time></trkpt><trkpt lat="39.294574368743355" lon="9.39074320158341"><ele>542.3333333333334</ele><time>2026-03-28T10:59:25Z</time></trkpt><trkpt lat="39.29450053453751" lon="9.390692641617452"><ele>540.1666666666667</ele><time>2026-03-28T10:59:26.999Z</time></trkpt><trkpt lat="39.29442711535699" lon="9.39065235078935"><ele>538.0</ele><time>2026-03-28T10:59:28.999Z</time></trkpt><trkpt lat="39.294366153269955" lon="9.390616891351092"><ele>538.0</ele><time>2026-03-28T10:59:30.999Z</time></trkpt><trkpt lat="39.2942981842843" lon="9.390576560718056"><ele>538.0</ele><time>2026-03-28T10:59:32.999Z</time></trkpt><trkpt lat="39.294219196738936" lon="9.390558884880203"><ele>538.0</ele><time>2026-03-28T10:59:34.999Z</time></trkpt><trkpt lat="39.29414484196954" lon="9.390512545798327"><ele>538.0</ele><time>2026-03-28T10:59:36.999Z</time></trkpt><trkpt lat="39.294070830983244" lon="9.390425516998414"><ele>538.0</ele><time>2026-03-28T10:59:38.999Z</time></trkpt><trkpt lat="39.29400859999999" lon="9.390331737495066"><ele>538.0</ele><time>2026-03-28T10:59:41.999Z</time></trkpt><trkpt lat="39.29397682453765" lon="9.3902226132633"><ele>537.0</ele><time>2026-03-28T10:59:44.999Z</time></trkpt><trkpt lat="39.293906225803106" lon="9.389968966803705"><ele>536.0</ele><time>2026-03-28T10:59:46.999Z</time></trkpt><trkpt lat="39.29386873912458" lon="9.389882473510985"><ele>535.0</ele><time>2026-03-28T10:59:48.999Z</time></trkpt><trkpt lat="39.29383963665084" lon="9.389792716461551"><ele>534.0</ele><time>2026-03-28T10:59:50.999Z</time></trkpt><trkpt lat="39.293794625879954" lon="9.389706112492387"><ele>533.0</ele><time>2026-03-28T10:59:53.999Z</time></trkpt><trkpt lat="39.2937536419649" lon="9.389631049354282"><ele>532.6</ele><time>2026-03-28T10:59:55.999Z</time></trkpt><trkpt lat="39.29369527635371" lon="9.389521212433724"><ele>532.1999999999999</ele><time>2026-03-28T10:59:57.999Z</time></trkpt><trkpt lat="39.293662854583864" lon="9.389419040333216"><ele>531.8</ele><time>2026-03-28T10:59:59.999Z</time></trkpt><trkpt lat="39.29369821951543" lon="9.389327432453662"><ele>531.4</ele><time>2026-03-28T11:00:01.999Z</time></trkpt><trkpt lat="39.29377272807285" lon="9.389286056158724"><ele>531.0</ele><time>2026-03-28T11:00:03.999Z</time></trkpt><trkpt lat="39.29386469762094" lon="9.389378787084647"><ele>526.8333333333334</ele><time>2026-03-28T11:00:05.999Z</time></trkpt><trkpt lat="39.29399832053779" lon="9.38931547934222"><ele>522.6666666666666</ele><time>2026-03-28T11:00:09.999Z</time></trkpt><trkpt lat="39.29406698027341" lon="9.389263309878702"><ele>518.5</ele><time>2026-03-28T11:00:10.999Z</time></trkpt><trkpt lat="39.29412237707175" lon="9.389221690047899"><ele>514.3333333333333</ele><time>2026-03-28T11:00:11.999Z</time></trkpt><trkpt lat="39.29417182096749" lon="9.389159827524932"><ele>510.16666666666663</ele><time>2026-03-28T11:00:12.999Z</time></trkpt><trkpt lat="39.29422113600547" lon="9.38909644188978"><ele>506.0</ele><time>2026-03-28T11:00:13.999Z</time></trkpt><trkpt lat="39.29435075966285" lon="9.389053733563642"><ele>505.99999999999994</ele><time>2026-03-28T11:00:15.999Z</time></trkpt><trkpt lat="39.29442446004088" lon="9.389060392301902"><ele>506.0</ele><time>2026-03-28T11:00:16.999Z</time></trkpt><trkpt lat="39.29449004208294" lon="9.389055164177215"><ele>506.0</ele><time>2026-03-28T11:00:17.999Z</time></trkpt><trkpt lat="39.29461695519238" lon="9.389054603868676"><ele>506.0</ele><time>2026-03-28T11:00:19.999Z</time></trkpt><trkpt lat="39.29467917838098" lon="9.389035523843352"><ele>505.99999999999994</ele><time>2026-03-28T11:00:20.999Z</time></trkpt><trkpt lat="39.29477552896953" lon="9.389016679138772"><ele>506.0</ele><time>2026-03-28T11:00:22.999Z</time></trkpt><trkpt lat="39.29486477995523" lon="9.389008447194819"><ele>506.49999999999994</ele><time>2026-03-28T11:00:24.999Z</time></trkpt><trkpt lat="39.294971214696126" lon="9.389015311291377"><ele>507.0</ele><time>2026-03-28T11:00:26.999Z</time></trkpt><trkpt lat="39.29507920141926" lon="9.388975707491962"><ele>507.5</ele><time>2026-03-28T11:00:28.999Z</time></trkpt><trkpt lat="39.29514723924009" lon="9.38892999857609"><ele>508.0</ele><time>2026-03-28T11:00:29.999Z</time></trkpt><trkpt lat="39.29520881512317" lon="9.388881619270219"><ele>508.49999999999994</ele><time>2026-03-28T11:00:30.999Z</time></trkpt><trkpt lat="39.295273921433065" lon="9.388826724520557"><ele>509.0</ele><time>2026-03-28T11:00:31.999Z</time></trkpt><trkpt lat="39.29535935312532" lon="9.388716245499136"><ele>508.99999999999994</ele><time>2026-03-28T11:00:33.999Z</time></trkpt><trkpt lat="39.295419246722794" lon="9.388627995812369"><ele>509.0</ele><time>2026-03-28T11:00:35.998Z</time></trkpt><trkpt lat="39.29544022455429" lon="9.388550390772478"><ele>509.0</ele><time>2026-03-28T11:00:36.998Z</time></trkpt><trkpt lat="39.295465576965306" lon="9.388467996177207"><ele>509.0</ele><time>2026-03-28T11:00:37.998Z</time></trkpt><trkpt lat="39.29548840612046" lon="9.388391518652154"><ele>508.99999999999994</ele><time>2026-03-28T11:00:38.998Z</time></trkpt><trkpt lat="39.29552447082648" lon="9.388307846625962"><ele>509.0</ele><time>2026-03-28T11:00:40.998Z</time></trkpt><trkpt lat="39.29560963571281" lon="9.388219326218197"><ele>509.16666666666663</ele><time>2026-03-28T11:00:42.998Z</time></trkpt><trkpt lat="39.2956753122684" lon="9.388147392455357"><ele>509.3333333333333</ele><time>2026-03-28T11:00:43.998Z</time></trkpt><trkpt lat="39.295729787585934" lon="9.388083372918805"><ele>509.5</ele><time>2026-03-28T11:00:44.998Z</time></trkpt><trkpt lat="39.29579618222738" lon="9.38804735179827"><ele>509.66666666666663</ele><time>2026-03-28T11:00:45.998Z</time></trkpt><trkpt lat="39.29588447214626" lon="9.387998560491491"><ele>509.8333333333333</ele><time>2026-03-28T11:00:46.998Z</time></trkpt><trkpt lat="39.29597234545083" lon="9.387950554725098"><ele>510.0</ele><time>2026-03-28T11:00:47.998Z</time></trkpt><trkpt lat="39.296054777671955" lon="9.387907570399946"><ele>510.0</ele><time>2026-03-28T11:00:48.998Z</time></trkpt><trkpt lat="39.296133070242455" lon="9.387884802096469"><ele>510.0</ele><time>2026-03-28T11:00:49.998Z</time></trkpt><trkpt lat="39.29620587579503" lon="9.387851798288384"><ele>510.0</ele><time>2026-03-28T11:00:50.998Z</time></trkpt><trkpt lat="39.2962745569981" lon="9.387839539487436"><ele>510.0</ele><time>2026-03-28T11:00:51.998Z</time></trkpt><trkpt lat="39.296393065857934" lon="9.387827435257263"><ele>510.0</ele><time>2026-03-28T11:00:53.998Z</time></trkpt><trkpt lat="39.29648418172303" lon="9.387743163623037"><ele>505.2</ele><time>2026-03-28T11:00:56Z</time></trkpt><trkpt lat="39.296615203758336" lon="9.387704775981483"><ele>500.4</ele><time>2026-03-28T11:01:01Z</time></trkpt><trkpt lat="39.2966401262036" lon="9.387563392639732"><ele>495.6</ele><time>2026-03-28T11:01:03Z</time></trkpt><trkpt lat="39.296641659950836" lon="9.387434362616993"><ele>490.8</ele><time>2026-03-28T11:01:04Z</time></trkpt><trkpt lat="39.29662945549908" lon="9.387326266680292"><ele>486.0</ele><time>2026-03-28T11:01:05Z</time></trkpt><trkpt lat="39.29662445632801" lon="9.387181381482419"><ele>485.20000000000005</ele><time>2026-03-28T11:01:07Z</time></trkpt><trkpt lat="39.296643942036326" lon="9.387031699474493"><ele>484.40000000000003</ele><time>2026-03-28T11:01:09Z</time></trkpt><trkpt lat="39.296639004152176" lon="9.38691157723901"><ele>483.6</ele><time>2026-03-28T11:01:11Z</time></trkpt><trkpt lat="39.2966441340002" lon="9.386789618074799"><ele>482.8</ele><time>2026-03-28T11:01:13Z</time></trkpt><trkpt lat="39.29669297902029" lon="9.386663773382436"><ele>482.0</ele><time>2026-03-28T11:01:15Z</time></trkpt><trkpt lat="39.29673355731436" lon="9.386599655747748"><ele>482.0</ele><time>2026-03-28T11:01:16Z</time></trkpt><trkpt lat="39.296801820818" lon="9.386511694842422"><ele>482.00000000000006</ele><time>2026-03-28T11:01:18Z</time></trkpt><trkpt lat="39.2968248498629" lon="9.386409284761859"><ele>482.00000000000006</ele><time>2026-03-28T11:01:20Z</time></trkpt><trkpt lat="39.29676403632976" lon="9.386250428034236"><ele>482.0</ele><time>2026-03-28T11:01:22Z</time></trkpt><trkpt lat="39.296733161291755" lon="9.38615271824204"><ele>482.0</ele><time>2026-03-28T11:01:23Z</time></trkpt><trkpt lat="39.29671961455696" lon="9.386044441808734"><ele>480.8333333333333</ele><time>2026-03-28T11:01:25Z</time></trkpt><trkpt lat="39.29674113567896" lon="9.385959653935707"><ele>479.66666666666663</ele><time>2026-03-28T11:01:27Z</time></trkpt><trkpt lat="39.29674595457862" lon="9.385860393014921"><ele>478.5</ele><time>2026-03-28T11:01:30Z</time></trkpt><trkpt lat="39.296758571188484" lon="9.385757453208335"><ele>477.33333333333337</ele><time>2026-03-28T11:01:33Z</time></trkpt><trkpt lat="39.296773485151775" lon="9.385632109496685"><ele>476.1666666666667</ele><time>2026-03-28T11:01:36Z</time></trkpt><trkpt lat="39.29677265734249" lon="9.38554201000735"><ele>475.0</ele><time>2026-03-28T11:01:37.999Z</time></trkpt><trkpt lat="39.29676579254539" lon="9.385434173161912"><ele>470.6</ele><time>2026-03-28T11:01:39.999Z</time></trkpt><trkpt lat="39.29676566098671" lon="9.385328118045782"><ele>466.2</ele><time>2026-03-28T11:01:42.999Z</time></trkpt><trkpt lat="39.29675386411659" lon="9.385207433235701"><ele>461.79999999999995</ele><time>2026-03-28T11:01:44.999Z</time></trkpt><trkpt lat="39.29672674456608" lon="9.385126744420035"><ele>457.4</ele><time>2026-03-28T11:01:45.999Z</time></trkpt><trkpt lat="39.29664515164912" lon="9.384990594783828"><ele>453.0</ele><time>2026-03-28T11:01:47.999Z</time></trkpt><trkpt lat="39.296567557816076" lon="9.384881484857635"><ele>453.0</ele><time>2026-03-28T11:01:49.999Z</time></trkpt><trkpt lat="39.296487078280734" lon="9.38480457273851"><ele>452.99999999999994</ele><time>2026-03-28T11:01:51.999Z</time></trkpt><trkpt lat="39.296424792378495" lon="9.384701198403027"><ele>452.99999999999994</ele><time>2026-03-28T11:01:53.999Z</time></trkpt><trkpt lat="39.29636540134508" lon="9.38459585545683"><ele>453.0</ele><time>2026-03-28T11:01:55.999Z</time></trkpt><trkpt lat="39.296304463509514" lon="9.384479366528748"><ele>453.0</ele><time>2026-03-28T11:01:57.999Z</time></trkpt><trkpt lat="39.29620604383668" lon="9.384429099050665"><ele>455.1666666666667</ele><time>2026-03-28T11:01:59.999Z</time></trkpt><trkpt lat="39.29610471701486" lon="9.384425828344352"><ele>457.33333333333337</ele><time>2026-03-28T11:02:01.999Z</time></trkpt><trkpt lat="39.29603800780686" lon="9.384409167757855"><ele>459.5</ele><time>2026-03-28T11:02:03.999Z</time></trkpt><trkpt lat="39.295984781878914" lon="9.384355130690766"><ele>461.6666666666667</ele><time>2026-03-28T11:02:06.999Z</time></trkpt><trkpt lat="39.29598598601755" lon="9.384209907736178"><ele>463.83333333333337</ele><time>2026-03-28T11:02:08.999Z</time></trkpt><trkpt lat="39.296008238222626" lon="9.384112693473282"><ele>466.0</ele><time>2026-03-28T11:02:10.999Z</time></trkpt><trkpt lat="39.2960214553569" lon="9.384029350106655"><ele>466.0</ele><time>2026-03-28T11:02:12.999Z</time></trkpt><trkpt lat="39.29599352677628" lon="9.383922312232542"><ele>466.0</ele><time>2026-03-28T11:02:14.999Z</time></trkpt><trkpt lat="39.2959960542712" lon="9.38377065783493"><ele>466.0</ele><time>2026-03-28T11:02:16.999Z</time></trkpt><trkpt lat="39.295990570869485" lon="9.383610426553608"><ele>466.0</ele><time>2026-03-28T11:02:18.999Z</time></trkpt><trkpt lat="39.29599929711713" lon="9.38345695760001"><ele>466.0</ele><time>2026-03-28T11:02:19.999Z</time></trkpt><trkpt lat="39.296003975356385" lon="9.383342933630377"><ele>465.8</ele><time>2026-03-28T11:02:20.999Z</time></trkpt><trkpt lat="39.2960219878143" lon="9.383198966908019"><ele>465.6</ele><time>2026-03-28T11:02:22.999Z</time></trkpt><trkpt lat="39.296060679117765" lon="9.383133898864518"><ele>465.4</ele><time>2026-03-28T11:02:24.999Z</time></trkpt><trkpt lat="39.296153554174914" lon="9.383065619874625"><ele>465.2</ele><time>2026-03-28T11:02:26.999Z</time></trkpt><trkpt lat="39.296255306823646" lon="9.383026611830715"><ele>465.0</ele><time>2026-03-28T11:02:28.999Z</time></trkpt><trkpt lat="39.29635672655912" lon="9.382930049194744"><ele>460.2857142857143</ele><time>2026-03-28T11:02:30.999Z</time></trkpt><trkpt lat="39.29644774400133" lon="9.382867777218497"><ele>455.5714285714286</ele><time>2026-03-28T11:02:32.999Z</time></trkpt><trkpt lat="39.29651322270935" lon="9.382807317545257"><ele>450.8571428571429</ele><time>2026-03-28T11:02:34.999Z</time></trkpt><trkpt lat="39.2965672961584" lon="9.382759017698346"><ele>446.1428571428571</ele><time>2026-03-28T11:02:37.999Z</time></trkpt><trkpt lat="39.29662346400504" lon="9.382713092661108"><ele>441.42857142857144</ele><time>2026-03-28T11:02:39.999Z</time></trkpt><trkpt lat="39.2966796163095" lon="9.38266466827039"><ele>436.7142857142857</ele><time>2026-03-28T11:02:40.999Z</time></trkpt><trkpt lat="39.296738456595705" lon="9.382626843299962"><ele>432.0</ele><time>2026-03-28T11:02:41.999Z</time></trkpt><trkpt lat="39.29682276760659" lon="9.382554536129549"><ele>432.0</ele><time>2026-03-28T11:02:43.999Z</time></trkpt><trkpt lat="39.29688908830979" lon="9.382467397796498"><ele>432.0</ele><time>2026-03-28T11:02:45.998Z</time></trkpt><trkpt lat="39.296904830066964" lon="9.382384391979558"><ele>432.0</ele><time>2026-03-28T11:02:47.998Z</time></trkpt><trkpt lat="39.29694469851642" lon="9.38230616342732"><ele>432.0</ele><time>2026-03-28T11:02:51.998Z</time></trkpt><trkpt lat="39.29701881026265" lon="9.382349557985654"><ele>432.0</ele><time>2026-03-28T11:02:53.998Z</time></trkpt><trkpt lat="39.29707705244813" lon="9.382383761556726"><ele>432.0</ele><time>2026-03-28T11:02:55.998Z</time></trkpt><trkpt lat="39.297149558661516" lon="9.3824153467216"><ele>432.0</ele><time>2026-03-28T11:02:58.998Z</time></trkpt><trkpt lat="39.29723244923223" lon="9.382386784252812"><ele>432.00000000000006</ele><time>2026-03-28T11:03:01Z</time></trkpt><trkpt lat="39.29732435832744" lon="9.382370609420535"><ele>432.00000000000006</ele><time>2026-03-28T11:03:05Z</time></trkpt><trkpt lat="39.2973891112322" lon="9.382341772074676"><ele>432.0</ele><time>2026-03-28T11:03:08Z</time></trkpt><trkpt lat="39.297482931396196" lon="9.382412447034586"><ele>432.0</ele><time>2026-03-28T11:03:12Z</time></trkpt><trkpt lat="39.297438181541324" lon="9.38253944336081"><ele>432.0</ele><time>2026-03-28T11:03:14Z</time></trkpt><trkpt lat="39.29738457486026" lon="9.382670392747912"><ele>432.0</ele><time>2026-03-28T11:03:16Z</time></trkpt><trkpt lat="39.29732951116729" lon="9.382766593763822"><ele>432.0</ele><time>2026-03-28T11:03:18Z</time></trkpt><trkpt lat="39.297270103366394" lon="9.382839529417613"><ele>432.0</ele><time>2026-03-28T11:03:20Z</time></trkpt><trkpt lat="39.2972203094499" lon="9.382892210042415"><ele>432.0</ele><time>2026-03-28T11:03:21Z</time></trkpt><trkpt lat="39.29717516745567" lon="9.382950199654589"><ele>432.0</ele><time>2026-03-28T11:03:22Z</time></trkpt><trkpt lat="39.297130759509194" lon="9.383054574560287"><ele>430.1666666666667</ele><time>2026-03-28T11:03:24Z</time></trkpt><trkpt lat="39.29708368790223" lon="9.383122163582799"><ele>428.33333333333337</ele><time>2026-03-28T11:03:26Z</time></trkpt><trkpt lat="39.29701836228783" lon="9.383194402334727"><ele>426.5</ele><time>2026-03-28T11:03:28Z</time></trkpt><trkpt lat="39.296959139231795" lon="9.383298604643832"><ele>424.6666666666667</ele><time>2026-03-28T11:03:30Z</time></trkpt><trkpt lat="39.296908167208635" lon="9.383410614469877"><ele>422.83333333333337</ele><time>2026-03-28T11:03:32Z</time></trkpt><trkpt lat="39.29687142324964" lon="9.383493045882531"><ele>421.0</ele><time>2026-03-28T11:03:35Z</time></trkpt><trkpt lat="39.29686485512232" lon="9.383598556598056"><ele>421.00000000000006</ele><time>2026-03-28T11:03:40Z</time></trkpt><trkpt lat="39.296962186135474" lon="9.383644273726572"><ele>421.0</ele><time>2026-03-28T11:03:43Z</time></trkpt><trkpt lat="39.297038108076606" lon="9.383664471847327"><ele>421.0</ele><time>2026-03-28T11:03:47Z</time></trkpt><trkpt lat="39.297123502924606" lon="9.383679330043774"><ele>421.0</ele><time>2026-03-28T11:03:50Z</time></trkpt><trkpt lat="39.29719736221413" lon="9.383729905646623"><ele>421.00000000000006</ele><time>2026-03-28T11:05:37Z</time></trkpt><trkpt lat="39.297274805060574" lon="9.38374462807515"><ele>421.0</ele><time>2026-03-28T11:05:42Z</time></trkpt><trkpt lat="39.297333390101095" lon="9.383783961078018"><ele>417.00000000000006</ele><time>2026-03-28T11:05:44Z</time></trkpt><trkpt lat="39.297391145329655" lon="9.383820436620205"><ele>413.0</ele><time>2026-03-28T11:05:46Z</time></trkpt><trkpt lat="39.29745332487612" lon="9.383842514688524"><ele>409.0</ele><time>2026-03-28T11:05:48Z</time></trkpt><trkpt lat="39.29751523752746" lon="9.383882191600552"><ele>405.0</ele><time>2026-03-28T11:05:51Z</time></trkpt><trkpt lat="39.29757839568726" lon="9.383900270155749"><ele>401.0</ele><time>2026-03-28T11:05:53Z</time></trkpt><trkpt lat="39.29765606848682" lon="9.38389573210809"><ele>397.00000000000006</ele><time>2026-03-28T11:05:56Z</time></trkpt><trkpt lat="39.29772573080807" lon="9.383919573956879"><ele>393.0</ele><time>2026-03-28T11:05:59Z</time></trkpt><trkpt lat="39.297792549777" lon="9.383981611209247"><ele>393.00000000000006</ele><time>2026-03-28T11:06:02Z</time></trkpt><trkpt lat="39.29782745959778" lon="9.38406746777967"><ele>393.0</ele><time>2026-03-28T11:06:06Z</time></trkpt><trkpt lat="39.297900320315186" lon="9.384076536402624"><ele>393.0</ele><time>2026-03-28T11:06:10.999Z</time></trkpt><trkpt lat="39.29795978853081" lon="9.384037644994093"><ele>393.0</ele><time>2026-03-28T11:06:14.999Z</time></trkpt><trkpt lat="39.29793896096459" lon="9.383946406072722"><ele>393.0</ele><time>2026-03-28T11:06:18.999Z</time></trkpt><trkpt lat="39.29794226806721" lon="9.383860581100448"><ele>393.00000000000006</ele><time>2026-03-28T11:06:20.999Z</time></trkpt><trkpt lat="39.29800663442966" lon="9.38388691084353"><ele>393.0</ele><time>2026-03-28T11:06:25.999Z</time></trkpt><trkpt lat="39.29807484820935" lon="9.383882551903286"><ele>389.28571428571433</ele><time>2026-03-28T11:06:36.999Z</time></trkpt><trkpt lat="39.29814670659483" lon="9.383879727983041"><ele>385.57142857142856</ele><time>2026-03-28T11:06:41.999Z</time></trkpt><trkpt lat="39.29821312191767" lon="9.383868083556647"><ele>381.8571428571429</ele><time>2026-03-28T11:06:47.999Z</time></trkpt><trkpt lat="39.298283181906314" lon="9.383847403187378"><ele>378.14285714285717</ele><time>2026-03-28T11:06:52.999Z</time></trkpt><trkpt lat="39.29837303398523" lon="9.383854759022174"><ele>374.42857142857144</ele><time>2026-03-28T11:06:55.999Z</time></trkpt><trkpt lat="39.29844725702161" lon="9.383862509778377"><ele>370.7142857142857</ele><time>2026-03-28T11:06:58.999Z</time></trkpt><trkpt lat="39.29851486429824" lon="9.383874286341818"><ele>367.0</ele><time>2026-03-28T11:07:01.999Z</time></trkpt><trkpt lat="39.29857942234944" lon="9.383906509432851"><ele>367.0</ele><time>2026-03-28T11:07:03.999Z</time></trkpt><trkpt lat="39.29865006080797" lon="9.383918293470792"><ele>367.0</ele><time>2026-03-28T11:07:05.999Z</time></trkpt><trkpt lat="39.29871155108065" lon="9.383945864934207"><ele>367.0</ele><time>2026-03-28T11:07:13Z</time></trkpt><trkpt lat="39.29880641158927" lon="9.383911173279483"><ele>367.0</ele><time>2026-03-28T11:07:18Z</time></trkpt><trkpt lat="39.29889637235596" lon="9.383900096562082"><ele>367.0</ele><time>2026-03-28T11:07:22Z</time></trkpt><trkpt lat="39.2989749142022" lon="9.38391205070445"><ele>367.0</ele><time>2026-03-28T11:07:24Z</time></trkpt><trkpt lat="39.29903616768094" lon="9.383936716610418"><ele>363.5</ele><time>2026-03-28T11:07:26Z</time></trkpt><trkpt lat="39.299132722742456" lon="9.38396618952414"><ele>360.0</ele><time>2026-03-28T11:07:30Z</time></trkpt><trkpt lat="39.299200928705915" lon="9.383985403473302"><ele>356.5</ele><time>2026-03-28T11:07:32Z</time></trkpt><trkpt lat="39.299285790944936" lon="9.383933107378281"><ele>353.0</ele><time>2026-03-28T11:07:35Z</time></trkpt><trkpt lat="39.29931782535427" lon="9.383841883482125"><ele>349.5</ele><time>2026-03-28T11:07:37Z</time></trkpt><trkpt lat="39.29938881668994" lon="9.383773654085248"><ele>346.0</ele><time>2026-03-28T11:07:39Z</time></trkpt><trkpt lat="39.2994125660843" lon="9.383688728580312"><ele>345.3333333333333</ele><time>2026-03-28T11:07:41Z</time></trkpt><trkpt lat="39.29942171517914" lon="9.383591257795503"><ele>344.66666666666663</ele><time>2026-03-28T11:07:43Z</time></trkpt><trkpt lat="39.299517892338876" lon="9.38358053247301"><ele>344.0</ele><time>2026-03-28T11:07:46Z</time></trkpt><trkpt lat="39.29958179801586" lon="9.383581997754582"><ele>343.3333333333333</ele><time>2026-03-28T11:07:48Z</time></trkpt><trkpt lat="39.29965638971286" lon="9.383542656408096"><ele>342.6666666666667</ele><time>2026-03-28T11:07:51Z</time></trkpt><trkpt lat="39.299739238074714" lon="9.383522562909619"><ele>342.0</ele><time>2026-03-28T11:07:53Z</time></trkpt><trkpt lat="39.299785840050646" lon="9.383606461167963"><ele>338.5</ele><time>2026-03-28T11:07:55Z</time></trkpt><trkpt lat="39.29984709159538" lon="9.383659435902553"><ele>335.0</ele><time>2026-03-28T11:07:57Z</time></trkpt><trkpt lat="39.29992955959094" lon="9.38362456912055"><ele>331.5</ele><time>2026-03-28T11:08:00Z</time></trkpt><trkpt lat="39.30000482257793" lon="9.383566638652376"><ele>328.0</ele><time>2026-03-28T11:08:03Z</time></trkpt><trkpt lat="39.3000653622611" lon="9.38354200995524"><ele>324.5</ele><time>2026-03-28T11:08:05Z</time></trkpt><trkpt lat="39.30014191396341" lon="9.383535103665501"><ele>321.0</ele><time>2026-03-28T11:08:07Z</time></trkpt><trkpt lat="39.300210924998936" lon="9.383492070873906"><ele>320.99999999999994</ele><time>2026-03-28T11:08:09Z</time></trkpt><trkpt lat="39.30027438860487" lon="9.3834935346716"><ele>321.0</ele><time>2026-03-28T11:08:11Z</time></trkpt><trkpt lat="39.300334103639216" lon="9.383549856421544"><ele>321.0</ele><time>2026-03-28T11:08:13Z</time></trkpt><trkpt lat="39.30039898160168" lon="9.383550109483249"><ele>321.0</ele><time>2026-03-28T11:08:14.999Z</time></trkpt><trkpt lat="39.300467469238285" lon="9.383557451290372"><ele>321.0</ele><time>2026-03-28T11:08:16.999Z</time></trkpt><trkpt lat="39.30055767030393" lon="9.383579506630007"><ele>320.99999999999994</ele><time>2026-03-28T11:08:18.999Z</time></trkpt><trkpt lat="39.30062984071825" lon="9.383585413178466"><ele>321.0</ele><time>2026-03-28T11:08:20.999Z</time></trkpt><trkpt lat="39.300705977086366" lon="9.383571670403029"><ele>317.5</ele><time>2026-03-28T11:08:22.999Z</time></trkpt><trkpt lat="39.30076917803924" lon="9.383543206990176"><ele>314.0</ele><time>2026-03-28T11:08:37.999Z</time></trkpt><trkpt lat="39.3007743366171" lon="9.38342336004532"><ele>310.5</ele><time>2026-03-28T11:08:39.999Z</time></trkpt><trkpt lat="39.300759162755675" lon="9.383315757868859"><ele>307.0</ele><time>2026-03-28T11:08:41.999Z</time></trkpt><trkpt lat="39.300789762971654" lon="9.383194316563168"><ele>303.5</ele><time>2026-03-28T11:08:43.999Z</time></trkpt><trkpt lat="39.30086174675567" lon="9.38313502595893"><ele>300.0</ele><time>2026-03-28T11:08:45.999Z</time></trkpt><trkpt lat="39.300874048906536" lon="9.383000713779174"><ele>299.2</ele><time>2026-03-28T11:08:47.999Z</time></trkpt><trkpt lat="39.300852996635605" lon="9.38290459188862"><ele>298.4</ele><time>2026-03-28T11:08:48.999Z</time></trkpt><trkpt lat="39.30085354845694" lon="9.382803069017902"><ele>297.6</ele><time>2026-03-28T11:08:49.999Z</time></trkpt><trkpt lat="39.30090921366966" lon="9.382657637205904"><ele>296.8</ele><time>2026-03-28T11:08:51.999Z</time></trkpt><trkpt lat="39.300902295347626" lon="9.38251461616811"><ele>296.0</ele><time>2026-03-28T11:08:53.999Z</time></trkpt><trkpt lat="39.300892384532965" lon="9.382398561907747"><ele>296.0</ele><time>2026-03-28T11:08:55.999Z</time></trkpt><trkpt lat="39.300935505299655" lon="9.382287814892162"><ele>296.0</ele><time>2026-03-28T11:08:57.999Z</time></trkpt><trkpt lat="39.30091086692033" lon="9.382195098774828"><ele>296.0</ele><time>2026-03-28T11:08:59.999Z</time></trkpt><trkpt lat="39.30087952183164" lon="9.382120938060304"><ele>296.0</ele><time>2026-03-28T11:09:00.999Z</time></trkpt><trkpt lat="39.30087534995954" lon="9.382039536556979"><ele>296.0</ele><time>2026-03-28T11:09:01.999Z</time></trkpt><trkpt lat="39.30088626904448" lon="9.38192877872173"><ele>296.0</ele><time>2026-03-28T11:09:03.999Z</time></trkpt><trkpt lat="39.30084357484467" lon="9.381836885466551"><ele>297.33333333333337</ele><time>2026-03-28T11:09:05.999Z</time></trkpt><trkpt lat="39.30077985009942" lon="9.38172794582951"><ele>298.6666666666667</ele><time>2026-03-28T11:09:07.999Z</time></trkpt><trkpt lat="39.3007019182433" lon="9.381640583989014"><ele>300.0</ele><time>2026-03-28T11:09:09.999Z</time></trkpt><trkpt lat="39.30062177125979" lon="9.381598976493331"><ele>301.3333333333333</ele><time>2026-03-28T11:09:11.999Z</time></trkpt><trkpt lat="39.30054762572828" lon="9.381611715939266"><ele>302.66666666666663</ele><time>2026-03-28T11:09:13.999Z</time></trkpt><trkpt lat="39.300487153269216" lon="9.38157070384168"><ele>304.0</ele><time>2026-03-28T11:09:15.999Z</time></trkpt><trkpt lat="39.30044616915556" lon="9.381487062618353"><ele>304.0</ele><time>2026-03-28T11:09:18Z</time></trkpt><trkpt lat="39.30045172161144" lon="9.38139776448807"><ele>304.0</ele><time>2026-03-28T11:09:20Z</time></trkpt><trkpt lat="39.30046447242809" lon="9.381312192186236"><ele>304.0</ele><time>2026-03-28T11:09:22Z</time></trkpt><trkpt lat="39.300477887702975" lon="9.381192147338366"><ele>304.0</ele><time>2026-03-28T11:09:25Z</time></trkpt><trkpt lat="39.300466686844224" lon="9.381103748716825"><ele>304.0</ele><time>2026-03-28T11:09:27Z</time></trkpt><trkpt lat="39.3004432601402" lon="9.38101207586675"><ele>304.0</ele><time>2026-03-28T11:09:29Z</time></trkpt><trkpt lat="39.30042415697278" lon="9.380904922938631"><ele>302.3333333333333</ele><time>2026-03-28T11:09:31Z</time></trkpt><trkpt lat="39.30043603113983" lon="9.380798507181579"><ele>300.66666666666663</ele><time>2026-03-28T11:09:33Z</time></trkpt><trkpt lat="39.300503960984656" lon="9.380734227952411"><ele>299.0</ele><time>2026-03-28T11:09:35Z</time></trkpt><trkpt lat="39.30053820654692" lon="9.380633820041657"><ele>297.3333333333333</ele><time>2026-03-28T11:09:37Z</time></trkpt><trkpt lat="39.30049521317864" lon="9.38050421749429"><ele>295.6666666666667</ele><time>2026-03-28T11:09:39Z</time></trkpt><trkpt lat="39.30045427391183" lon="9.380426573368279"><ele>294.0</ele><time>2026-03-28T11:09:41Z</time></trkpt><trkpt lat="39.30043175642191" lon="9.380327906047288"><ele>293.1666666666667</ele><time>2026-03-28T11:09:43Z</time></trkpt><trkpt lat="39.30041655805414" lon="9.380225316616885"><ele>292.3333333333333</ele><time>2026-03-28T11:09:45Z</time></trkpt><trkpt lat="39.30040044276458" lon="9.38012577617217"><ele>291.5</ele><time>2026-03-28T11:09:47Z</time></trkpt><trkpt lat="39.30039007515855" lon="9.380014926856253"><ele>290.66666666666663</ele><time>2026-03-28T11:09:49Z</time></trkpt><trkpt lat="39.30040599071837" lon="9.379893110022705"><ele>289.8333333333333</ele><time>2026-03-28T11:09:53Z</time></trkpt><trkpt lat="39.30041224420766" lon="9.379776853539378"><ele>289.0</ele><time>2026-03-28T11:09:55Z</time></trkpt><trkpt lat="39.30043010561101" lon="9.379686479637073"><ele>287.66666666666663</ele><time>2026-03-28T11:09:58Z</time></trkpt><trkpt lat="39.3004868485554" lon="9.379583409786369"><ele>286.3333333333333</ele><time>2026-03-28T11:10:00Z</time></trkpt><trkpt lat="39.300480002898" lon="9.379458479621814"><ele>285.0</ele><time>2026-03-28T11:10:02Z</time></trkpt><trkpt lat="39.300500394524214" lon="9.379374002103823"><ele>283.6666666666667</ele><time>2026-03-28T11:10:04Z</time></trkpt><trkpt lat="39.30052608546199" lon="9.379282589226316"><ele>282.33333333333337</ele><time>2026-03-28T11:10:06Z</time></trkpt><trkpt lat="39.30048582380214" lon="9.379218922207212"><ele>281.0</ele><time>2026-03-28T11:10:08Z</time></trkpt><trkpt lat="39.30047929871279" lon="9.379120868892793"><ele>281.0</ele><time>2026-03-28T11:10:11Z</time></trkpt><trkpt lat="39.30048770978434" lon="9.379040227466012"><ele>281.0</ele><time>2026-03-28T11:10:12Z</time></trkpt><trkpt lat="39.30046901841458" lon="9.378882531377448"><ele>281.0</ele><time>2026-03-28T11:10:14Z</time></trkpt><trkpt lat="39.300416827646266" lon="9.378765320691553"><ele>281.0</ele><time>2026-03-28T11:10:16Z</time></trkpt><trkpt lat="39.300403144889025" lon="9.378620543147342"><ele>281.0</ele><time>2026-03-28T11:10:18Z</time></trkpt><trkpt lat="39.30040267783285" lon="9.378478198745999"><ele>280.33333333333337</ele><time>2026-03-28T11:10:20Z</time></trkpt><trkpt lat="39.30039385216545" lon="9.378382413126637"><ele>279.6666666666667</ele><time>2026-03-28T11:10:21.999Z</time></trkpt><trkpt lat="39.30041354222078" lon="9.37826637194491"><ele>279.0</ele><time>2026-03-28T11:10:23.999Z</time></trkpt><trkpt lat="39.30040915602946" lon="9.378136550459145"><ele>278.3333333333333</ele><time>2026-03-28T11:10:25.999Z</time></trkpt><trkpt lat="39.3004086447101" lon="9.37804840817039"><ele>277.66666666666663</ele><time>2026-03-28T11:10:26.999Z</time></trkpt><trkpt lat="39.30042770174581" lon="9.377960890925886"><ele>277.0</ele><time>2026-03-28T11:10:27.999Z</time></trkpt><trkpt lat="39.30048645630561" lon="9.377839406356234"><ele>275.75</ele><time>2026-03-28T11:10:29.999Z</time></trkpt><trkpt lat="39.30048648517876" lon="9.3776957407571"><ele>274.5</ele><time>2026-03-28T11:10:31.999Z</time></trkpt><trkpt lat="39.30051460165734" lon="9.377565991085218"><ele>273.25</ele><time>2026-03-28T11:10:33.999Z</time></trkpt><trkpt lat="39.30049353596243" lon="9.377367319569293"><ele>272.0</ele><time>2026-03-28T11:10:35.999Z</time></trkpt><trkpt lat="39.30047694528509" lon="9.377241346635445"><ele>270.83333333333337</ele><time>2026-03-28T11:10:36.999Z</time></trkpt><trkpt lat="39.30048798531053" lon="9.377135712042962"><ele>269.6666666666667</ele><time>2026-03-28T11:10:37.999Z</time></trkpt><trkpt lat="39.30051016160157" lon="9.377044024216874"><ele>268.5</ele><time>2026-03-28T11:10:38.999Z</time></trkpt><trkpt lat="39.30044831292458" lon="9.376933900990284"><ele>267.3333333333333</ele><time>2026-03-28T11:10:40.999Z</time></trkpt><trkpt lat="39.30036427999498" lon="9.3768955112522"><ele>266.16666666666663</ele><time>2026-03-28T11:10:42.999Z</time></trkpt><trkpt lat="39.30033193398361" lon="9.376814582570676"><ele>265.0</ele><time>2026-03-28T11:10:44.999Z</time></trkpt><trkpt lat="39.30036050910579" lon="9.376722529944415"><ele>265.0</ele><time>2026-03-28T11:10:46.999Z</time></trkpt><trkpt lat="39.30041762916" lon="9.376646636955153"><ele>265.0</ele><time>2026-03-28T11:10:48.999Z</time></trkpt><trkpt lat="39.30044282997247" lon="9.3765427884713"><ele>265.0</ele><time>2026-03-28T11:10:50.999Z</time></trkpt><trkpt lat="39.300442087282406" lon="9.376442142229466"><ele>265.0</ele><time>2026-03-28T11:10:52.999Z</time></trkpt><trkpt lat="39.30042353368407" lon="9.376319828346144"><ele>265.0</ele><time>2026-03-28T11:10:54.999Z</time></trkpt><trkpt lat="39.30038312056968" lon="9.3762145235841"><ele>265.0</ele><time>2026-03-28T11:10:57.999Z</time></trkpt><trkpt lat="39.30025911278777" lon="9.376034146013062"><ele>262.5</ele><time>2026-03-28T11:10:59.999Z</time></trkpt><trkpt lat="39.30018770479285" lon="9.375916862144168"><ele>260.0</ele><time>2026-03-28T11:11:00.999Z</time></trkpt><trkpt lat="39.30010215067145" lon="9.37575283564151"><ele>257.5</ele><time>2026-03-28T11:11:02.999Z</time></trkpt><trkpt lat="39.300039421294485" lon="9.37565757621677"><ele>255.0</ele><time>2026-03-28T11:11:03.999Z</time></trkpt><trkpt lat="39.299982527876075" lon="9.375570684341001"><ele>254.0</ele><time>2026-03-28T11:11:04.999Z</time></trkpt><trkpt lat="39.29992008607527" lon="9.37551035982924"><ele>253.0</ele><time>2026-03-28T11:11:05.999Z</time></trkpt><trkpt lat="39.2998704188632" lon="9.375450284112528"><ele>252.0</ele><time>2026-03-28T11:11:06.999Z</time></trkpt><trkpt lat="39.29984805876464" lon="9.375370208668716"><ele>251.0</ele><time>2026-03-28T11:11:07.999Z</time></trkpt><trkpt lat="39.29983645048373" lon="9.37521817412549"><ele>250.0</ele><time>2026-03-28T11:11:09.999Z</time></trkpt><trkpt lat="39.299794154290076" lon="9.375079263725455"><ele>249.0</ele><time>2026-03-28T11:11:11.999Z</time></trkpt><trkpt lat="39.29973525586833" lon="9.374980057211962"><ele>249.79999999999998</ele><time>2026-03-28T11:11:12.999Z</time></trkpt><trkpt lat="39.29970472962748" lon="9.374862484780056"><ele>250.59999999999997</ele><time>2026-03-28T11:11:13.999Z</time></trkpt><trkpt lat="39.299686308871614" lon="9.374772839784049"><ele>251.4</ele><time>2026-03-28T11:11:14.999Z</time></trkpt><trkpt lat="39.29962921142279" lon="9.374626108251322"><ele>252.2</ele><time>2026-03-28T11:11:16.999Z</time></trkpt><trkpt lat="39.29960969938584" lon="9.374508767293758"><ele>253.0</ele><time>2026-03-28T11:11:17.999Z</time></trkpt><trkpt lat="39.29954360653875" lon="9.374405058237025"><ele>253.0</ele><time>2026-03-28T11:11:18.999Z</time></trkpt><trkpt lat="39.29949823426366" lon="9.374291614504218"><ele>253.0</ele><time>2026-03-28T11:11:19.999Z</time></trkpt><trkpt lat="39.29942388483426" lon="9.37415194792027"><ele>253.0</ele><time>2026-03-28T11:11:20.999Z</time></trkpt><trkpt lat="39.29935889417649" lon="9.374029861963207"><ele>253.0</ele><time>2026-03-28T11:11:21.999Z</time></trkpt><trkpt lat="39.29931030089447" lon="9.373927167903418"><ele>253.0</ele><time>2026-03-28T11:11:22.999Z</time></trkpt><trkpt lat="39.29928490356965" lon="9.373851784794399"><ele>252.4</ele><time>2026-03-28T11:11:24Z</time></trkpt><trkpt lat="39.29928786809193" lon="9.373720451099652"><ele>251.8</ele><time>2026-03-28T11:11:26Z</time></trkpt><trkpt lat="39.29926197894421" lon="9.37361967759358"><ele>251.2</ele><time>2026-03-28T11:11:27Z</time></trkpt><trkpt lat="39.29919737173508" lon="9.373528274438506"><ele>250.6</ele><time>2026-03-28T11:11:28Z</time></trkpt><trkpt lat="39.29912639798995" lon="9.37339552784241"><ele>250.0</ele><time>2026-03-28T11:11:29Z</time></trkpt><trkpt lat="39.299085762183445" lon="9.37326742457704"><ele>249.99999999999997</ele><time>2026-03-28T11:11:30Z</time></trkpt><trkpt lat="39.299043033848" lon="9.373148987358528"><ele>250.0</ele><time>2026-03-28T11:11:31Z</time></trkpt><trkpt lat="39.299006793263715" lon="9.373038400377556"><ele>250.0</ele><time>2026-03-28T11:11:32Z</time></trkpt><trkpt lat="39.298977201377134" lon="9.37293280059147"><ele>250.0</ele><time>2026-03-28T11:11:33Z</time></trkpt><trkpt lat="39.29895491572061" lon="9.372828888415883"><ele>249.99999999999997</ele><time>2026-03-28T11:11:34Z</time></trkpt><trkpt lat="39.2989212776641" lon="9.37273107667785"><ele>250.0</ele><time>2026-03-28T11:11:35Z</time></trkpt><trkpt lat="39.29892566744598" lon="9.372641634027657"><ele>248.66666666666666</ele><time>2026-03-28T11:11:36Z</time></trkpt><trkpt lat="39.29891668163838" lon="9.372552209963459"><ele>247.33333333333331</ele><time>2026-03-28T11:11:37Z</time></trkpt><trkpt lat="39.29892676117932" lon="9.37246113761225"><ele>246.0</ele><time>2026-03-28T11:11:38Z</time></trkpt><trkpt lat="39.2989600712441" lon="9.372355358230532"><ele>244.66666666666669</ele><time>2026-03-28T11:11:39Z</time></trkpt><trkpt lat="39.298980058298795" lon="9.37221544160287"><ele>243.33333333333334</ele><time>2026-03-28T11:11:40Z</time></trkpt><trkpt lat="39.29897837598312" lon="9.372077095392624"><ele>242.0</ele><time>2026-03-28T11:11:41Z</time></trkpt><trkpt lat="39.29896052333169" lon="9.371954397283211"><ele>242.00000000000003</ele><time>2026-03-28T11:11:42Z</time></trkpt><trkpt lat="39.29895359380615" lon="9.371834582608486"><ele>242.0</ele><time>2026-03-28T11:11:43Z</time></trkpt><trkpt lat="39.29897099288809" lon="9.371726607781957"><ele>242.0</ele><time>2026-03-28T11:11:44Z</time></trkpt><trkpt lat="39.29897920818331" lon="9.371621923510673"><ele>242.0</ele><time>2026-03-28T11:11:45Z</time></trkpt><trkpt lat="39.298978604319736" lon="9.371522917722118"><ele>242.00000000000003</ele><time>2026-03-28T11:11:46Z</time></trkpt><trkpt lat="39.298967362159864" lon="9.371412339358967"><ele>242.0</ele><time>2026-03-28T11:11:47Z</time></trkpt><trkpt lat="39.29895307514722" lon="9.371288749649999"><ele>241.2</ele><time>2026-03-28T11:11:48Z</time></trkpt><trkpt lat="39.298937381837256" lon="9.371170986458228"><ele>240.39999999999998</ele><time>2026-03-28T11:11:49Z</time></trkpt><trkpt lat="39.29892411536161" lon="9.371061904953415"><ele>239.60000000000002</ele><time>2026-03-28T11:11:50Z</time></trkpt><trkpt lat="39.29892531847706" lon="9.370941372897358"><ele>238.8</ele><time>2026-03-28T11:11:51Z</time></trkpt><trkpt lat="39.29892130995981" lon="9.370812981978979"><ele>238.0</ele><time>2026-03-28T11:11:52Z</time></trkpt><trkpt lat="39.298918044770076" lon="9.370692583286193"><ele>237.99999999999997</ele><time>2026-03-28T11:11:53Z</time></trkpt><trkpt lat="39.298919867654234" lon="9.370578930546385"><ele>238.0</ele><time>2026-03-28T11:11:54Z</time></trkpt><trkpt lat="39.29893843775681" lon="9.370479777428189"><ele>238.0</ele><time>2026-03-28T11:11:55Z</time></trkpt><trkpt lat="39.2989527721341" lon="9.370384416466873"><ele>238.0</ele><time>2026-03-28T11:11:56Z</time></trkpt><trkpt lat="39.29896911165194" lon="9.370275716014762"><ele>237.99999999999997</ele><time>2026-03-28T11:11:57Z</time></trkpt><trkpt lat="39.29898560459531" lon="9.370174706652861"><ele>238.0</ele><time>2026-03-28T11:11:58Z</time></trkpt><trkpt lat="39.299005221375566" lon="9.370077060868812"><ele>237.14285714285714</ele><time>2026-03-28T11:11:59Z</time></trkpt><trkpt lat="39.29902712981838" lon="9.369984993270897"><ele>236.28571428571428</ele><time>2026-03-28T11:12:00Z</time></trkpt><trkpt lat="39.299055957885656" lon="9.369902346053005"><ele>235.42857142857144</ele><time>2026-03-28T11:12:01Z</time></trkpt><trkpt lat="39.29909302819452" lon="9.369817177655586"><ele>234.57142857142858</ele><time>2026-03-28T11:12:02Z</time></trkpt><trkpt lat="39.29913257528456" lon="9.369741153358436"><ele>233.71428571428572</ele><time>2026-03-28T11:12:03Z</time></trkpt><trkpt lat="39.29917525658155" lon="9.369672736752069"><ele>232.8571428571429</ele><time>2026-03-28T11:12:04Z</time></trkpt><trkpt lat="39.29921354272305" lon="9.369585669425877"><ele>232.00000000000003</ele><time>2026-03-28T11:12:05Z</time></trkpt><trkpt lat="39.29924837213205" lon="9.369500657890251"><ele>230.66666666666666</ele><time>2026-03-28T11:12:06Z</time></trkpt><trkpt lat="39.299254819915284" lon="9.36940355254113"><ele>229.33333333333331</ele><time>2026-03-28T11:12:07Z</time></trkpt><trkpt lat="39.29923807823858" lon="9.369293549148667"><ele>228.0</ele><time>2026-03-28T11:12:08Z</time></trkpt><trkpt lat="39.29919425611955" lon="9.369202820752259"><ele>226.66666666666669</ele><time>2026-03-28T11:12:09Z</time></trkpt><trkpt lat="39.299150421531515" lon="9.369129266194676"><ele>225.33333333333334</ele><time>2026-03-28T11:12:10Z</time></trkpt><trkpt lat="39.29910580501672" lon="9.369064624285576"><ele>224.0</ele><time>2026-03-28T11:12:11Z</time></trkpt><trkpt lat="39.29905711531232" lon="9.369000173430285"><ele>224.00000000000003</ele><time>2026-03-28T11:12:12Z</time></trkpt><trkpt lat="39.29901069608505" lon="9.368937120182753"><ele>224.0</ele><time>2026-03-28T11:12:13Z</time></trkpt><trkpt lat="39.29896374005842" lon="9.368869545915363"><ele>224.0</ele><time>2026-03-28T11:12:14Z</time></trkpt><trkpt lat="39.29891486822866" lon="9.368781411889248"><ele>224.0</ele><time>2026-03-28T11:12:15Z</time></trkpt><trkpt lat="39.2988768569482" lon="9.368678513112627"><ele>224.00000000000003</ele><time>2026-03-28T11:12:16Z</time></trkpt><trkpt lat="39.29885447161723" lon="9.368578473207979"><ele>224.0</ele><time>2026-03-28T11:12:17Z</time></trkpt><trkpt lat="39.29883726685286" lon="9.368473403925469"><ele>224.50000000000003</ele><time>2026-03-28T11:12:18Z</time></trkpt><trkpt lat="39.29879974338281" lon="9.368390357231167"><ele>225.0</ele><time>2026-03-28T11:12:19Z</time></trkpt><trkpt lat="39.29873985628171" lon="9.368321465769968"><ele>225.5</ele><time>2026-03-28T11:12:20Z</time></trkpt><trkpt lat="39.29868359963047" lon="9.368259229770716"><ele>226.0</ele><time>2026-03-28T11:12:21Z</time></trkpt><trkpt lat="39.298626840938894" lon="9.36820513810017"><ele>226.50000000000003</ele><time>2026-03-28T11:12:22Z</time></trkpt><trkpt lat="39.29858912947729" lon="9.368135487078336"><ele>227.0</ele><time>2026-03-28T11:12:23Z</time></trkpt><trkpt lat="39.29851669090596" lon="9.36798130394101"><ele>225.6</ele><time>2026-03-28T11:12:25Z</time></trkpt><trkpt lat="39.29845350068509" lon="9.367838781178"><ele>224.2</ele><time>2026-03-28T11:12:26Z</time></trkpt><trkpt lat="39.29838730499878" lon="9.367725750896682"><ele>222.8</ele><time>2026-03-28T11:12:27Z</time></trkpt><trkpt lat="39.29834297887266" lon="9.367605910771502"><ele>221.4</ele><time>2026-03-28T11:12:28Z</time></trkpt><trkpt lat="39.29829627740783" lon="9.367513055420561"><ele>220.0</ele><time>2026-03-28T11:12:29Z</time></trkpt><trkpt lat="39.298255516265236" lon="9.36743201104312"><ele>219.99999999999997</ele><time>2026-03-28T11:12:30Z</time></trkpt><trkpt lat="39.29820865594021" lon="9.367342486059306"><ele>220.0</ele><time>2026-03-28T11:12:30.999Z</time></trkpt><trkpt lat="39.29815227804011" lon="9.36724762609501"><ele>220.0</ele><time>2026-03-28T11:12:31.999Z</time></trkpt><trkpt lat="39.29810193969963" lon="9.367160571974608"><ele>220.0</ele><time>2026-03-28T11:12:32.999Z</time></trkpt><trkpt lat="39.298060161201406" lon="9.367061453163778"><ele>219.99999999999997</ele><time>2026-03-28T11:12:33.999Z</time></trkpt><trkpt lat="39.298025436844426" lon="9.366951148240565"><ele>220.0</ele><time>2026-03-28T11:12:34.999Z</time></trkpt><trkpt lat="39.298007711621054" lon="9.366864531849465"><ele>220.6</ele><time>2026-03-28T11:12:35.999Z</time></trkpt><trkpt lat="39.298001529372016" lon="9.366773652311434"><ele>221.2</ele><time>2026-03-28T11:12:36.999Z</time></trkpt><trkpt lat="39.29799151749739" lon="9.366647486310692"><ele>221.8</ele><time>2026-03-28T11:12:37.999Z</time></trkpt><trkpt lat="39.29797857102727" lon="9.366510122083184"><ele>222.4</ele><time>2026-03-28T11:12:38.999Z</time></trkpt><trkpt lat="39.297968004535825" lon="9.366384106368614"><ele>223.0</ele><time>2026-03-28T11:12:39.999Z</time></trkpt><trkpt lat="39.29795854630677" lon="9.366257180329875"><ele>223.2</ele><time>2026-03-28T11:12:40.999Z</time></trkpt><trkpt lat="39.29795867000662" lon="9.366127884427758"><ele>223.4</ele><time>2026-03-28T11:12:41.999Z</time></trkpt><trkpt lat="39.29796407039913" lon="9.365989648142067"><ele>223.59999999999997</ele><time>2026-03-28T11:12:42.999Z</time></trkpt><trkpt lat="39.297973306510976" lon="9.365846226641157"><ele>223.79999999999998</ele><time>2026-03-28T11:12:43.999Z</time></trkpt><trkpt lat="39.29798379160026" lon="9.365726493679928"><ele>224.0</ele><time>2026-03-28T11:12:44.999Z</time></trkpt><trkpt lat="39.29799607985708" lon="9.365614361749227"><ele>224.33333333333334</ele><time>2026-03-28T11:12:45.999Z</time></trkpt><trkpt lat="39.298008310839755" lon="9.365513927090479"><ele>224.66666666666669</ele><time>2026-03-28T11:12:46.999Z</time></trkpt><trkpt lat="39.2980242104479" lon="9.365403432096972"><ele>225.0</ele><time>2026-03-28T11:12:47.999Z</time></trkpt><trkpt lat="39.298044150471135" lon="9.365274328726581"><ele>225.33333333333331</ele><time>2026-03-28T11:12:48.999Z</time></trkpt><trkpt lat="39.29805537974457" lon="9.365161528723412"><ele>225.66666666666666</ele><time>2026-03-28T11:12:49.999Z</time></trkpt><trkpt lat="39.29806146827741" lon="9.365078816159972"><ele>226.0</ele><time>2026-03-28T11:12:50.999Z</time></trkpt><trkpt lat="39.29810098173857" lon="9.364979434742088"><ele>226.0</ele><time>2026-03-28T11:12:52.999Z</time></trkpt><trkpt lat="39.29803427132831" lon="9.364746656924762"><ele>226.0</ele><time>2026-03-28T11:14:03Z</time></trkpt><trkpt lat="39.29798653518983" lon="9.36465048874756"><ele>226.0</ele><time>2026-03-28T11:14:04Z</time></trkpt><trkpt lat="39.297956391320035" lon="9.364533132952438"><ele>226.0</ele><time>2026-03-28T11:14:05Z</time></trkpt><trkpt lat="39.2979426974578" lon="9.364435418473974"><ele>224.83333333333331</ele><time>2026-03-28T11:14:06Z</time></trkpt><trkpt lat="39.297930616947504" lon="9.364338572261596"><ele>223.66666666666666</ele><time>2026-03-28T11:14:07Z</time></trkpt><trkpt lat="39.297924896003764" lon="9.364252439050807"><ele>222.5</ele><time>2026-03-28T11:14:08Z</time></trkpt><trkpt lat="39.29792083689515" lon="9.364167272914543"><ele>221.33333333333331</ele><time>2026-03-28T11:14:09Z</time></trkpt><trkpt lat="39.29791194870769" lon="9.364036503119756"><ele>220.16666666666666</ele><time>2026-03-28T11:14:11Z</time></trkpt><trkpt lat="39.29794005429617" lon="9.363912361159992"><ele>219.0</ele><time>2026-03-28T11:14:13Z</time></trkpt><trkpt lat="39.29798538213016" lon="9.363814326089448"><ele>217.83333333333334</ele><time>2026-03-28T11:14:15Z</time></trkpt><trkpt lat="39.2979914881659" lon="9.363709783153947"><ele>216.66666666666669</ele><time>2026-03-28T11:14:21Z</time></trkpt><trkpt lat="39.297971260253135" lon="9.363628892069746"><ele>215.5</ele><time>2026-03-28T11:14:24Z</time></trkpt><trkpt lat="39.297918289299325" lon="9.363545264550206"><ele>214.33333333333334</ele><time>2026-03-28T11:14:27Z</time></trkpt><trkpt lat="39.297942736414285" lon="9.363450480284637"><ele>213.16666666666669</ele><time>2026-03-28T11:14:29Z</time></trkpt><trkpt lat="39.29790377914165" lon="9.36338234546307"><ele>212.0</ele><time>2026-03-28T11:14:30Z</time></trkpt><trkpt lat="39.29784220193659" lon="9.363291875195111"><ele>212.00000000000003</ele><time>2026-03-28T11:14:31Z</time></trkpt><trkpt lat="39.29779509116509" lon="9.363216627597787"><ele>212.0</ele><time>2026-03-28T11:14:32Z</time></trkpt><trkpt lat="39.29775782989725" lon="9.363147897315393"><ele>212.0</ele><time>2026-03-28T11:14:33Z</time></trkpt><trkpt lat="39.29768671413872" lon="9.36305082905979"><ele>212.0</ele><time>2026-03-28T11:14:35Z</time></trkpt><trkpt lat="39.29760427233579" lon="9.362980361116328"><ele>212.00000000000003</ele><time>2026-03-28T11:14:37Z</time></trkpt><trkpt lat="39.297681374416634" lon="9.362911500847645"><ele>212.0</ele><time>2026-03-28T11:14:40Z</time></trkpt><trkpt lat="39.29774267369975" lon="9.362880881064788"><ele>211.0</ele><time>2026-03-28T11:14:40.999Z</time></trkpt><trkpt lat="39.297797655852946" lon="9.362779432501117"><ele>210.0</ele><time>2026-03-28T11:14:42.999Z</time></trkpt><trkpt lat="39.29783140997276" lon="9.36268087399015"><ele>209.0</ele><time>2026-03-28T11:14:44.999Z</time></trkpt><trkpt lat="39.29789371976215" lon="9.362605635613516"><ele>208.0</ele><time>2026-03-28T11:14:46.999Z</time></trkpt><trkpt lat="39.297881419939976" lon="9.362445049568036"><ele>207.0</ele><time>2026-03-28T11:14:48.999Z</time></trkpt><trkpt lat="39.29784434560724" lon="9.362307451027489"><ele>205.8</ele><time>2026-03-28T11:14:49.999Z</time></trkpt><trkpt lat="39.29780655459873" lon="9.36218735275903"><ele>204.6</ele><time>2026-03-28T11:14:50.999Z</time></trkpt><trkpt lat="39.29773873143188" lon="9.362044665907623"><ele>203.4</ele><time>2026-03-28T11:14:52.999Z</time></trkpt><trkpt lat="39.297672512609324" lon="9.361972389864166"><ele>202.20000000000002</ele><time>2026-03-28T11:14:53.999Z</time></trkpt><trkpt lat="39.297610670496056" lon="9.361894090677188"><ele>201.0</ele><time>2026-03-28T11:14:54.999Z</time></trkpt><trkpt lat="39.297572062704305" lon="9.361802865274946"><ele>201.0</ele><time>2026-03-28T11:14:55.999Z</time></trkpt><trkpt lat="39.297529899297665" lon="9.361731661566106"><ele>201.0</ele><time>2026-03-28T11:14:56.999Z</time></trkpt><trkpt lat="39.29745718253561" lon="9.361711817467784"><ele>201.0</ele><time>2026-03-28T11:14:57.999Z</time></trkpt><trkpt lat="39.29735649410365" lon="9.361690081422964"><ele>201.0</ele><time>2026-03-28T11:14:58.999Z</time></trkpt><trkpt lat="39.2972688702869" lon="9.361629188534822"><ele>201.0</ele><time>2026-03-28T11:14:59.999Z</time></trkpt><trkpt lat="39.297173223090425" lon="9.36154567817252"><ele>200.0</ele><time>2026-03-28T11:15:00.999Z</time></trkpt><trkpt lat="39.297079732061555" lon="9.361468078669798"><ele>199.0</ele><time>2026-03-28T11:15:01.999Z</time></trkpt><trkpt lat="39.29698904831433" lon="9.361389063179942"><ele>198.0</ele><time>2026-03-28T11:15:02.999Z</time></trkpt><trkpt lat="39.296906879027404" lon="9.361284971346848"><ele>197.0</ele><time>2026-03-28T11:15:03.999Z</time></trkpt><trkpt lat="39.296842279909264" lon="9.361185777645193"><ele>196.0</ele><time>2026-03-28T11:15:04.999Z</time></trkpt><trkpt lat="39.29678409134417" lon="9.36109245480738"><ele>195.99999999999997</ele><time>2026-03-28T11:15:05.999Z</time></trkpt><trkpt lat="39.2967354279501" lon="9.360998545099614"><ele>196.0</ele><time>2026-03-28T11:15:06.999Z</time></trkpt><trkpt lat="39.296682686878576" lon="9.360914718173712"><ele>196.0</ele><time>2026-03-28T11:15:07.999Z</time></trkpt><trkpt lat="39.296609775444544" lon="9.360852272742408"><ele>196.0</ele><time>2026-03-28T11:15:08.999Z</time></trkpt><trkpt lat="39.29654158335825" lon="9.360797858667333"><ele>195.99999999999997</ele><time>2026-03-28T11:15:09.999Z</time></trkpt><trkpt lat="39.296482126828124" lon="9.36071550450362"><ele>196.0</ele><time>2026-03-28T11:15:10.999Z</time></trkpt><trkpt lat="39.29642633093623" lon="9.360592609457738"><ele>196.25</ele><time>2026-03-28T11:15:11.999Z</time></trkpt><trkpt lat="39.29635278173061" lon="9.360457194554016"><ele>196.5</ele><time>2026-03-28T11:15:12.999Z</time></trkpt><trkpt lat="39.29627313279711" lon="9.360344018191155"><ele>196.75</ele><time>2026-03-28T11:15:13.999Z</time></trkpt><trkpt lat="39.29620985348976" lon="9.360242858445828"><ele>197.0</ele><time>2026-03-28T11:15:14.999Z</time></trkpt><trkpt lat="39.29613770216179" lon="9.360137878589054"><ele>197.0</ele><time>2026-03-28T11:15:15.999Z</time></trkpt><trkpt lat="39.29605407207138" lon="9.360035434240185"><ele>197.0</ele><time>2026-03-28T11:15:16.999Z</time></trkpt><trkpt lat="39.29597221983967" lon="9.359926561435907"><ele>197.0</ele><time>2026-03-28T11:15:17.999Z</time></trkpt><trkpt lat="39.29589664104266" lon="9.359818430880038"><ele>197.0</ele><time>2026-03-28T11:15:18.999Z</time></trkpt><trkpt lat="39.295819987455474" lon="9.3597284944216"><ele>197.0</ele><time>2026-03-28T11:15:19.999Z</time></trkpt><trkpt lat="39.29574676516581" lon="9.359630063428094"><ele>196.2</ele><time>2026-03-28T11:15:20.999Z</time></trkpt><trkpt lat="39.29567194981151" lon="9.359521671883831"><ele>195.39999999999998</ele><time>2026-03-28T11:15:21.999Z</time></trkpt><trkpt lat="39.295597817574496" lon="9.359401554422812"><ele>194.60000000000002</ele><time>2026-03-28T11:15:22.999Z</time></trkpt><trkpt lat="39.29553333580622" lon="9.359305050423096"><ele>193.8</ele><time>2026-03-28T11:15:23.999Z</time></trkpt><trkpt lat="39.29547889495" lon="9.359219611688642"><ele>193.0</ele><time>2026-03-28T11:15:24.999Z</time></trkpt><trkpt lat="39.29544061936113" lon="9.359137377529265"><ele>192.99999999999997</ele><time>2026-03-28T11:15:25.999Z</time></trkpt><trkpt lat="39.29540284821362" lon="9.35903668666011"><ele>193.0</ele><time>2026-03-28T11:15:26.999Z</time></trkpt><trkpt lat="39.29536826388527" lon="9.358942601707572"><ele>193.0</ele><time>2026-03-28T11:15:27.999Z</time></trkpt><trkpt lat="39.29535255555681" lon="9.358839436758572"><ele>193.0</ele><time>2026-03-28T11:15:28.999Z</time></trkpt><trkpt lat="39.29534567961279" lon="9.35873645582828"><ele>192.99999999999997</ele><time>2026-03-28T11:15:29.999Z</time></trkpt><trkpt lat="39.29533804428606" lon="9.358640972422128"><ele>193.0</ele><time>2026-03-28T11:15:30.999Z</time></trkpt><trkpt lat="39.29531683394088" lon="9.358546017037064"><ele>191.33333333333331</ele><time>2026-03-28T11:15:31.999Z</time></trkpt><trkpt lat="39.295304001535115" lon="9.358450805991746"><ele>189.66666666666666</ele><time>2026-03-28T11:15:32.999Z</time></trkpt><trkpt lat="39.29530601319226" lon="9.35835416065334"><ele>188.0</ele><time>2026-03-28T11:15:34Z</time></trkpt><trkpt lat="39.29531153997438" lon="9.35827211709849"><ele>186.33333333333331</ele><time>2026-03-28T11:15:35Z</time></trkpt><trkpt lat="39.29533685031004" lon="9.358131289423335"><ele>184.66666666666666</ele><time>2026-03-28T11:15:37Z</time></trkpt><trkpt lat="39.2953654666286" lon="9.358009230766767"><ele>183.0</ele><time>2026-03-28T11:15:39Z</time></trkpt><trkpt lat="39.29535805234059" lon="9.357896818566088"><ele>182.2</ele><time>2026-03-28T11:15:41Z</time></trkpt><trkpt lat="39.29547424879968" lon="9.35774996435621"><ele>181.4</ele><time>2026-03-28T11:15:42Z</time></trkpt><trkpt lat="39.29544109656901" lon="9.35764871241294"><ele>180.6</ele><time>2026-03-28T11:15:43Z</time></trkpt><trkpt lat="39.29540744869162" lon="9.357552919461565"><ele>179.79999999999998</ele><time>2026-03-28T11:15:44Z</time></trkpt><trkpt lat="39.29536600534929" lon="9.357454526473015"><ele>179.0</ele><time>2026-03-28T11:15:45Z</time></trkpt><trkpt lat="39.29531094987485" lon="9.357347197066032"><ele>179.0</ele><time>2026-03-28T11:15:46Z</time></trkpt><trkpt lat="39.29526692045467" lon="9.357262600601878"><ele>179.0</ele><time>2026-03-28T11:15:48Z</time></trkpt><trkpt lat="39.29521009168698" lon="9.357181059918442"><ele>179.0</ele><time>2026-03-28T11:16:02.999Z</time></trkpt><trkpt lat="39.29516736451642" lon="9.357069754884746"><ele>179.0</ele><time>2026-03-28T11:16:03.999Z</time></trkpt><trkpt lat="39.295094006868226" lon="9.35694726267653"><ele>179.0</ele><time>2026-03-28T11:16:04.999Z</time></trkpt><trkpt lat="39.29503790162133" lon="9.356873632664433"><ele>179.16666666666666</ele><time>2026-03-28T11:16:05.999Z</time></trkpt><trkpt lat="39.294993991134405" lon="9.356808266236854"><ele>179.33333333333331</ele><time>2026-03-28T11:16:07.999Z</time></trkpt><trkpt lat="39.29493900776848" lon="9.356732139895229"><ele>179.5</ele><time>2026-03-28T11:16:24.999Z</time></trkpt><trkpt lat="39.29487340312892" lon="9.35665102208367"><ele>179.66666666666666</ele><time>2026-03-28T11:16:31.999Z</time></trkpt><trkpt lat="39.29481543466957" lon="9.356585837898228"><ele>179.83333333333334</ele><time>2026-03-28T11:16:34.999Z</time></trkpt><trkpt lat="39.29474436437058" lon="9.356523701725898"><ele>180.0</ele><time>2026-03-28T11:16:38.999Z</time></trkpt><trkpt lat="39.29467433456288" lon="9.356459123591016"><ele>180.25</ele><time>2026-03-28T11:16:40.999Z</time></trkpt><trkpt lat="39.29459678571308" lon="9.356381604396699"><ele>180.5</ele><time>2026-03-28T11:16:42.999Z</time></trkpt><trkpt lat="39.29451942232309" lon="9.35628199490433"><ele>180.75</ele><time>2026-03-28T11:16:45.999Z</time></trkpt><trkpt lat="39.294589088236854" lon="9.35644234385929"><ele>181.0</ele><time>2026-03-28T11:16:55.998Z</time></trkpt><trkpt lat="39.2946849432903" lon="9.35652790491481"><ele>180.83333333333334</ele><time>2026-03-28T11:16:56.998Z</time></trkpt><trkpt lat="39.29477010243295" lon="9.35661277856295"><ele>180.66666666666669</ele><time>2026-03-28T11:16:57.998Z</time></trkpt><trkpt lat="39.29483048960428" lon="9.35667862892743"><ele>180.5</ele><time>2026-03-28T11:16:58.998Z</time></trkpt><trkpt lat="39.29487593260514" lon="9.356735808958486"><ele>180.33333333333334</ele><time>2026-03-28T11:16:59.998Z</time></trkpt><trkpt lat="39.29494130784343" lon="9.356830038968944"><ele>180.16666666666666</ele><time>2026-03-28T11:17:01.998Z</time></trkpt><trkpt lat="39.295008994965826" lon="9.356899766051678"><ele>180.0</ele><time>2026-03-28T11:17:03.998Z</time></trkpt><trkpt lat="39.295065234292" lon="9.356859269822944"><ele>180.0</ele><time>2026-03-28T11:17:06.998Z</time></trkpt><trkpt lat="39.29513115070621" lon="9.356844963334861"><ele>180.0</ele><time>2026-03-28T11:17:13.998Z</time></trkpt><trkpt lat="39.295186559297484" lon="9.35690629519265"><ele>180.0</ele><time>2026-03-28T11:17:17.998Z</time></trkpt><trkpt lat="39.29523797022516" lon="9.356968096020422"><ele>180.0</ele><time>2026-03-28T11:17:18.998Z</time></trkpt><trkpt lat="39.29531836461605" lon="9.356969226499189"><ele>180.0</ele><time>2026-03-28T11:17:20.998Z</time></trkpt><trkpt lat="39.295361262860965" lon="9.356888665492516"><ele>180.0</ele><time>2026-03-28T11:17:22.998Z</time></trkpt><trkpt lat="39.295385786014315" lon="9.356811029227098"><ele>180.0</ele><time>2026-03-28T11:17:24.998Z</time></trkpt><trkpt lat="39.295392387397094" lon="9.356716269458973"><ele>180.0</ele><time>2026-03-28T11:17:31.998Z</time></trkpt><trkpt lat="39.295398941570674" lon="9.356623301278544"><ele>180.0</ele><time>2026-03-28T11:17:38.998Z</time></trkpt><trkpt lat="39.29541071022504" lon="9.356536413802173"><ele>180.0</ele><time>2026-03-28T11:17:41.999Z</time></trkpt><trkpt lat="39.29543938694862" lon="9.356429170492337"><ele>180.0</ele><time>2026-03-28T11:17:45.999Z</time></trkpt><trkpt lat="39.295462297815085" lon="9.356331096206786"><ele>180.0</ele><time>2026-03-28T11:17:52.999Z</time></trkpt><trkpt lat="39.29549969585502" lon="9.356236658733074"><ele>180.0</ele><time>2026-03-28T11:17:55.999Z</time></trkpt><trkpt lat="39.295574390339496" lon="9.356166918099083"><ele>183.16666666666666</ele><time>2026-03-28T11:17:58.999Z</time></trkpt><trkpt lat="39.295642135855246" lon="9.356111902751278"><ele>186.33333333333331</ele><time>2026-03-28T11:18:00.999Z</time></trkpt><trkpt lat="39.295709787355904" lon="9.356039708291846"><ele>189.5</ele><time>2026-03-28T11:18:02.999Z</time></trkpt><trkpt lat="39.29575265079715" lon="9.355972147969743"><ele>192.66666666666666</ele><time>2026-03-28T11:18:04.999Z</time></trkpt><trkpt lat="39.29581575480143" lon="9.355903388925922"><ele>195.83333333333331</ele><time>2026-03-28T11:18:06.999Z</time></trkpt><trkpt lat="39.29589436365934" lon="9.355838613004863"><ele>199.0</ele><time>2026-03-28T11:18:09.999Z</time></trkpt><trkpt lat="39.29599356158025" lon="9.355749829158416"><ele>198.99999999999997</ele><time>2026-03-28T11:18:11.999Z</time></trkpt><trkpt lat="39.296034909641726" lon="9.35568825196386"><ele>199.0</ele><time>2026-03-28T11:18:12.999Z</time></trkpt><trkpt lat="39.296109677775306" lon="9.355699669880337"><ele>199.0</ele><time>2026-03-28T11:18:15.999Z</time></trkpt><trkpt lat="39.29621519041286" lon="9.355699774375951"><ele>199.0</ele><time>2026-03-28T11:18:17.999Z</time></trkpt><trkpt lat="39.29627993716661" lon="9.355702768563415"><ele>198.99999999999997</ele><time>2026-03-28T11:18:18.999Z</time></trkpt><trkpt lat="39.2963625031424" lon="9.355696693231836"><ele>199.0</ele><time>2026-03-28T11:18:20.999Z</time></trkpt><trkpt lat="39.29641635684205" lon="9.355643218193489"><ele>202.39999999999998</ele><time>2026-03-28T11:18:23.999Z</time></trkpt><trkpt lat="39.2964859149231" lon="9.355526179001874"><ele>205.8</ele><time>2026-03-28T11:18:25.999Z</time></trkpt><trkpt lat="39.296538848251" lon="9.355460023739575"><ele>209.20000000000002</ele><time>2026-03-28T11:18:27.999Z</time></trkpt><trkpt lat="39.29663551985545" lon="9.355445938347325"><ele>212.60000000000002</ele><time>2026-03-28T11:18:29.999Z</time></trkpt><trkpt lat="39.296702364336916" lon="9.355416304915204"><ele>216.0</ele><time>2026-03-28T11:18:30.999Z</time></trkpt><trkpt lat="39.296792414373705" lon="9.355363351471208"><ele>216.0</ele><time>2026-03-28T11:18:32.999Z</time></trkpt><trkpt lat="39.296809303972466" lon="9.355262806308307"><ele>216.0</ele><time>2026-03-28T11:18:36.999Z</time></trkpt><trkpt lat="39.29680841116287" lon="9.355171891329137"><ele>216.0</ele><time>2026-03-28T11:23:12.999Z</time></trkpt><trkpt lat="39.29683432848768" lon="9.355254350724472"><ele>216.0</ele><time>2026-03-28T11:25:34.999Z</time></trkpt><trkpt lat="39.29683474008394" lon="9.35513794815264"><ele>216.0</ele><time>2026-03-28T11:30:17Z</time></trkpt><trkpt lat="39.29688025735621" lon="9.355043889539024"><ele>216.0</ele><time>2026-03-28T11:30:30Z</time></trkpt><trkpt lat="39.29691817955481" lon="9.354971555579287"><ele>216.0</ele><time>2026-03-28T11:30:34Z</time></trkpt><trkpt lat="39.29694387733281" lon="9.354878752802039"><ele>216.0</ele><time>2026-03-28T11:30:37Z</time></trkpt><trkpt lat="39.29699259760274" lon="9.354795450834562"><ele>216.0</ele><time>2026-03-28T11:30:40Z</time></trkpt><trkpt lat="39.29703582988561" lon="9.35470754529983"><ele>216.0</ele><time>2026-03-28T11:30:43Z</time></trkpt><trkpt lat="39.29707213161501" lon="9.354628155308726"><ele>216.0</ele><time>2026-03-28T11:30:46Z</time></trkpt><trkpt lat="39.29710895176847" lon="9.35452756786036"><ele>216.0</ele><time>2026-03-28T11:30:49Z</time></trkpt><trkpt lat="39.29712976818388" lon="9.354441309988905"><ele>217.85714285714286</ele><time>2026-03-28T11:30:51Z</time></trkpt><trkpt lat="39.29712629226693" lon="9.354347877144717"><ele>219.71428571428572</ele><time>2026-03-28T11:30:56Z</time></trkpt><trkpt lat="39.29712033089878" lon="9.35425440790238"><ele>221.57142857142856</ele><time>2026-03-28T11:31:00Z</time></trkpt><trkpt lat="39.2971438633984" lon="9.354161076517032"><ele>223.42857142857144</ele><time>2026-03-28T11:31:07Z</time></trkpt><trkpt lat="39.29717600235675" lon="9.354086014551353"><ele>225.2857142857143</ele><time>2026-03-28T11:31:33.999Z</time></trkpt><trkpt lat="39.297174949884585" lon="9.353994489374704"><ele>227.14285714285714</ele><time>2026-03-28T11:31:38.999Z</time></trkpt><trkpt lat="39.297186383753626" lon="9.353886397549037"><ele>229.0</ele><time>2026-03-28T11:31:43.999Z</time></trkpt><trkpt lat="39.29722339463216" lon="9.353790732087894"><ele>234.14285714285714</ele><time>2026-03-28T11:31:47.999Z</time></trkpt><trkpt lat="39.297272366260536" lon="9.353710442366134"><ele>239.28571428571428</ele><time>2026-03-28T11:31:50.999Z</time></trkpt><trkpt lat="39.29731910917932" lon="9.353648957031218"><ele>244.42857142857142</ele><time>2026-03-28T11:31:55.999Z</time></trkpt><trkpt lat="39.29736333654235" lon="9.353581218491762"><ele>249.57142857142856</ele><time>2026-03-28T11:31:59.999Z</time></trkpt><trkpt lat="39.29740770905285" lon="9.353512480353908"><ele>254.71428571428572</ele><time>2026-03-28T11:34:05.999Z</time></trkpt><trkpt lat="39.297447613953906" lon="9.353447342573295"><ele>259.85714285714283</ele><time>2026-03-28T11:35:04Z</time></trkpt><trkpt lat="39.29747253037343" lon="9.353329539205475"><ele>265.0</ele><time>2026-03-28T11:37:23Z</time></trkpt><trkpt lat="39.29748281255857" lon="9.353242581848429"><ele>265.0</ele><time>2026-03-28T11:37:31Z</time></trkpt><trkpt lat="39.29751307520593" lon="9.353167276763838"><ele>265.0</ele><time>2026-03-28T11:38:00.999Z</time></trkpt><trkpt lat="39.29757473451492" lon="9.35302056631336"><ele>265.0</ele><time>2026-03-28T11:42:57Z</time></trkpt><trkpt lat="39.297592315471675" lon="9.3529368966112"><ele>265.0</ele><time>2026-03-28T11:43:00Z</time></trkpt><trkpt lat="39.29759767120911" lon="9.35284194828544"><ele>265.0</ele><time>2026-03-28T11:43:04Z</time></trkpt><trkpt lat="39.29757375854044" lon="9.352748865364003"><ele>265.0</ele><time>2026-03-28T11:43:30.999Z</time></trkpt><trkpt lat="39.297534723174564" lon="9.352667106828166"><ele>267.4285714285714</ele><time>2026-03-28T11:45:33.999Z</time></trkpt><trkpt lat="39.29747974109453" lon="9.35261867619794"><ele>269.85714285714283</ele><time>2026-03-28T11:46:07.999Z</time></trkpt><trkpt lat="39.29743697564246" lon="9.352542016209338"><ele>272.2857142857143</ele><time>2026-03-28T11:46:10.999Z</time></trkpt><trkpt lat="39.29739062389974" lon="9.35248126269596"><ele>274.71428571428567</ele><time>2026-03-28T11:46:14.999Z</time></trkpt><trkpt lat="39.29734625397259" lon="9.352422313606377"><ele>277.1428571428571</ele><time>2026-03-28T11:47:09Z</time></trkpt><trkpt lat="39.29732091515371" lon="9.352308506260707"><ele>279.57142857142856</ele><time>2026-03-28T11:47:13Z</time></trkpt><trkpt lat="39.29729160594448" lon="9.352233061458376"><ele>282.0</ele><time>2026-03-28T11:47:15Z</time></trkpt><trkpt lat="39.29727924814563" lon="9.352144990073132"><ele>285.14285714285717</ele><time>2026-03-28T11:47:17Z</time></trkpt><trkpt lat="39.297297524424955" lon="9.352050857145441"><ele>288.2857142857143</ele><time>2026-03-28T11:47:20Z</time></trkpt><trkpt lat="39.29728427512662" lon="9.351954983276487"><ele>291.42857142857144</ele><time>2026-03-28T11:47:23Z</time></trkpt><trkpt lat="39.29730002270728" lon="9.351873267900338"><ele>294.57142857142856</ele><time>2026-03-28T11:47:26Z</time></trkpt><trkpt lat="39.2972992294372" lon="9.351764429370766"><ele>297.7142857142857</ele><time>2026-03-28T11:47:29Z</time></trkpt><trkpt lat="39.297291710378325" lon="9.35166700956875"><ele>300.85714285714283</ele><time>2026-03-28T11:47:31Z</time></trkpt><trkpt lat="39.297297123783586" lon="9.35158025325673"><ele>304.0</ele><time>2026-03-28T11:47:33Z</time></trkpt><trkpt lat="39.29729287411654" lon="9.35149216286565"><ele>304.0</ele><time>2026-03-28T11:47:35Z</time></trkpt><trkpt lat="39.29728005663587" lon="9.351392565645778"><ele>304.0</ele><time>2026-03-28T11:47:37Z</time></trkpt><trkpt lat="39.29726174906603" lon="9.351313838803362"><ele>304.0</ele><time>2026-03-28T11:47:39.999Z</time></trkpt><trkpt lat="39.29726302851192" lon="9.351229776257414"><ele>304.0</ele><time>2026-03-28T11:47:52.999Z</time></trkpt><trkpt lat="39.297188337743606" lon="9.351215375767945"><ele>304.0</ele><time>2026-03-28T11:47:56.999Z</time></trkpt><trkpt lat="39.29711560361476" lon="9.351225207048984"><ele>304.0</ele><time>2026-03-28T11:47:58.999Z</time></trkpt><trkpt lat="39.29701683673002" lon="9.351195094380683"><ele>300.8333333333333</ele><time>2026-03-28T11:48:00.999Z</time></trkpt><trkpt lat="39.29695049002873" lon="9.351179738915253"><ele>297.66666666666663</ele><time>2026-03-28T11:48:02.999Z</time></trkpt><trkpt lat="39.296862611419115" lon="9.351139488140747"><ele>294.5</ele><time>2026-03-28T11:48:05.999Z</time></trkpt><trkpt lat="39.29677604598514" lon="9.351123334575531"><ele>291.3333333333333</ele><time>2026-03-28T11:48:14.999Z</time></trkpt><trkpt lat="39.296709587782004" lon="9.351187065042017"><ele>288.1666666666667</ele><time>2026-03-28T11:48:18.999Z</time></trkpt><trkpt lat="39.29664940080427" lon="9.351312778960342"><ele>285.0</ele><time>2026-03-28T11:48:20.999Z</time></trkpt><trkpt lat="39.296630828757074" lon="9.351414539439736"><ele>285.0</ele><time>2026-03-28T11:48:22.999Z</time></trkpt><trkpt lat="39.29660666239575" lon="9.351496718086997"><ele>285.0</ele><time>2026-03-28T11:48:24.999Z</time></trkpt><trkpt lat="39.29666010189461" lon="9.351362491993017"><ele>285.0</ele><time>2026-03-28T11:48:29.999Z</time></trkpt><trkpt lat="39.29668135329427" lon="9.351258496810463"><ele>285.0</ele><time>2026-03-28T11:48:30.999Z</time></trkpt><trkpt lat="39.296724705669796" lon="9.351172082907588"><ele>285.0</ele><time>2026-03-28T11:48:31.999Z</time></trkpt><trkpt lat="39.29681342019869" lon="9.351126801811422"><ele>285.0</ele><time>2026-03-28T11:48:33.999Z</time></trkpt><trkpt lat="39.29689300423324" lon="9.351146197215046"><ele>283.8333333333333</ele><time>2026-03-28T11:48:34.999Z</time></trkpt><trkpt lat="39.29698269167018" lon="9.351188588114399"><ele>282.6666666666667</ele><time>2026-03-28T11:48:35.999Z</time></trkpt><trkpt lat="39.297060348749554" lon="9.35122732268232"><ele>281.5</ele><time>2026-03-28T11:48:36.999Z</time></trkpt><trkpt lat="39.29713184141603" lon="9.351233920707495"><ele>280.33333333333337</ele><time>2026-03-28T11:48:37.999Z</time></trkpt><trkpt lat="39.29723347711978" lon="9.351224738740992"><ele>279.1666666666667</ele><time>2026-03-28T11:48:39.999Z</time></trkpt><trkpt lat="39.29728104795396" lon="9.351157602216963"><ele>278.0</ele><time>2026-03-28T11:48:41.999Z</time></trkpt><trkpt lat="39.297333254653026" lon="9.351001958991418"><ele>281.83333333333337</ele><time>2026-03-28T11:48:43.999Z</time></trkpt><trkpt lat="39.297381485983095" lon="9.350909054290224"><ele>285.6666666666667</ele><time>2026-03-28T11:48:44.999Z</time></trkpt><trkpt lat="39.297397754657474" lon="9.350821423127186"><ele>289.5</ele><time>2026-03-28T11:48:45.999Z</time></trkpt><trkpt lat="39.29739264527806" lon="9.3507382904824"><ele>293.3333333333333</ele><time>2026-03-28T11:48:46.999Z</time></trkpt><trkpt lat="39.297426210656226" lon="9.35059899293595"><ele>297.16666666666663</ele><time>2026-03-28T11:48:48.999Z</time></trkpt><trkpt lat="39.29747924996674" lon="9.350532598773402"><ele>301.0</ele><time>2026-03-28T11:48:49.999Z</time></trkpt><trkpt lat="39.297562660125756" lon="9.350437892931321"><ele>301.0</ele><time>2026-03-28T11:48:51.999Z</time></trkpt><trkpt lat="39.2976642252507" lon="9.35032736015998"><ele>301.0</ele><time>2026-03-28T11:48:53.999Z</time></trkpt><trkpt lat="39.29771270537026" lon="9.350250882381077"><ele>301.0</ele><time>2026-03-28T11:48:54.999Z</time></trkpt><trkpt lat="39.29774288813018" lon="9.35016750358895"><ele>301.0</ele><time>2026-03-28T11:48:55.999Z</time></trkpt><trkpt lat="39.29775898558637" lon="9.35008559569406"><ele>301.0</ele><time>2026-03-28T11:48:56.998Z</time></trkpt><trkpt lat="39.29776077296478" lon="9.349989718594154"><ele>301.0</ele><time>2026-03-28T11:48:57.998Z</time></trkpt><trkpt lat="39.29774267615778" lon="9.349882266638238"><ele>301.0</ele><time>2026-03-28T11:48:58.998Z</time></trkpt><trkpt lat="39.2977080728877" lon="9.349771809619607"><ele>301.0</ele><time>2026-03-28T11:48:59.998Z</time></trkpt><trkpt lat="39.29767311866983" lon="9.349684179419388"><ele>301.0</ele><time>2026-03-28T11:49:00.998Z</time></trkpt><trkpt lat="39.29765694114705" lon="9.349578109509222"><ele>301.0</ele><time>2026-03-28T11:49:02.998Z</time></trkpt><trkpt lat="39.297718691169955" lon="9.349495969751501"><ele>301.0</ele><time>2026-03-28T11:49:04.998Z</time></trkpt><trkpt lat="39.297794238784476" lon="9.34945778941358"><ele>301.0</ele><time>2026-03-28T11:49:05.998Z</time></trkpt><trkpt lat="39.29786821776976" lon="9.349431336026617"><ele>299.5</ele><time>2026-03-28T11:49:06.998Z</time></trkpt><trkpt lat="39.2979390620706" lon="9.349397906982173"><ele>298.0</ele><time>2026-03-28T11:49:08Z</time></trkpt><trkpt lat="39.298009784637514" lon="9.34934631362643"><ele>296.5</ele><time>2026-03-28T11:49:09Z</time></trkpt><trkpt lat="39.29807497720617" lon="9.349281636590376"><ele>295.0</ele><time>2026-03-28T11:49:10Z</time></trkpt><trkpt lat="39.29813014296307" lon="9.34921359025514"><ele>293.5</ele><time>2026-03-28T11:49:11Z</time></trkpt><trkpt lat="39.298181867876" lon="9.349150243552778"><ele>292.0</ele><time>2026-03-28T11:49:12Z</time></trkpt><trkpt lat="39.29823806960775" lon="9.34907163697561"><ele>295.0</ele><time>2026-03-28T11:49:13Z</time></trkpt><trkpt lat="39.298294679934564" lon="9.348984502352083"><ele>298.0</ele><time>2026-03-28T11:49:14Z</time></trkpt><trkpt lat="39.29833879166129" lon="9.34887220260661"><ele>301.0</ele><time>2026-03-28T11:49:15Z</time></trkpt><trkpt lat="39.29838491958076" lon="9.348751746045275"><ele>304.0</ele><time>2026-03-28T11:49:16Z</time></trkpt><trkpt lat="39.29844716427546" lon="9.348624914305296"><ele>307.0</ele><time>2026-03-28T11:49:17Z</time></trkpt><trkpt lat="39.29851456578658" lon="9.348535923145025"><ele>307.0</ele><time>2026-03-28T11:49:18Z</time></trkpt><trkpt lat="39.29859303762559" lon="9.348497079881861"><ele>307.0</ele><time>2026-03-28T11:49:19Z</time></trkpt><trkpt lat="39.298675174137266" lon="9.348483342169795"><ele>307.0</ele><time>2026-03-28T11:49:20Z</time></trkpt><trkpt lat="39.29876903376551" lon="9.348485131318535"><ele>307.0</ele><time>2026-03-28T11:49:21Z</time></trkpt><trkpt lat="39.29886876208737" lon="9.348483215684237"><ele>307.0</ele><time>2026-03-28T11:49:22Z</time></trkpt><trkpt lat="39.298952786210755" lon="9.34846947799485"><ele>307.0</ele><time>2026-03-28T11:49:23Z</time></trkpt><trkpt lat="39.29901868486086" lon="9.34844413298531"><ele>308.85714285714283</ele><time>2026-03-28T11:49:24Z</time></trkpt><trkpt lat="39.29907567900924" lon="9.348398391927116"><ele>310.7142857142857</ele><time>2026-03-28T11:49:25Z</time></trkpt><trkpt lat="39.299115736732034" lon="9.348327555361596"><ele>312.57142857142856</ele><time>2026-03-28T11:49:26Z</time></trkpt><trkpt lat="39.299140895185644" lon="9.348232255812809"><ele>314.42857142857144</ele><time>2026-03-28T11:49:27Z</time></trkpt><trkpt lat="39.29915837032278" lon="9.348138660955936"><ele>316.2857142857143</ele><time>2026-03-28T11:49:28Z</time></trkpt><trkpt lat="39.29918893151115" lon="9.348051120598358"><ele>318.1428571428571</ele><time>2026-03-28T11:49:29Z</time></trkpt><trkpt lat="39.29922853338523" lon="9.347970756299917"><ele>320.0</ele><time>2026-03-28T11:49:30Z</time></trkpt><trkpt lat="39.299282806666106" lon="9.347887697986582"><ele>320.0</ele><time>2026-03-28T11:49:31Z</time></trkpt><trkpt lat="39.29934777151009" lon="9.347805827523427"><ele>320.0</ele><time>2026-03-28T11:49:32Z</time></trkpt><trkpt lat="39.29941602930883" lon="9.347725532339625"><ele>320.0</ele><time>2026-03-28T11:49:33Z</time></trkpt><trkpt lat="39.29947619377523" lon="9.347637145258664"><ele>320.0</ele><time>2026-03-28T11:49:34Z</time></trkpt><trkpt lat="39.29951652236893" lon="9.347541705198383"><ele>320.0</ele><time>2026-03-28T11:49:35Z</time></trkpt><trkpt lat="39.299542599470286" lon="9.34742149841368"><ele>320.0</ele><time>2026-03-28T11:49:36Z</time></trkpt><trkpt lat="39.299588364145585" lon="9.347361884626945"><ele>320.0</ele><time>2026-03-28T11:49:37Z</time></trkpt><trkpt lat="39.299629423298086" lon="9.347281088717653"><ele>320.0</ele><time>2026-03-28T11:49:38Z</time></trkpt><trkpt lat="39.299673226324046" lon="9.34719431317619"><ele>320.0</ele><time>2026-03-28T11:49:39Z</time></trkpt><trkpt lat="39.29972445531217" lon="9.347107052459611"><ele>320.0</ele><time>2026-03-28T11:49:40Z</time></trkpt><trkpt lat="39.299780260518425" lon="9.34702773246988"><ele>320.0</ele><time>2026-03-28T11:49:41Z</time></trkpt><trkpt lat="39.29983621159852" lon="9.346968083913662"><ele>322.4</ele><time>2026-03-28T11:49:42Z</time></trkpt><trkpt lat="39.29992824023167" lon="9.346915585334843"><ele>324.8</ele><time>2026-03-28T11:49:44Z</time></trkpt><trkpt lat="39.299941043202196" lon="9.346810886388393"><ele>327.20000000000005</ele><time>2026-03-28T11:49:46Z</time></trkpt><trkpt lat="39.299851511993865" lon="9.346702599275561"><ele>329.6</ele><time>2026-03-28T11:49:48Z</time></trkpt><trkpt lat="39.29977951742047" lon="9.346667083354426"><ele>332.0</ele><time>2026-03-28T11:49:49Z</time></trkpt><trkpt lat="39.299694581338635" lon="9.34662537103462"><ele>332.0</ele><time>2026-03-28T11:49:50Z</time></trkpt><trkpt lat="39.29960695520395" lon="9.346558309916063"><ele>332.0</ele><time>2026-03-28T11:49:50.999Z</time></trkpt><trkpt lat="39.299535785141586" lon="9.34650323239949"><ele>332.0</ele><time>2026-03-28T11:49:51.999Z</time></trkpt><trkpt lat="39.29945949577872" lon="9.346475258725606"><ele>332.0</ele><time>2026-03-28T11:49:52.999Z</time></trkpt><trkpt lat="39.29936271623681" lon="9.346457768438224"><ele>332.0</ele><time>2026-03-28T11:49:53.999Z</time></trkpt><trkpt lat="39.29925354083555" lon="9.346446213670458"><ele>332.0</ele><time>2026-03-28T11:49:54.999Z</time></trkpt><trkpt lat="39.2991529696225" lon="9.346426314022667"><ele>332.0</ele><time>2026-03-28T11:49:55.999Z</time></trkpt><trkpt lat="39.299063665046916" lon="9.346396326846985"><ele>332.0</ele><time>2026-03-28T11:49:56.999Z</time></trkpt><trkpt lat="39.298974372144556" lon="9.346348483534593"><ele>332.0</ele><time>2026-03-28T11:49:57.999Z</time></trkpt><trkpt lat="39.298892712321845" lon="9.346289460170029"><ele>332.0</ele><time>2026-03-28T11:49:58.999Z</time></trkpt><trkpt lat="39.29881481530127" lon="9.34622240540114"><ele>334.83333333333337</ele><time>2026-03-28T11:49:59.999Z</time></trkpt><trkpt lat="39.298746417095344" lon="9.34613120032685"><ele>337.6666666666667</ele><time>2026-03-28T11:50:00.999Z</time></trkpt><trkpt lat="39.2986799841337" lon="9.346038722159806"><ele>340.5</ele><time>2026-03-28T11:50:01.999Z</time></trkpt><trkpt lat="39.298616544287846" lon="9.345981215475303"><ele>343.3333333333333</ele><time>2026-03-28T11:50:02.999Z</time></trkpt><trkpt lat="39.29854752931513" lon="9.3459524521168"><ele>346.16666666666663</ele><time>2026-03-28T11:50:03.999Z</time></trkpt><trkpt lat="39.29847146763288" lon="9.34592143598716"><ele>349.0</ele><time>2026-03-28T11:50:04.999Z</time></trkpt><trkpt lat="39.29839443028722" lon="9.34589636276516"><ele>349.0</ele><time>2026-03-28T11:50:05.999Z</time></trkpt><trkpt lat="39.29830674525234" lon="9.345879099928348"><ele>349.0</ele><time>2026-03-28T11:50:06.999Z</time></trkpt><trkpt lat="39.29822203806203" lon="9.345863929539286"><ele>349.0</ele><time>2026-03-28T11:50:07.999Z</time></trkpt><trkpt lat="39.298149884053366" lon="9.345860633078876"><ele>349.0</ele><time>2026-03-28T11:50:08.999Z</time></trkpt><trkpt lat="39.298045885979256" lon="9.345898241584583"><ele>349.0</ele><time>2026-03-28T11:50:10.999Z</time></trkpt><trkpt lat="39.297985877747834" lon="9.345853138213666"><ele>349.0</ele><time>2026-03-28T11:50:12.999Z</time></trkpt><trkpt lat="39.29798857073966" lon="9.345689945618119"><ele>349.5</ele><time>2026-03-28T11:50:14.999Z</time></trkpt><trkpt lat="39.29800300080746" lon="9.345584874921089"><ele>350.0</ele><time>2026-03-28T11:50:15.999Z</time></trkpt><trkpt lat="39.298023319165004" lon="9.345488955460892"><ele>350.5</ele><time>2026-03-28T11:50:16.999Z</time></trkpt><trkpt lat="39.29805477610085" lon="9.34540485815831"><ele>351.0</ele><time>2026-03-28T11:50:17.999Z</time></trkpt><trkpt lat="39.298095506982456" lon="9.345325522899097"><ele>351.5</ele><time>2026-03-28T11:50:18.999Z</time></trkpt><trkpt lat="39.29813979574317" lon="9.345251820090066"><ele>352.0</ele><time>2026-03-28T11:50:19.999Z</time></trkpt><trkpt lat="39.29817282105386" lon="9.345150713595828"><ele>352.0</ele><time>2026-03-28T11:50:20.999Z</time></trkpt><trkpt lat="39.29820604739013" lon="9.345047661681036"><ele>352.0</ele><time>2026-03-28T11:50:21.999Z</time></trkpt><trkpt lat="39.298233649305715" lon="9.344956130588091"><ele>352.0</ele><time>2026-03-28T11:50:22.999Z</time></trkpt><trkpt lat="39.29825401153404" lon="9.344879034386357"><ele>352.0</ele><time>2026-03-28T11:50:23.999Z</time></trkpt><trkpt lat="39.29829009000896" lon="9.344749040606255"><ele>352.0</ele><time>2026-03-28T11:50:25.999Z</time></trkpt><trkpt lat="39.29831172209371" lon="9.34459372320515"><ele>353.16666666666663</ele><time>2026-03-28T11:50:27.999Z</time></trkpt><trkpt lat="39.298302282894326" lon="9.344505343474067"><ele>354.3333333333333</ele><time>2026-03-28T11:50:28.999Z</time></trkpt><trkpt lat="39.29828682099969" lon="9.34442419096673"><ele>355.5</ele><time>2026-03-28T11:50:29.999Z</time></trkpt><trkpt lat="39.2982298785431" lon="9.344313386192546"><ele>356.6666666666667</ele><time>2026-03-28T11:50:31.999Z</time></trkpt><trkpt lat="39.29815443516495" lon="9.344238075794369"><ele>357.83333333333337</ele><time>2026-03-28T11:50:33.999Z</time></trkpt><trkpt lat="39.298087295293605" lon="9.344192118044813"><ele>359.0</ele><time>2026-03-28T11:50:35.999Z</time></trkpt><trkpt lat="39.29802948007958" lon="9.34414577281874"><ele>354.8571428571429</ele><time>2026-03-28T11:50:38.999Z</time></trkpt><trkpt lat="39.29795259845141" lon="9.344118092681226"><ele>350.7142857142857</ele><time>2026-03-28T11:50:48.999Z</time></trkpt><trkpt lat="39.2978790282274" lon="9.344092328110085"><ele>346.57142857142856</ele><time>2026-03-28T11:50:50.999Z</time></trkpt><trkpt lat="39.297806201683024" lon="9.344057491085609"><ele>342.42857142857144</ele><time>2026-03-28T11:50:52.999Z</time></trkpt><trkpt lat="39.297741945780956" lon="9.34404844707933"><ele>338.2857142857143</ele><time>2026-03-28T11:50:54.999Z</time></trkpt><trkpt lat="39.297682275664435" lon="9.344016231853383"><ele>334.14285714285717</ele><time>2026-03-28T11:51:40Z</time></trkpt><trkpt lat="39.297604698654304" lon="9.343987748479172"><ele>330.0</ele><time>2026-03-28T11:51:42Z</time></trkpt><trkpt lat="39.297535718836365" lon="9.34397104602433"><ele>330.0</ele><time>2026-03-28T11:51:44Z</time></trkpt><trkpt lat="39.297430410628245" lon="9.343930672351156"><ele>330.0</ele><time>2026-03-28T11:51:46Z</time></trkpt><trkpt lat="39.297316779608046" lon="9.343886065433843"><ele>330.0</ele><time>2026-03-28T11:51:48Z</time></trkpt><trkpt lat="39.29724645089589" lon="9.343811044681994"><ele>330.0</ele><time>2026-03-28T11:51:50Z</time></trkpt><trkpt lat="39.29722274829417" lon="9.343729537509882"><ele>330.0</ele><time>2026-03-28T11:51:51Z</time></trkpt><trkpt lat="39.29716012798557" lon="9.343607989970382"><ele>330.4</ele><time>2026-03-28T11:51:53Z</time></trkpt><trkpt lat="39.29706679190761" lon="9.343527344228463"><ele>330.8</ele><time>2026-03-28T11:51:55Z</time></trkpt><trkpt lat="39.29696027312036" lon="9.34346904950557"><ele>331.20000000000005</ele><time>2026-03-28T11:51:57Z</time></trkpt><trkpt lat="39.29683620188463" lon="9.34345827364667"><ele>331.6</ele><time>2026-03-28T11:51:59Z</time></trkpt><trkpt lat="39.29675599051849" lon="9.34346612872036"><ele>332.0</ele><time>2026-03-28T11:52:00Z</time></trkpt><trkpt lat="39.29667564131904" lon="9.34348174852038"><ele>332.0</ele><time>2026-03-28T11:52:01Z</time></trkpt><trkpt lat="39.29660505440566" lon="9.343490132782742"><ele>332.0</ele><time>2026-03-28T11:52:02Z</time></trkpt><trkpt lat="39.29653443146374" lon="9.343486005610462"><ele>332.0</ele><time>2026-03-28T11:52:03Z</time></trkpt><trkpt lat="39.2964557523561" lon="9.343472485053876"><ele>332.0</ele><time>2026-03-28T11:52:03.999Z</time></trkpt><trkpt lat="39.29636641419167" lon="9.343459741054568"><ele>332.0</ele><time>2026-03-28T11:52:04.999Z</time></trkpt><trkpt lat="39.29628465691277" lon="9.343457421934307"><ele>332.0</ele><time>2026-03-28T11:52:05.999Z</time></trkpt><trkpt lat="39.296214396095905" lon="9.34345688023381"><ele>329.1666666666667</ele><time>2026-03-28T11:52:06.999Z</time></trkpt><trkpt lat="39.29614833999043" lon="9.343438868621567"><ele>326.33333333333337</ele><time>2026-03-28T11:52:07.999Z</time></trkpt><trkpt lat="39.2960719681947" lon="9.343378911837789"><ele>323.5</ele><time>2026-03-28T11:52:09.999Z</time></trkpt><trkpt lat="39.296006078110175" lon="9.343309452038746"><ele>320.6666666666667</ele><time>2026-03-28T11:52:12.999Z</time></trkpt><trkpt lat="39.296005096381116" lon="9.34321971688567"><ele>317.8333333333333</ele><time>2026-03-28T11:52:14.999Z</time></trkpt><trkpt lat="39.29609241279117" lon="9.343118423206544"><ele>315.0</ele><time>2026-03-28T11:52:16.999Z</time></trkpt><trkpt lat="39.29616462083636" lon="9.343080508422174"><ele>314.4</ele><time>2026-03-28T11:52:17.999Z</time></trkpt><trkpt lat="39.29625884013359" lon="9.343034342455022"><ele>313.8</ele><time>2026-03-28T11:52:19.999Z</time></trkpt><trkpt lat="39.2963618757364" lon="9.343014720336116"><ele>313.2</ele><time>2026-03-28T11:52:21.999Z</time></trkpt><trkpt lat="39.296464294598294" lon="9.343013908296289"><ele>312.6</ele><time>2026-03-28T11:52:23.999Z</time></trkpt><trkpt lat="39.296574045272315" lon="9.342968957635785"><ele>312.0</ele><time>2026-03-28T11:52:25.999Z</time></trkpt><trkpt lat="39.29663811967479" lon="9.342933287641802"><ele>312.0</ele><time>2026-03-28T11:52:26.999Z</time></trkpt><trkpt lat="39.296702620016724" lon="9.342889624306618"><ele>312.0</ele><time>2026-03-28T11:52:27.999Z</time></trkpt><trkpt lat="39.29676684140739" lon="9.342839725334015"><ele>312.0</ele><time>2026-03-28T11:52:28.999Z</time></trkpt><trkpt lat="39.29682953686773" lon="9.342793810600066"><ele>312.0</ele><time>2026-03-28T11:52:29.999Z</time></trkpt><trkpt lat="39.29689773613161" lon="9.342753701644115"><ele>312.0</ele><time>2026-03-28T11:52:30.999Z</time></trkpt><trkpt lat="39.2969565500553" lon="9.3427072106877"><ele>312.0</ele><time>2026-03-28T11:52:31.999Z</time></trkpt><trkpt lat="39.29701058792672" lon="9.342656376192789"><ele>312.0</ele><time>2026-03-28T11:52:32.999Z</time></trkpt><trkpt lat="39.29706593245989" lon="9.342598730183235"><ele>312.0</ele><time>2026-03-28T11:52:33.999Z</time></trkpt><trkpt lat="39.29711273154648" lon="9.342532372820756"><ele>312.0</ele><time>2026-03-28T11:52:34.999Z</time></trkpt><trkpt lat="39.297158889099016" lon="9.342467548580789"><ele>312.0</ele><time>2026-03-28T11:52:35.999Z</time></trkpt><trkpt lat="39.29720982400618" lon="9.342411430581427"><ele>312.0</ele><time>2026-03-28T11:52:36.999Z</time></trkpt><trkpt lat="39.2972550900109" lon="9.342352792112193"><ele>312.0</ele><time>2026-03-28T11:52:37.999Z</time></trkpt><trkpt lat="39.29730017136295" lon="9.34229374707573"><ele>312.0</ele><time>2026-03-28T11:52:38.999Z</time></trkpt><trkpt lat="39.29741071361635" lon="9.342188803972848"><ele>311.8333333333333</ele><time>2026-03-28T11:52:40.999Z</time></trkpt><trkpt lat="39.297457195726636" lon="9.342122759771321"><ele>311.6666666666667</ele><time>2026-03-28T11:52:41.999Z</time></trkpt><trkpt lat="39.29750111440676" lon="9.342035683023147"><ele>311.5</ele><time>2026-03-28T11:52:42.999Z</time></trkpt><trkpt lat="39.297540187219546" lon="9.341937879046583"><ele>311.33333333333337</ele><time>2026-03-28T11:52:43.999Z</time></trkpt><trkpt lat="39.29756435675802" lon="9.341838486217986"><ele>311.1666666666667</ele><time>2026-03-28T11:52:44.999Z</time></trkpt><trkpt lat="39.29760112170415" lon="9.341715379706109"><ele>311.0</ele><time>2026-03-28T11:52:46.999Z</time></trkpt><trkpt lat="39.297638410460685" lon="9.341641948333049"><ele>311.0</ele><time>2026-03-28T11:52:54.999Z</time></trkpt><trkpt lat="39.297729013290066" lon="9.341506489292346"><ele>311.0</ele><time>2026-03-28T11:52:56.999Z</time></trkpt><trkpt lat="39.297798036876614" lon="9.341450291260125"><ele>311.0</ele><time>2026-03-28T11:52:57.999Z</time></trkpt><trkpt lat="39.29787475336743" lon="9.341388569326694"><ele>311.0</ele><time>2026-03-28T11:52:58.999Z</time></trkpt><trkpt lat="39.297938131365974" lon="9.341300894764041"><ele>311.0</ele><time>2026-03-28T11:52:59.999Z</time></trkpt><trkpt lat="39.297979075116075" lon="9.341182442416684"><ele>307.6</ele><time>2026-03-28T11:53:00.999Z</time></trkpt><trkpt lat="39.29798162557833" lon="9.341061187956655"><ele>304.20000000000005</ele><time>2026-03-28T11:53:01.999Z</time></trkpt><trkpt lat="39.29797232360264" lon="9.340922920722345"><ele>300.79999999999995</ele><time>2026-03-28T11:53:02.999Z</time></trkpt><trkpt lat="39.297981794918584" lon="9.340772981775565"><ele>297.4</ele><time>2026-03-28T11:53:03.999Z</time></trkpt><trkpt lat="39.29802632009812" lon="9.340651849639313"><ele>294.0</ele><time>2026-03-28T11:53:04.999Z</time></trkpt><trkpt lat="39.29806980788476" lon="9.34054984424372"><ele>296.59999999999997</ele><time>2026-03-28T11:53:05.999Z</time></trkpt><trkpt lat="39.298142249458444" lon="9.340450453163829"><ele>299.2</ele><time>2026-03-28T11:53:06.999Z</time></trkpt><trkpt lat="39.29823401799885" lon="9.34034708550291"><ele>301.79999999999995</ele><time>2026-03-28T11:53:07.999Z</time></trkpt><trkpt lat="39.2983223860135" lon="9.34026375554927"><ele>304.4</ele><time>2026-03-28T11:53:08.999Z</time></trkpt><trkpt lat="39.29840138781828" lon="9.34019370276179"><ele>307.0</ele><time>2026-03-28T11:53:09.999Z</time></trkpt><trkpt lat="39.29846145673324" lon="9.340108782480668"><ele>307.0</ele><time>2026-03-28T11:53:10.999Z</time></trkpt><trkpt lat="39.298516655248044" lon="9.339997670067843"><ele>307.0</ele><time>2026-03-28T11:53:11.999Z</time></trkpt><trkpt lat="39.29855815209562" lon="9.339861329386533"><ele>307.0</ele><time>2026-03-28T11:53:12.999Z</time></trkpt><trkpt lat="39.298585722448124" lon="9.339725582553372"><ele>307.0</ele><time>2026-03-28T11:53:13.999Z</time></trkpt><trkpt lat="39.29862488111227" lon="9.339600511088147"><ele>307.0</ele><time>2026-03-28T11:53:14.999Z</time></trkpt><trkpt lat="39.29867051188318" lon="9.339483538548198"><ele>304.0</ele><time>2026-03-28T11:53:15.999Z</time></trkpt><trkpt lat="39.298712819552065" lon="9.339376638662756"><ele>301.0</ele><time>2026-03-28T11:53:16.999Z</time></trkpt><trkpt lat="39.298747808922776" lon="9.339269747788649"><ele>298.0</ele><time>2026-03-28T11:53:17.999Z</time></trkpt><trkpt lat="39.29878574733052" lon="9.339174484469043"><ele>295.0</ele><time>2026-03-28T11:53:18.999Z</time></trkpt><trkpt lat="39.2988206524054" lon="9.339099738858911"><ele>292.0</ele><time>2026-03-28T11:53:20Z</time></trkpt><trkpt lat="39.298857471770084" lon="9.339030492355851"><ele>289.0</ele><time>2026-03-28T11:53:21Z</time></trkpt><trkpt lat="39.29890249478188" lon="9.338953201808302"><ele>289.66666666666663</ele><time>2026-03-28T11:53:22Z</time></trkpt><trkpt lat="39.29895502206697" lon="9.338850131937601"><ele>290.3333333333333</ele><time>2026-03-28T11:53:23Z</time></trkpt><trkpt lat="39.29898502330388" lon="9.338762651274624"><ele>291.0</ele><time>2026-03-28T11:53:24Z</time></trkpt><trkpt lat="39.299016653404706" lon="9.338630277831912"><ele>291.6666666666667</ele><time>2026-03-28T11:53:26Z</time></trkpt><trkpt lat="39.29908488805306" lon="9.338562214824346"><ele>292.33333333333337</ele><time>2026-03-28T11:53:28Z</time></trkpt><trkpt lat="39.29916085728455" lon="9.338566661450894"><ele>293.0</ele><time>2026-03-28T11:53:29Z</time></trkpt><trkpt lat="39.2992421798862" lon="9.338596259256516"><ele>293.0</ele><time>2026-03-28T11:53:30Z</time></trkpt><trkpt lat="39.299379311712" lon="9.338572824174733"><ele>293.0</ele><time>2026-03-28T11:53:32Z</time></trkpt><trkpt lat="39.299455475984644" lon="9.338559439374041"><ele>293.0</ele><time>2026-03-28T11:53:33Z</time></trkpt><trkpt lat="39.29954576099843" lon="9.338557549928332"><ele>293.0</ele><time>2026-03-28T11:53:34Z</time></trkpt><trkpt lat="39.299639892028104" lon="9.338584881685232"><ele>293.0</ele><time>2026-03-28T11:53:35Z</time></trkpt><trkpt lat="39.29973373541795" lon="9.338607961926357"><ele>293.0</ele><time>2026-03-28T11:53:36Z</time></trkpt><trkpt lat="39.29982026151173" lon="9.338630886115089"><ele>293.0</ele><time>2026-03-28T11:53:37Z</time></trkpt><trkpt lat="39.299904452495696" lon="9.338648750674484"><ele>293.0</ele><time>2026-03-28T11:53:38Z</time></trkpt><trkpt lat="39.29997781054517" lon="9.338661759851236"><ele>293.0</ele><time>2026-03-28T11:53:39Z</time></trkpt><trkpt lat="39.30004580311319" lon="9.33867322905019"><ele>293.0</ele><time>2026-03-28T11:53:40Z</time></trkpt><trkpt lat="39.30014395024077" lon="9.338691806888315"><ele>293.0</ele><time>2026-03-28T11:53:42Z</time></trkpt><trkpt lat="39.30022027811976" lon="9.338659330344676"><ele>293.0</ele><time>2026-03-28T11:53:44Z</time></trkpt><trkpt lat="39.30023766408246" lon="9.33855365429335"><ele>293.0</ele><time>2026-03-28T11:53:46Z</time></trkpt><trkpt lat="39.3002064366167" lon="9.3384812585956"><ele>293.0</ele><time>2026-03-28T11:53:47Z</time></trkpt><trkpt lat="39.30017892478264" lon="9.33840715030464"><ele>293.0</ele><time>2026-03-28T11:53:48Z</time></trkpt><trkpt lat="39.30014800604526" lon="9.338273300003895"><ele>293.0</ele><time>2026-03-28T11:53:50Z</time></trkpt><trkpt lat="39.30013414240119" lon="9.338119346914317"><ele>293.0</ele><time>2026-03-28T11:53:52Z</time></trkpt><trkpt lat="39.30014092585872" lon="9.338034733410694"><ele>290.83333333333337</ele><time>2026-03-28T11:53:53Z</time></trkpt><trkpt lat="39.30013902461865" lon="9.337947882514975"><ele>288.6666666666667</ele><time>2026-03-28T11:53:54Z</time></trkpt><trkpt lat="39.300134805459535" lon="9.337845267384203"><ele>286.5</ele><time>2026-03-28T11:53:55Z</time></trkpt><trkpt lat="39.30011634525811" lon="9.337745932538146"><ele>284.3333333333333</ele><time>2026-03-28T11:53:56Z</time></trkpt><trkpt lat="39.300093585750254" lon="9.337648690516165"><ele>282.16666666666663</ele><time>2026-03-28T11:53:57Z</time></trkpt><trkpt lat="39.300058539193195" lon="9.337563220859424"><ele>280.0</ele><time>2026-03-28T11:53:58Z</time></trkpt><trkpt lat="39.299967430559484" lon="9.337493810606643"><ele>280.0</ele><time>2026-03-28T11:54:00Z</time></trkpt><trkpt lat="39.299834151878414" lon="9.33747634657694"><ele>280.0</ele><time>2026-03-28T11:54:02Z</time></trkpt><trkpt lat="39.29976296797736" lon="9.33746816502751"><ele>280.0</ele><time>2026-03-28T11:54:03Z</time></trkpt><trkpt lat="39.29964517765559" lon="9.337403064858652"><ele>280.0</ele><time>2026-03-28T11:54:05Z</time></trkpt><trkpt lat="39.29957622069105" lon="9.337319253731765"><ele>280.0</ele><time>2026-03-28T11:54:06Z</time></trkpt><trkpt lat="39.29950953548436" lon="9.337274211798011"><ele>279.8333333333333</ele><time>2026-03-28T11:54:07Z</time></trkpt><trkpt lat="39.299431237720064" lon="9.337251539980866"><ele>279.66666666666663</ele><time>2026-03-28T11:54:08Z</time></trkpt><trkpt lat="39.29933446849325" lon="9.337187931551508"><ele>279.5</ele><time>2026-03-28T11:54:10Z</time></trkpt><trkpt lat="39.29928007312128" lon="9.3371188056258"><ele>279.3333333333333</ele><time>2026-03-28T11:54:12Z</time></trkpt><trkpt lat="39.29923661118723" lon="9.337058157497024"><ele>279.1666666666667</ele><time>2026-03-28T11:54:15Z</time></trkpt><trkpt lat="39.29920781936208" lon="9.33696115720338"><ele>279.0</ele><time>2026-03-28T11:54:55.999Z</time></trkpt><trkpt lat="39.29919818617362" lon="9.336867009303798"><ele>278.5</ele><time>2026-03-28T11:54:56.999Z</time></trkpt><trkpt lat="39.29919984703778" lon="9.336750125131427"><ele>278.0</ele><time>2026-03-28T11:54:57.999Z</time></trkpt><trkpt lat="39.299195976806" lon="9.336629161760385"><ele>277.5</ele><time>2026-03-28T11:54:58.999Z</time></trkpt><trkpt lat="39.29917525018212" lon="9.336531438665425"><ele>277.0</ele><time>2026-03-28T11:54:59.999Z</time></trkpt><trkpt lat="39.29912847216135" lon="9.336448348059374"><ele>276.5</ele><time>2026-03-28T11:55:00.999Z</time></trkpt><trkpt lat="39.29905761547053" lon="9.336376476508555"><ele>276.0</ele><time>2026-03-28T11:55:01.999Z</time></trkpt><trkpt lat="39.29898023003908" lon="9.336292485817083"><ele>277.2</ele><time>2026-03-28T11:55:02.999Z</time></trkpt><trkpt lat="39.29890939975404" lon="9.336200347110776"><ele>278.40000000000003</ele><time>2026-03-28T11:55:03.999Z</time></trkpt><trkpt lat="39.29883939146285" lon="9.336124466456692"><ele>279.6</ele><time>2026-03-28T11:55:04.999Z</time></trkpt><trkpt lat="39.29875024332644" lon="9.3360609011686"><ele>280.8</ele><time>2026-03-28T11:55:05.999Z</time></trkpt><trkpt lat="39.29865250688333" lon="9.33600191776234"><ele>282.0</ele><time>2026-03-28T11:55:06.999Z</time></trkpt><trkpt lat="39.29857079112899" lon="9.335940692879259"><ele>282.0</ele><time>2026-03-28T11:55:07.999Z</time></trkpt><trkpt lat="39.298487875672784" lon="9.335903330817533"><ele>282.0</ele><time>2026-03-28T11:55:08.999Z</time></trkpt><trkpt lat="39.29839256195718" lon="9.335856686598728"><ele>282.0</ele><time>2026-03-28T11:55:09.999Z</time></trkpt><trkpt lat="39.298295189299786" lon="9.3358059384749"><ele>282.0</ele><time>2026-03-28T11:55:10.999Z</time></trkpt><trkpt lat="39.298194295512744" lon="9.33573678012191"><ele>282.0</ele><time>2026-03-28T11:55:11.999Z</time></trkpt><trkpt lat="39.29809882933262" lon="9.335658383394229"><ele>282.0</ele><time>2026-03-28T11:55:12.999Z</time></trkpt><trkpt lat="39.29802586666079" lon="9.335580461824518"><ele>282.0</ele><time>2026-03-28T11:55:13.999Z</time></trkpt><trkpt lat="39.297963197304824" lon="9.33550570593223"><ele>282.0</ele><time>2026-03-28T11:55:14.999Z</time></trkpt><trkpt lat="39.29790509768807" lon="9.335427985585035"><ele>282.0</ele><time>2026-03-28T11:55:15.999Z</time></trkpt><trkpt lat="39.29786623726299" lon="9.335346664171665"><ele>282.0</ele><time>2026-03-28T11:55:16.999Z</time></trkpt><trkpt lat="39.297835236227016" lon="9.335228699519826"><ele>282.0</ele><time>2026-03-28T11:55:18.999Z</time></trkpt><trkpt lat="39.29776622148529" lon="9.33516279659683"><ele>282.0</ele><time>2026-03-28T11:55:20.999Z</time></trkpt><trkpt lat="39.29767331905036" lon="9.335116832992169"><ele>282.0</ele><time>2026-03-28T11:55:22.999Z</time></trkpt><trkpt lat="39.29756869800832" lon="9.335102143803402"><ele>282.0</ele><time>2026-03-28T11:55:24.999Z</time></trkpt><trkpt lat="39.29746355313318" lon="9.335104460016963"><ele>282.0</ele><time>2026-03-28T11:55:27Z</time></trkpt><trkpt lat="39.29738209456973" lon="9.335171996897628"><ele>282.0</ele><time>2026-03-28T11:55:29Z</time></trkpt><trkpt lat="39.29732224460567" lon="9.335270985678754"><ele>285.1666666666667</ele><time>2026-03-28T11:55:31Z</time></trkpt><trkpt lat="39.29725115607904" lon="9.335305341929004"><ele>288.3333333333333</ele><time>2026-03-28T11:55:33Z</time></trkpt><trkpt lat="39.297175379555405" lon="9.33523486964459"><ele>291.5</ele><time>2026-03-28T11:55:35Z</time></trkpt><trkpt lat="39.29715169760682" lon="9.335159342582752"><ele>294.66666666666663</ele><time>2026-03-28T11:55:36Z</time></trkpt><trkpt lat="39.29715240287066" lon="9.335055063237323"><ele>297.8333333333333</ele><time>2026-03-28T11:55:37Z</time></trkpt><trkpt lat="39.2971753499765" lon="9.334929484923228"><ele>301.0</ele><time>2026-03-28T11:55:38Z</time></trkpt><trkpt lat="39.29718953812216" lon="9.334803562520952"><ele>301.0</ele><time>2026-03-28T11:55:39Z</time></trkpt><trkpt lat="39.29717587242484" lon="9.334695147499923"><ele>301.0</ele><time>2026-03-28T11:55:40Z</time></trkpt><trkpt lat="39.29718240015415" lon="9.334572702899257"><ele>301.0</ele><time>2026-03-28T11:55:42Z</time></trkpt><trkpt lat="39.29715829836854" lon="9.334491214108429"><ele>301.0</ele><time>2026-03-28T11:55:45Z</time></trkpt><trkpt lat="39.29710033635108" lon="9.33442247373178"><ele>301.0</ele><time>2026-03-28T11:55:49Z</time></trkpt><trkpt lat="39.2970175172621" lon="9.33434038029902"><ele>301.0</ele><time>2026-03-28T11:55:51Z</time></trkpt><trkpt lat="39.296978801445086" lon="9.334266833812103"><ele>301.0</ele><time>2026-03-28T11:55:52Z</time></trkpt><trkpt lat="39.296946658381565" lon="9.334194279801967"><ele>301.0</ele><time>2026-03-28T11:55:53Z</time></trkpt><trkpt lat="39.29690704484088" lon="9.334079911601409"><ele>301.0</ele><time>2026-03-28T11:55:55Z</time></trkpt><trkpt lat="39.296841431985676" lon="9.333990907945001"><ele>301.0</ele><time>2026-03-28T11:55:57Z</time></trkpt><trkpt lat="39.2967843023528" lon="9.333943808127191"><ele>301.0</ele><time>2026-03-28T11:55:59Z</time></trkpt><trkpt lat="39.296710534163765" lon="9.333873344472904"><ele>301.0</ele><time>2026-03-28T11:56:02Z</time></trkpt><trkpt lat="39.29665162906904" lon="9.333821287066172"><ele>302.85714285714283</ele><time>2026-03-28T11:56:04Z</time></trkpt><trkpt lat="39.29658913509791" lon="9.333784016038603"><ele>304.7142857142857</ele><time>2026-03-28T11:56:07Z</time></trkpt><trkpt lat="39.29652305565974" lon="9.333761912408619"><ele>306.57142857142856</ele><time>2026-03-28T11:56:13Z</time></trkpt><trkpt lat="39.29645525318638" lon="9.333723628760978"><ele>308.42857142857144</ele><time>2026-03-28T11:56:15Z</time></trkpt><trkpt lat="39.296383761842705" lon="9.333662753034636"><ele>310.2857142857143</ele><time>2026-03-28T11:56:18Z</time></trkpt><trkpt lat="39.296310289886726" lon="9.333609429366723"><ele>312.1428571428571</ele><time>2026-03-28T11:56:21Z</time></trkpt><trkpt lat="39.29625506475365" lon="9.333561756482485"><ele>314.0</ele><time>2026-03-28T11:56:23Z</time></trkpt><trkpt lat="39.29617292803924" lon="9.333485151637577"><ele>314.0</ele><time>2026-03-28T11:56:25Z</time></trkpt><trkpt lat="39.29611228991139" lon="9.33338630525656"><ele>314.0</ele><time>2026-03-28T11:56:27Z</time></trkpt><trkpt lat="39.29603222139179" lon="9.333302637875068"><ele>314.0</ele><time>2026-03-28T11:56:29Z</time></trkpt><trkpt lat="39.29596793335657" lon="9.333262650631381"><ele>314.0</ele><time>2026-03-28T11:56:30.999Z</time></trkpt><trkpt lat="39.295891751704666" lon="9.333222099553156"><ele>314.0</ele><time>2026-03-28T11:56:32.999Z</time></trkpt><trkpt lat="39.2957657567261" lon="9.333180081662814"><ele>314.0</ele><time>2026-03-28T11:56:34.999Z</time></trkpt><trkpt lat="39.29569472786105" lon="9.333136895047021"><ele>314.0</ele><time>2026-03-28T11:56:35.999Z</time></trkpt><trkpt lat="39.29563140186117" lon="9.333109866114118"><ele>314.0</ele><time>2026-03-28T11:56:36.999Z</time></trkpt><trkpt lat="39.295568216294775" lon="9.33310460056668"><ele>314.0</ele><time>2026-03-28T11:56:37.999Z</time></trkpt><trkpt lat="39.295504172040054" lon="9.33310268265273"><ele>314.0</ele><time>2026-03-28T11:56:38.999Z</time></trkpt><trkpt lat="39.295372531146725" lon="9.333096643036395"><ele>314.0</ele><time>2026-03-28T11:56:40.999Z</time></trkpt><trkpt lat="39.29530229262386" lon="9.333077160471014"><ele>312.75</ele><time>2026-03-28T11:56:41.999Z</time></trkpt><trkpt lat="39.29520991935968" lon="9.333026396903671"><ele>311.5</ele><time>2026-03-28T11:56:43.999Z</time></trkpt><trkpt lat="39.29510045108144" lon="9.332960450200327"><ele>310.25</ele><time>2026-03-28T11:56:45.999Z</time></trkpt><trkpt lat="39.295007449305984" lon="9.332858108997934"><ele>309.0</ele><time>2026-03-28T11:56:47.999Z</time></trkpt><trkpt lat="39.294898775633754" lon="9.332772887883692"><ele>309.0</ele><time>2026-03-28T11:56:49.999Z</time></trkpt><trkpt lat="39.29479323617769" lon="9.332690469584852"><ele>309.0</ele><time>2026-03-28T11:56:51.999Z</time></trkpt><trkpt lat="39.29474350042632" lon="9.332618468822066"><ele>309.0</ele><time>2026-03-28T11:56:52.999Z</time></trkpt><trkpt lat="39.29466913453159" lon="9.332562179622208"><ele>309.0</ele><time>2026-03-28T11:56:54.999Z</time></trkpt><trkpt lat="39.29460901201068" lon="9.332596621595796"><ele>309.0</ele><time>2026-03-28T11:56:56.999Z</time></trkpt><trkpt lat="39.29451556776209" lon="9.33263288899756"><ele>309.0</ele><time>2026-03-28T11:56:59.999Z</time></trkpt><trkpt lat="39.29444584100662" lon="9.332632463810253"><ele>309.1666666666667</ele><time>2026-03-28T11:57:00.999Z</time></trkpt><trkpt lat="39.29437109436612" lon="9.3326558638802"><ele>309.3333333333333</ele><time>2026-03-28T11:57:01.999Z</time></trkpt><trkpt lat="39.2942879725897" lon="9.332677706726786"><ele>309.5</ele><time>2026-03-28T11:57:02.999Z</time></trkpt><trkpt lat="39.29419688328386" lon="9.332710938356733"><ele>309.66666666666663</ele><time>2026-03-28T11:57:03.999Z</time></trkpt><trkpt lat="39.29413467360181" lon="9.332751218452719"><ele>309.8333333333333</ele><time>2026-03-28T11:57:04.999Z</time></trkpt><trkpt lat="39.2940750567974" lon="9.332714563060112"><ele>310.0</ele><time>2026-03-28T11:57:07.999Z</time></trkpt><trkpt lat="39.29401105299087" lon="9.332670626368678"><ele>310.0</ele><time>2026-03-28T11:57:09.999Z</time></trkpt><trkpt lat="39.29393401657438" lon="9.332605153757408"><ele>310.0</ele><time>2026-03-28T11:57:11.999Z</time></trkpt><trkpt lat="39.293858630818" lon="9.332547757939896"><ele>310.0</ele><time>2026-03-28T11:57:13.999Z</time></trkpt><trkpt lat="39.293772299332325" lon="9.332469061588279"><ele>310.0</ele><time>2026-03-28T11:57:15.999Z</time></trkpt><trkpt lat="39.293706928709994" lon="9.332398736409914"><ele>310.0</ele><time>2026-03-28T11:57:17.999Z</time></trkpt><trkpt lat="39.29366065925479" lon="9.332343546552034"><ele>310.0</ele><time>2026-03-28T11:57:19.999Z</time></trkpt><trkpt lat="39.29359856893441" lon="9.332282121116714"><ele>304.8333333333333</ele><time>2026-03-28T11:57:21.999Z</time></trkpt><trkpt lat="39.293561968734565" lon="9.332197712424023"><ele>299.66666666666663</ele><time>2026-03-28T11:57:25.999Z</time></trkpt><trkpt lat="39.293563398577426" lon="9.332061769122234"><ele>294.5</ele><time>2026-03-28T11:57:28.999Z</time></trkpt><trkpt lat="39.29355289068633" lon="9.331946115459719"><ele>289.3333333333333</ele><time>2026-03-28T11:57:30.999Z</time></trkpt><trkpt lat="39.293543274284495" lon="9.331847749821359"><ele>284.1666666666667</ele><time>2026-03-28T11:57:33Z</time></trkpt><trkpt lat="39.293564011356615" lon="9.331742347918812"><ele>279.0</ele><time>2026-03-28T11:57:35Z</time></trkpt><trkpt lat="39.293574680313" lon="9.331660889632273"><ele>279.0</ele><time>2026-03-28T11:57:37Z</time></trkpt><trkpt lat="39.29358745815902" lon="9.331549724222416"><ele>279.0</ele><time>2026-03-28T11:57:40Z</time></trkpt><trkpt lat="39.293582159313374" lon="9.331467965080206"><ele>279.0</ele><time>2026-03-28T11:57:43Z</time></trkpt><trkpt lat="39.29358492611611" lon="9.33137111037991"><ele>279.0</ele><time>2026-03-28T11:57:44Z</time></trkpt><trkpt lat="39.293616141310416" lon="9.331259729099736"><ele>279.0</ele><time>2026-03-28T11:57:46Z</time></trkpt><trkpt lat="39.293679430491686" lon="9.331120009697516"><ele>279.0</ele><time>2026-03-28T11:57:47Z</time></trkpt><trkpt lat="39.29370351949613" lon="9.3310333970029"><ele>275.4</ele><time>2026-03-28T11:57:48Z</time></trkpt><trkpt lat="39.29371806655928" lon="9.330901691261555"><ele>271.79999999999995</ele><time>2026-03-28T11:57:50Z</time></trkpt><trkpt lat="39.29370164726438" lon="9.330793314160195"><ele>268.20000000000005</ele><time>2026-03-28T11:57:53Z</time></trkpt><trkpt lat="39.293725723378955" lon="9.330707912329983"><ele>264.6</ele><time>2026-03-28T11:57:54Z</time></trkpt><trkpt lat="39.293773395125214" lon="9.330575797704164"><ele>261.0</ele><time>2026-03-28T11:57:56Z</time></trkpt><trkpt lat="39.29381765828029" lon="9.330457713250965"><ele>257.0</ele><time>2026-03-28T11:57:58Z</time></trkpt><trkpt lat="39.293853638792314" lon="9.33037538417001"><ele>253.00000000000003</ele><time>2026-03-28T11:58:02Z</time></trkpt><trkpt lat="39.29384409648022" lon="9.33026122957528"><ele>249.00000000000003</ele><time>2026-03-28T11:59:16.999Z</time></trkpt><trkpt lat="39.29380361073369" lon="9.330134252666706"><ele>245.0</ele><time>2026-03-28T11:59:18.999Z</time></trkpt><trkpt lat="39.29378120866004" lon="9.329981335494823"><ele>241.0</ele><time>2026-03-28T11:59:20.999Z</time></trkpt><trkpt lat="39.29378200379481" lon="9.329829407558897"><ele>239.0</ele><time>2026-03-28T11:59:22.999Z</time></trkpt><trkpt lat="39.293772404503194" lon="9.32965319225938"><ele>237.00000000000003</ele><time>2026-03-28T11:59:24.999Z</time></trkpt><trkpt lat="39.29377331168925" lon="9.329547365707521"><ele>235.00000000000003</ele><time>2026-03-28T11:59:25.999Z</time></trkpt><trkpt lat="39.29379331191587" lon="9.329435910701605"><ele>233.0</ele><time>2026-03-28T11:59:26.999Z</time></trkpt><trkpt lat="39.293810245083534" lon="9.329323258301034"><ele>231.0</ele><time>2026-03-28T11:59:27.999Z</time></trkpt><trkpt lat="39.293834697460966" lon="9.329215759362713"><ele>231.0</ele><time>2026-03-28T11:59:28.999Z</time></trkpt><trkpt lat="39.293856002787074" lon="9.329104907840563"><ele>231.00000000000003</ele><time>2026-03-28T11:59:29.999Z</time></trkpt><trkpt lat="39.29384436146004" lon="9.328977895403234"><ele>231.00000000000003</ele><time>2026-03-28T11:59:30.999Z</time></trkpt><trkpt lat="39.29382314103173" lon="9.328840382307577"><ele>231.0</ele><time>2026-03-28T11:59:31.999Z</time></trkpt><trkpt lat="39.293793063129236" lon="9.328695962808256"><ele>231.0</ele><time>2026-03-28T11:59:32.999Z</time></trkpt><trkpt lat="39.29375672937137" lon="9.328542526468025"><ele>231.0</ele><time>2026-03-28T11:59:33.999Z</time></trkpt><trkpt lat="39.293718571955296" lon="9.328387360491378"><ele>231.0</ele><time>2026-03-28T11:59:34.999Z</time></trkpt><trkpt lat="39.293679637647756" lon="9.328237041533447"><ele>231.0</ele><time>2026-03-28T11:59:35.999Z</time></trkpt><trkpt lat="39.29364090214458" lon="9.328099019304407"><ele>231.0</ele><time>2026-03-28T11:59:36.999Z</time></trkpt><trkpt lat="39.29360865433101" lon="9.327980819392414"><ele>232.4</ele><time>2026-03-28T11:59:38Z</time></trkpt><trkpt lat="39.293571754200734" lon="9.327876026465189"><ele>233.8</ele><time>2026-03-28T11:59:39Z</time></trkpt><trkpt lat="39.29352483212099" lon="9.327763532314401"><ele>235.20000000000002</ele><time>2026-03-28T11:59:40Z</time></trkpt><trkpt lat="39.29347319285617" lon="9.327645688857439"><ele>236.60000000000002</ele><time>2026-03-28T11:59:41Z</time></trkpt><trkpt lat="39.29340860879509" lon="9.327522096894533"><ele>238.0</ele><time>2026-03-28T11:59:42Z</time></trkpt><trkpt lat="39.293339939866364" lon="9.327400146127426"><ele>238.0</ele><time>2026-03-28T11:59:43Z</time></trkpt><trkpt lat="39.29328554836085" lon="9.327273492698376"><ele>238.0</ele><time>2026-03-28T11:59:44Z</time></trkpt><trkpt lat="39.293227456401986" lon="9.327142631782564"><ele>238.0</ele><time>2026-03-28T11:59:45Z</time></trkpt><trkpt lat="39.29317198265889" lon="9.327005157521949"><ele>238.0</ele><time>2026-03-28T11:59:46Z</time></trkpt><trkpt lat="39.29311334333512" lon="9.326863668817904"><ele>236.75</ele><time>2026-03-28T11:59:47Z</time></trkpt><trkpt lat="39.29306004440914" lon="9.326716766190367"><ele>235.5</ele><time>2026-03-28T11:59:48Z</time></trkpt><trkpt lat="39.293011584738" lon="9.326574733193645"><ele>234.25</ele><time>2026-03-28T11:59:49Z</time></trkpt><trkpt lat="39.29294896206433" lon="9.326434735390698"><ele>233.0</ele><time>2026-03-28T11:59:50Z</time></trkpt><trkpt lat="39.292888354519945" lon="9.326303326572742"><ele>233.0</ele><time>2026-03-28T11:59:51Z</time></trkpt><trkpt lat="39.29282593236354" lon="9.326181619233726"><ele>233.0</ele><time>2026-03-28T11:59:52Z</time></trkpt><trkpt lat="39.292760834205524" lon="9.326056691863307"><ele>233.0</ele><time>2026-03-28T11:59:53Z</time></trkpt><trkpt lat="39.29268995464702" lon="9.325946100828682"><ele>233.0</ele><time>2026-03-28T11:59:54Z</time></trkpt><trkpt lat="39.29262605857738" lon="9.325851633249215"><ele>233.0</ele><time>2026-03-28T11:59:55Z</time></trkpt><trkpt lat="39.2925796118156" lon="9.32578468642877"><ele>233.00000000000003</ele><time>2026-03-28T11:59:56Z</time></trkpt><trkpt lat="39.292519334147876" lon="9.325730642666937"><ele>233.0</ele><time>2026-03-28T11:59:58Z</time></trkpt><trkpt lat="39.292560471183535" lon="9.32566395767302"><ele>233.0</ele><time>2026-03-28T12:00:02Z</time></trkpt><trkpt lat="39.29265823026775" lon="9.325724649109002"><ele>233.0</ele><time>2026-03-28T12:00:04Z</time></trkpt><trkpt lat="39.29274004353056" lon="9.325719215038964"><ele>233.00000000000003</ele><time>2026-03-28T12:00:05Z</time></trkpt><trkpt lat="39.29282715753647" lon="9.325688724912755"><ele>233.0</ele><time>2026-03-28T12:00:06Z</time></trkpt><trkpt lat="39.292899011551356" lon="9.325673603204086"><ele>233.0</ele><time>2026-03-28T12:00:07Z</time></trkpt><trkpt lat="39.293032704510836" lon="9.325658969110476"><ele>233.0</ele><time>2026-03-28T12:00:09Z</time></trkpt><trkpt lat="39.29309730142062" lon="9.325638913238432"><ele>233.0</ele><time>2026-03-28T12:00:10Z</time></trkpt><trkpt lat="39.293210541929604" lon="9.325582082632772"><ele>233.0</ele><time>2026-03-28T12:00:12Z</time></trkpt><trkpt lat="39.29332687977826" lon="9.325528197505236"><ele>233.0</ele><time>2026-03-28T12:00:14Z</time></trkpt><trkpt lat="39.293385860570645" lon="9.325476983606658"><ele>231.0</ele><time>2026-03-28T12:00:15Z</time></trkpt><trkpt lat="39.29344177659238" lon="9.325417535070955"><ele>229.0</ele><time>2026-03-28T12:00:16Z</time></trkpt><trkpt lat="39.293494265674006" lon="9.325357791097398"><ele>227.0</ele><time>2026-03-28T12:00:17Z</time></trkpt><trkpt lat="39.29359341792049" lon="9.32527205610985"><ele>225.0</ele><time>2026-03-28T12:00:19Z</time></trkpt><trkpt lat="39.29367741348848" lon="9.325144425077637"><ele>223.0</ele><time>2026-03-28T12:00:21Z</time></trkpt><trkpt lat="39.293708851986146" lon="9.325067777607067"><ele>223.0</ele><time>2026-03-28T12:00:22Z</time></trkpt><trkpt lat="39.29377527430565" lon="9.324944361254396"><ele>223.0</ele><time>2026-03-28T12:00:24Z</time></trkpt><trkpt lat="39.29380294898105" lon="9.324867869128171"><ele>223.0</ele><time>2026-03-28T12:00:25Z</time></trkpt><trkpt lat="39.293840290343695" lon="9.324738451107867"><ele>223.0</ele><time>2026-03-28T12:00:27Z</time></trkpt><trkpt lat="39.29390236720679" lon="9.324657638702327"><ele>223.0</ele><time>2026-03-28T12:00:29Z</time></trkpt><trkpt lat="39.29399992370085" lon="9.324639472811556"><ele>221.99999999999997</ele><time>2026-03-28T12:00:31Z</time></trkpt><trkpt lat="39.29409202867231" lon="9.324740960622634"><ele>221.0</ele><time>2026-03-28T12:00:33Z</time></trkpt><trkpt lat="39.294132404650945" lon="9.324820546770633"><ele>220.0</ele><time>2026-03-28T12:00:34Z</time></trkpt><trkpt lat="39.294151514076376" lon="9.324901573774316"><ele>219.0</ele><time>2026-03-28T12:00:35Z</time></trkpt><trkpt lat="39.29415161038719" lon="9.324996596318984"><ele>217.99999999999997</ele><time>2026-03-28T12:00:36Z</time></trkpt><trkpt lat="39.29412766875513" lon="9.325098391016434"><ele>217.0</ele><time>2026-03-28T12:00:37Z</time></trkpt><trkpt lat="39.294107740052766" lon="9.325176167005443"><ele>217.0</ele><time>2026-03-28T12:00:38Z</time></trkpt><trkpt lat="39.294067030890425" lon="9.325344509404754"><ele>217.0</ele><time>2026-03-28T12:00:40Z</time></trkpt><trkpt lat="39.29404221100377" lon="9.325443070611458"><ele>217.0</ele><time>2026-03-28T12:00:41Z</time></trkpt><trkpt lat="39.294023436366025" lon="9.325529480306637"><ele>217.0</ele><time>2026-03-28T12:00:42Z</time></trkpt><trkpt lat="39.29399596564806" lon="9.325686196268512"><ele>217.0</ele><time>2026-03-28T12:00:44Z</time></trkpt><trkpt lat="39.29396615056583" lon="9.325780079126552"><ele>216.99999999999997</ele><time>2026-03-28T12:00:45Z</time></trkpt><trkpt lat="39.29394719453026" lon="9.325870320449424"><ele>217.0</ele><time>2026-03-28T12:00:46Z</time></trkpt><trkpt lat="39.29393486315777" lon="9.325951723775558"><ele>217.0</ele><time>2026-03-28T12:00:47Z</time></trkpt><trkpt lat="39.29391156897001" lon="9.326034861899085"><ele>217.0</ele><time>2026-03-28T12:00:48Z</time></trkpt><trkpt lat="39.2938834405966" lon="9.326171007059692"><ele>216.99999999999997</ele><time>2026-03-28T12:00:50Z</time></trkpt><trkpt lat="39.293929492965546" lon="9.326311426660405"><ele>217.0</ele><time>2026-03-28T12:00:52Z</time></trkpt><trkpt lat="39.29396846132233" lon="9.32637684916512"><ele>218.2</ele><time>2026-03-28T12:00:53Z</time></trkpt><trkpt lat="39.294017954552125" lon="9.326436799823268"><ele>219.39999999999998</ele><time>2026-03-28T12:00:53.999Z</time></trkpt><trkpt lat="39.29411072520696" lon="9.326480714895627"><ele>220.60000000000002</ele><time>2026-03-28T12:00:55.999Z</time></trkpt><trkpt lat="39.29419956748708" lon="9.32647583176485"><ele>221.8</ele><time>2026-03-28T12:00:57.999Z</time></trkpt><trkpt lat="39.29432369442088" lon="9.326445739044194"><ele>223.0</ele><time>2026-03-28T12:00:59.999Z</time></trkpt><trkpt lat="39.294429213109524" lon="9.32642171976187"><ele>221.99999999999997</ele><time>2026-03-28T12:01:01.999Z</time></trkpt><trkpt lat="39.294506126436545" lon="9.326384215043635"><ele>221.0</ele><time>2026-03-28T12:01:03.999Z</time></trkpt><trkpt lat="39.29457723941829" lon="9.32631496687338"><ele>220.0</ele><time>2026-03-28T12:01:05.999Z</time></trkpt><trkpt lat="39.29463881310676" lon="9.326234801309855"><ele>219.0</ele><time>2026-03-28T12:01:07.999Z</time></trkpt><trkpt lat="39.29472338752988" lon="9.326174563411646"><ele>217.99999999999997</ele><time>2026-03-28T12:01:09.999Z</time></trkpt><trkpt lat="39.2947856162048" lon="9.326144883964108"><ele>217.0</ele><time>2026-03-28T12:01:10.999Z</time></trkpt><trkpt lat="39.29485307590646" lon="9.32611851231297"><ele>215.0</ele><time>2026-03-28T12:01:11.999Z</time></trkpt><trkpt lat="39.29491029061536" lon="9.326082296803383"><ele>213.0</ele><time>2026-03-28T12:01:12.999Z</time></trkpt><trkpt lat="39.29496626062943" lon="9.32604424511038"><ele>211.0</ele><time>2026-03-28T12:01:13.999Z</time></trkpt><trkpt lat="39.295073522072826" lon="9.325992151972914"><ele>209.0</ele><time>2026-03-28T12:01:15.999Z</time></trkpt><trkpt lat="39.29513540478694" lon="9.325970583726741"><ele>207.0</ele><time>2026-03-28T12:01:16.999Z</time></trkpt><trkpt lat="39.29520734151011" lon="9.3259552908605"><ele>205.0</ele><time>2026-03-28T12:01:17.999Z</time></trkpt><trkpt lat="39.295270860370174" lon="9.32592626834163"><ele>203.0</ele><time>2026-03-28T12:01:18.999Z</time></trkpt><trkpt lat="39.29533032541203" lon="9.32588444045348"><ele>203.00000000000003</ele><time>2026-03-28T12:01:19.999Z</time></trkpt><trkpt lat="39.29537959325866" lon="9.325833343776317"><ele>203.0</ele><time>2026-03-28T12:01:20.999Z</time></trkpt><trkpt lat="39.2954337271665" lon="9.325775208695697"><ele>203.0</ele><time>2026-03-28T12:01:21.999Z</time></trkpt><trkpt lat="39.29550149083063" lon="9.325720547351827"><ele>203.0</ele><time>2026-03-28T12:01:22.999Z</time></trkpt><trkpt lat="39.295557719606016" lon="9.325678847699683"><ele>203.00000000000003</ele><time>2026-03-28T12:01:23.999Z</time></trkpt><trkpt lat="39.29563154669864" lon="9.325603853977237"><ele>203.0</ele><time>2026-03-28T12:01:25.999Z</time></trkpt><trkpt lat="39.295595846924556" lon="9.325452315025636"><ele>200.60000000000002</ele><time>2026-03-28T12:01:27.999Z</time></trkpt><trkpt lat="39.295549074281794" lon="9.325393979046828"><ele>198.20000000000002</ele><time>2026-03-28T12:01:28.999Z</time></trkpt><trkpt lat="39.29542853262712" lon="9.325388440888439"><ele>195.8</ele><time>2026-03-28T12:01:30.999Z</time></trkpt><trkpt lat="39.295323222668586" lon="9.325430613704603"><ele>193.4</ele><time>2026-03-28T12:01:31.999Z</time></trkpt><trkpt lat="39.29520461832906" lon="9.325499018250625"><ele>191.0</ele><time>2026-03-28T12:01:32.999Z</time></trkpt><trkpt lat="39.295111583944994" lon="9.32555843756609"><ele>191.0</ele><time>2026-03-28T12:01:33.999Z</time></trkpt><trkpt lat="39.29504526031682" lon="9.325586175263767"><ele>191.0</ele><time>2026-03-28T12:01:34.999Z</time></trkpt><trkpt lat="39.29497871746173" lon="9.325589546929761"><ele>191.0</ele><time>2026-03-28T12:01:35.999Z</time></trkpt><trkpt lat="39.29488320187769" lon="9.325567928723414"><ele>191.0</ele><time>2026-03-28T12:01:37.999Z</time></trkpt><trkpt lat="39.29491582397056" lon="9.3253519296125"><ele>191.0</ele><time>2026-03-28T12:02:58Z</time></trkpt><trkpt lat="39.294979094589934" lon="9.325289546067635"><ele>191.0</ele><time>2026-03-28T12:02:59Z</time></trkpt><trkpt lat="39.29506460792013" lon="9.325226260830735"><ele>191.0</ele><time>2026-03-28T12:02:59.999Z</time></trkpt><trkpt lat="39.29514721670968" lon="9.32518260233283"><ele>191.0</ele><time>2026-03-28T12:03:00.999Z</time></trkpt><trkpt lat="39.29521118441806" lon="9.325128074034405"><ele>191.0</ele><time>2026-03-28T12:03:01.999Z</time></trkpt><trkpt lat="39.29526843897017" lon="9.325072533207763"><ele>191.0</ele><time>2026-03-28T12:03:02.999Z</time></trkpt><trkpt lat="39.29532895831618" lon="9.325021264710111"><ele>191.0</ele><time>2026-03-28T12:03:03.999Z</time></trkpt><trkpt lat="39.29539494768997" lon="9.324975751160428"><ele>191.0</ele><time>2026-03-28T12:03:04.999Z</time></trkpt><trkpt lat="39.29545606797708" lon="9.32493103022671"><ele>191.0</ele><time>2026-03-28T12:03:05.999Z</time></trkpt><trkpt lat="39.295514314870694" lon="9.324891186491232"><ele>191.0</ele><time>2026-03-28T12:03:06.999Z</time></trkpt><trkpt lat="39.29558800864028" lon="9.324860115692811"><ele>191.0</ele><time>2026-03-28T12:03:07.999Z</time></trkpt><trkpt lat="39.29566578768758" lon="9.324842029244243"><ele>191.0</ele><time>2026-03-28T12:03:08.999Z</time></trkpt><trkpt lat="39.295766233136455" lon="9.324872115094188"><ele>191.0</ele><time>2026-03-28T12:03:09.999Z</time></trkpt><trkpt lat="39.29588171799657" lon="9.324921453126406"><ele>189.20000000000002</ele><time>2026-03-28T12:03:10.999Z</time></trkpt><trkpt lat="39.2960028488465" lon="9.324979527723187"><ele>187.4</ele><time>2026-03-28T12:03:11.999Z</time></trkpt><trkpt lat="39.296109875789114" lon="9.325020647374377"><ele>185.6</ele><time>2026-03-28T12:03:12.999Z</time></trkpt><trkpt lat="39.296203761943154" lon="9.325048886706677"><ele>183.8</ele><time>2026-03-28T12:03:13.999Z</time></trkpt><trkpt lat="39.29629606080039" lon="9.325074225861998"><ele>182.0</ele><time>2026-03-28T12:03:14.999Z</time></trkpt><trkpt lat="39.29637125181097" lon="9.32510758944361"><ele>182.6</ele><time>2026-03-28T12:03:15.999Z</time></trkpt><trkpt lat="39.29643427652054" lon="9.325145648293187"><ele>183.2</ele><time>2026-03-28T12:03:16.999Z</time></trkpt><trkpt lat="39.296505539358115" lon="9.325234798144313"><ele>183.8</ele><time>2026-03-28T12:03:18.999Z</time></trkpt><trkpt lat="39.29656775474816" lon="9.325256575204673"><ele>184.4</ele><time>2026-03-28T12:03:22.999Z</time></trkpt><trkpt lat="39.296665804478394" lon="9.325128046573955"><ele>185.0</ele><time>2026-03-28T12:03:35.999Z</time></trkpt><trkpt lat="39.296638182655784" lon="9.325001608293668"><ele>185.0</ele><time>2026-03-28T12:03:37.999Z</time></trkpt><trkpt lat="39.29657884869102" lon="9.324937315444242"><ele>185.0</ele><time>2026-03-28T12:03:38.999Z</time></trkpt><trkpt lat="39.296502296768075" lon="9.324854985681712"><ele>185.0</ele><time>2026-03-28T12:03:39.999Z</time></trkpt><trkpt lat="39.296449135734285" lon="9.32470898990129"><ele>185.0</ele><time>2026-03-28T12:03:40.999Z</time></trkpt><trkpt lat="39.29635952535751" lon="9.32459599194583"><ele>185.0</ele><time>2026-03-28T12:03:41.999Z</time></trkpt><trkpt lat="39.29626516130593" lon="9.32447822118204"><ele>182.0</ele><time>2026-03-28T12:03:42.999Z</time></trkpt><trkpt lat="39.296182352893226" lon="9.324374155068362"><ele>179.0</ele><time>2026-03-28T12:03:43.999Z</time></trkpt><trkpt lat="39.29609121238687" lon="9.324252159710502"><ele>176.0</ele><time>2026-03-28T12:03:44.999Z</time></trkpt><trkpt lat="39.295997957920356" lon="9.324117279420795"><ele>173.0</ele><time>2026-03-28T12:03:45.999Z</time></trkpt><trkpt lat="39.29593319297962" lon="9.324008399401226"><ele>173.0</ele><time>2026-03-28T12:03:46.999Z</time></trkpt><trkpt lat="39.295892551883696" lon="9.32392558761537"><ele>173.0</ele><time>2026-03-28T12:03:47.999Z</time></trkpt><trkpt lat="39.29587199454579" lon="9.32381815011674"><ele>173.0</ele><time>2026-03-28T12:03:50.001Z</time></trkpt><trkpt lat="39.29587009866934" lon="9.323727749688977"><ele>173.0</ele><time>2026-03-28T12:03:53.001Z</time></trkpt><trkpt lat="39.29583770541016" lon="9.323657355693074"><ele>173.0</ele><time>2026-03-28T12:03:55.001Z</time></trkpt><trkpt lat="39.29580625742595" lon="9.323570409905269"><ele>173.0</ele><time>2026-03-28T12:03:58.001Z</time></trkpt><trkpt lat="39.29554935174216" lon="9.323559985724959"><ele>171.83333333333331</ele><time>2026-03-28T12:04:04.001Z</time></trkpt><trkpt lat="39.29546736521413" lon="9.323490744253242"><ele>170.66666666666666</ele><time>2026-03-28T12:04:06Z</time></trkpt><trkpt lat="39.29539376540787" lon="9.323447065651713"><ele>169.5</ele><time>2026-03-28T12:04:08Z</time></trkpt><trkpt lat="39.295344488320694" lon="9.323393487039986"><ele>168.33333333333334</ele><time>2026-03-28T12:04:10Z</time></trkpt><trkpt lat="39.29529222778145" lon="9.323343261108972"><ele>167.16666666666669</ele><time>2026-03-28T12:04:12Z</time></trkpt><trkpt lat="39.29522302029126" lon="9.323300539034488"><ele>166.0</ele><time>2026-03-28T12:04:15Z</time></trkpt><trkpt lat="39.29518254469918" lon="9.323169696449453"><ele>166.0</ele><time>2026-03-28T12:04:17Z</time></trkpt><trkpt lat="39.29514451373758" lon="9.32307973728207"><ele>166.0</ele><time>2026-03-28T12:04:18Z</time></trkpt><trkpt lat="39.295106049159465" lon="9.322981432849712"><ele>166.0</ele><time>2026-03-28T12:04:19Z</time></trkpt><trkpt lat="39.295081401002435" lon="9.322906183795338"><ele>166.0</ele><time>2026-03-28T12:04:20Z</time></trkpt><trkpt lat="39.29502364094591" lon="9.322833789492584"><ele>166.0</ele><time>2026-03-28T12:04:22Z</time></trkpt><trkpt lat="39.294926852643556" lon="9.322810568762058"><ele>166.0</ele><time>2026-03-28T12:04:24Z</time></trkpt><trkpt lat="39.294883791601166" lon="9.322742855368968"><ele>165.85714285714286</ele><time>2026-03-28T12:04:26Z</time></trkpt><trkpt lat="39.29487712772656" lon="9.322620437158982"><ele>165.71428571428572</ele><time>2026-03-28T12:04:29Z</time></trkpt><trkpt lat="39.294900909433224" lon="9.322534586278213"><ele>165.57142857142858</ele><time>2026-03-28T12:04:32Z</time></trkpt><trkpt lat="39.294911536344365" lon="9.322438479568747"><ele>165.42857142857144</ele><time>2026-03-28T12:04:36Z</time></trkpt><trkpt lat="39.29494484562187" lon="9.322368477186703"><ele>165.28571428571428</ele><time>2026-03-28T12:04:41Z</time></trkpt><trkpt lat="39.29496656067714" lon="9.322282145402045"><ele>165.14285714285717</ele><time>2026-03-28T12:04:44Z</time></trkpt><trkpt lat="39.29497847277873" lon="9.322197662847168"><ele>165.0</ele><time>2026-03-28T12:04:46Z</time></trkpt><trkpt lat="39.29493850104786" lon="9.322086330165575"><ele>165.0</ele><time>2026-03-28T12:04:48Z</time></trkpt><trkpt lat="39.29488123532048" lon="9.322002200623155"><ele>165.0</ele><time>2026-03-28T12:04:51Z</time></trkpt><trkpt lat="39.29482960318952" lon="9.321910561957283"><ele>165.0</ele><time>2026-03-28T12:04:53Z</time></trkpt><trkpt lat="39.29478789489176" lon="9.321844425117638"><ele>165.0</ele><time>2026-03-28T12:05:15.999Z</time></trkpt><trkpt lat="39.29474066681367" lon="9.321789481505649"><ele>165.0</ele><time>2026-03-28T12:05:17.999Z</time></trkpt><trkpt lat="39.29468089310303" lon="9.321716445053967"><ele>165.0</ele><time>2026-03-28T12:05:19.999Z</time></trkpt><trkpt lat="39.294642357133526" lon="9.321641877130286"><ele>163.6</ele><time>2026-03-28T12:05:21.999Z</time></trkpt><trkpt lat="39.29458630297476" lon="9.321574215065654"><ele>162.2</ele><time>2026-03-28T12:05:24.999Z</time></trkpt><trkpt lat="39.29451353516827" lon="9.321571468899188"><ele>160.8</ele><time>2026-03-28T12:05:29.999Z</time></trkpt><trkpt lat="39.294440784527374" lon="9.32163186959468"><ele>159.4</ele><time>2026-03-28T12:05:40.999Z</time></trkpt><trkpt lat="39.294344012092104" lon="9.321703645302424"><ele>158.0</ele><time>2026-03-28T12:05:43.999Z</time></trkpt><trkpt lat="39.29422108926716" lon="9.321750168931521"><ele>158.0</ele><time>2026-03-28T12:05:45.999Z</time></trkpt><trkpt lat="39.294163147971936" lon="9.321789706173996"><ele>158.0</ele><time>2026-03-28T12:05:47.999Z</time></trkpt><trkpt lat="39.29410580532712" lon="9.321744765108983"><ele>158.0</ele><time>2026-03-28T12:05:49.999Z</time></trkpt><trkpt lat="39.29403399483744" lon="9.321700447454834"><ele>158.0</ele><time>2026-03-28T12:05:52.999Z</time></trkpt><trkpt lat="39.29397933780759" lon="9.321791487481244"><ele>158.0</ele><time>2026-03-28T12:06:07.001Z</time></trkpt><trkpt lat="39.29392631234484" lon="9.321853696507873"><ele>158.0</ele><time>2026-03-28T12:06:09.001Z</time></trkpt><trkpt lat="39.29382071400871" lon="9.321877105783368"><ele>157.66666666666666</ele><time>2026-03-28T12:06:11.001Z</time></trkpt><trkpt lat="39.29373607341186" lon="9.321931048348187"><ele>157.33333333333331</ele><time>2026-03-28T12:06:13.001Z</time></trkpt><trkpt lat="39.29365624125468" lon="9.321933931597767"><ele>157.0</ele><time>2026-03-28T12:06:17Z</time></trkpt><trkpt lat="39.2936006190628" lon="9.32183372683431"><ele>156.66666666666666</ele><time>2026-03-28T12:06:19.999Z</time></trkpt><trkpt lat="39.29350817748454" lon="9.32181188549604"><ele>156.33333333333334</ele><time>2026-03-28T12:06:23.999Z</time></trkpt><trkpt lat="39.293461484873326" lon="9.3217551661124"><ele>156.0</ele><time>2026-03-28T12:06:26.999Z</time></trkpt><trkpt lat="39.293396379508884" lon="9.321769559200904"><ele>156.0</ele><time>2026-03-28T12:06:33.999Z</time></trkpt><trkpt lat="39.293335975164446" lon="9.321739359572662"><ele>156.0</ele><time>2026-03-28T12:06:38.999Z</time></trkpt><trkpt lat="39.293223893085596" lon="9.321540214126111"><ele>156.0</ele><time>2026-03-28T12:06:49.999Z</time></trkpt><trkpt lat="39.29315333016074" lon="9.321476726911095"><ele>156.0</ele><time>2026-03-28T12:06:57.999Z</time></trkpt><trkpt lat="39.29308795907408" lon="9.321436409931865"><ele>156.0</ele><time>2026-03-28T12:07:01.999Z</time></trkpt><trkpt lat="39.2930350688081" lon="9.32137576411666"><ele>155.5</ele><time>2026-03-28T12:07:08.999Z</time></trkpt><trkpt lat="39.29300205854748" lon="9.321286573206189"><ele>155.0</ele><time>2026-03-28T12:07:13.999Z</time></trkpt><trkpt lat="39.29291002270379" lon="9.321266990540607"><ele>154.5</ele><time>2026-03-28T12:07:18.999Z</time></trkpt><trkpt lat="39.29284768772187" lon="9.321242674974355"><ele>154.0</ele><time>2026-03-28T12:07:20.999Z</time></trkpt><trkpt lat="39.29277984701664" lon="9.321193677712591"><ele>153.5</ele><time>2026-03-28T12:07:31.998Z</time></trkpt><trkpt lat="39.29271547967289" lon="9.321173991891788"><ele>153.0</ele><time>2026-03-28T12:08:02Z</time></trkpt><trkpt lat="39.29262183808882" lon="9.321134663165179"><ele>153.0</ele><time>2026-03-28T12:08:06Z</time></trkpt><trkpt lat="39.292563238349715" lon="9.321071246703289"><ele>153.0</ele><time>2026-03-28T12:08:09Z</time></trkpt><trkpt lat="39.29249267109569" lon="9.321031037955388"><ele>153.0</ele><time>2026-03-28T12:08:12Z</time></trkpt><trkpt lat="39.2924523962981" lon="9.32088868229362"><ele>153.0</ele><time>2026-03-28T12:08:57.999Z</time></trkpt><trkpt lat="39.29241471767767" lon="9.320821324401805"><ele>153.0</ele><time>2026-03-28T12:09:12.999Z</time></trkpt><trkpt lat="39.29235508536474" lon="9.320782607717028"><ele>153.0</ele><time>2026-03-28T12:09:17.999Z</time></trkpt><trkpt lat="39.292299449515156" lon="9.320730038074243"><ele>152.33333333333334</ele><time>2026-03-28T12:09:22.999Z</time></trkpt><trkpt lat="39.292236308767365" lon="9.32065741213236"><ele>151.66666666666666</ele><time>2026-03-28T12:09:25.999Z</time></trkpt><trkpt lat="39.29216597365274" lon="9.320583625534253"><ele>151.0</ele><time>2026-03-28T12:09:28.999Z</time></trkpt><trkpt lat="39.292176035134574" lon="9.320486073120327"><ele>150.33333333333331</ele><time>2026-03-28T12:09:38.998Z</time></trkpt><trkpt lat="39.29210684895812" lon="9.32047691758281"><ele>149.66666666666666</ele><time>2026-03-28T12:09:42.998Z</time></trkpt><trkpt lat="39.29203134490417" lon="9.320462138869193"><ele>149.0</ele><time>2026-03-28T12:09:44.998Z</time></trkpt><trkpt lat="39.29198377736321" lon="9.320406227894841"><ele>149.0</ele><time>2026-03-28T12:09:47.998Z</time></trkpt><trkpt lat="39.29192208376152" lon="9.320333940657402"><ele>149.0</ele><time>2026-03-28T12:12:20Z</time></trkpt><trkpt lat="39.291858213066504" lon="9.320271463246149"><ele>149.0</ele><time>2026-03-28T12:12:23Z</time></trkpt><trkpt lat="39.29178802257956" lon="9.320265379250246"><ele>149.0</ele><time>2026-03-28T12:12:27Z</time></trkpt><trkpt lat="39.29171707386926" lon="9.320243958826383"><ele>149.0</ele><time>2026-03-28T12:12:30Z</time></trkpt><trkpt lat="39.29167951163369" lon="9.320131606765909"><ele>149.0</ele><time>2026-03-28T12:12:33Z</time></trkpt><trkpt lat="39.29166379320209" lon="9.320046108071828"><ele>149.0</ele><time>2026-03-28T12:12:36Z</time></trkpt><trkpt lat="39.29161326277265" lon="9.319991458773865"><ele>149.0</ele><time>2026-03-28T12:12:40Z</time></trkpt><trkpt lat="39.291581902294666" lon="9.319888275479403"><ele>149.0</ele><time>2026-03-28T12:12:43Z</time></trkpt><trkpt lat="39.29153025648128" lon="9.31978842339832"><ele>149.0</ele><time>2026-03-28T12:12:47.999Z</time></trkpt><trkpt lat="39.29148527508139" lon="9.319696083425022"><ele>149.0</ele><time>2026-03-28T12:12:50.999Z</time></trkpt><trkpt lat="39.29146115574426" lon="9.319599235357325"><ele>149.0</ele><time>2026-03-28T12:12:53.999Z</time></trkpt><trkpt lat="39.29144558173865" lon="9.319513996680657"><ele>148.66666666666666</ele><time>2026-03-28T12:12:55.999Z</time></trkpt><trkpt lat="39.29143000617098" lon="9.319416420050922"><ele>148.33333333333331</ele><time>2026-03-28T12:12:58.999Z</time></trkpt><trkpt lat="39.291409915420076" lon="9.319330963678446"><ele>148.0</ele><time>2026-03-28T12:13:01.999Z</time></trkpt><trkpt lat="39.2913915825831" lon="9.319211834527675"><ele>147.66666666666666</ele><time>2026-03-28T12:13:03.999Z</time></trkpt><trkpt lat="39.2913544212665" lon="9.319066666442477"><ele>147.33333333333334</ele><time>2026-03-28T12:13:05.999Z</time></trkpt><trkpt lat="39.29134782211085" lon="9.318985723908739"><ele>147.0</ele><time>2026-03-28T12:13:06.999Z</time></trkpt><trkpt lat="39.29132941059742" lon="9.31885069224259"><ele>147.0</ele><time>2026-03-28T12:13:08.999Z</time></trkpt><trkpt lat="39.29127618275949" lon="9.318712321485172"><ele>147.0</ele><time>2026-03-28T12:13:10.999Z</time></trkpt><trkpt lat="39.2912591847723" lon="9.318574255224227"><ele>147.0</ele><time>2026-03-28T12:13:13.999Z</time></trkpt><trkpt lat="39.29124108480519" lon="9.318446149064854"><ele>147.0</ele><time>2026-03-28T12:13:15.999Z</time></trkpt><trkpt lat="39.29123206217274" lon="9.318322966001592"><ele>147.0</ele><time>2026-03-28T12:13:17.999Z</time></trkpt><trkpt lat="39.29120481430064" lon="9.318207858138605"><ele>147.0</ele><time>2026-03-28T12:13:19.999Z</time></trkpt><trkpt lat="39.29113942823461" lon="9.318142294758346"><ele>147.0</ele><time>2026-03-28T12:13:21.999Z</time></trkpt><trkpt lat="39.291059789137854" lon="9.31813119716745"><ele>147.0</ele><time>2026-03-28T12:13:24.999Z</time></trkpt><trkpt lat="39.29097171274926" lon="9.318113856110376"><ele>147.0</ele><time>2026-03-28T12:13:27.999Z</time></trkpt><trkpt lat="39.2909148456127" lon="9.318150182963105"><ele>147.0</ele><time>2026-03-28T12:13:29.999Z</time></trkpt><trkpt lat="39.290857713581126" lon="9.318209591548662"><ele>147.0</ele><time>2026-03-28T12:13:31.999Z</time></trkpt><trkpt lat="39.29083915273739" lon="9.318293177871112"><ele>147.0</ele><time>2026-03-28T12:13:35.999Z</time></trkpt><trkpt lat="39.29081611351479" lon="9.318393548793965"><ele>147.0</ele><time>2026-03-28T12:13:39.999Z</time></trkpt><trkpt lat="39.29079296252579" lon="9.318548593645309"><ele>147.0</ele><time>2026-03-28T12:13:42.999Z</time></trkpt><trkpt lat="39.29076779459195" lon="9.31865603790486"><ele>147.0</ele><time>2026-03-28T12:13:43.999Z</time></trkpt><trkpt lat="39.29074171883092" lon="9.31875444000186"><ele>147.0</ele><time>2026-03-28T12:13:44.999Z</time></trkpt><trkpt lat="39.2907236957062" lon="9.318874797985798"><ele>148.33333333333334</ele><time>2026-03-28T12:13:45.999Z</time></trkpt><trkpt lat="39.29071256887037" lon="9.318971319946595"><ele>149.66666666666666</ele><time>2026-03-28T12:13:46.999Z</time></trkpt><trkpt lat="39.29066540029533" lon="9.31907346815378"><ele>151.0</ele><time>2026-03-28T12:13:48.999Z</time></trkpt><trkpt lat="39.290668976542094" lon="9.319176653611445"><ele>152.33333333333331</ele><time>2026-03-28T12:13:51.999Z</time></trkpt><trkpt lat="39.29066409550545" lon="9.319277243811056"><ele>153.66666666666666</ele><time>2026-03-28T12:13:54.998Z</time></trkpt><trkpt lat="39.29067408499689" lon="9.31936074235979"><ele>155.0</ele><time>2026-03-28T12:13:57.998Z</time></trkpt><trkpt lat="39.29070241660727" lon="9.319451758609143"><ele>155.0</ele><time>2026-03-28T12:14:06.998Z</time></trkpt><trkpt lat="39.29073618842" lon="9.319538296839685"><ele>155.0</ele><time>2026-03-28T12:14:09.998Z</time></trkpt><trkpt lat="39.29078769921614" lon="9.319622566113289"><ele>155.0</ele><time>2026-03-28T12:14:11.998Z</time></trkpt><trkpt lat="39.290847736631946" lon="9.319698432840624"><ele>155.0</ele><time>2026-03-28T12:14:13.998Z</time></trkpt><trkpt lat="39.29090779729735" lon="9.319800848860979"><ele>155.0</ele><time>2026-03-28T12:14:15.998Z</time></trkpt><trkpt lat="39.29092074614091" lon="9.319909160910187"><ele>155.0</ele><time>2026-03-28T12:14:17.998Z</time></trkpt><trkpt lat="39.29095458752355" lon="9.319984287532218"><ele>157.33333333333331</ele><time>2026-03-28T12:14:20Z</time></trkpt><trkpt lat="39.29099749436346" lon="9.32006807578576"><ele>159.66666666666666</ele><time>2026-03-28T12:14:23Z</time></trkpt><trkpt lat="39.291035536082376" lon="9.320154733569991"><ele>162.0</ele><time>2026-03-28T12:14:25Z</time></trkpt><trkpt lat="39.29107351486263" lon="9.320230338815755"><ele>164.33333333333334</ele><time>2026-03-28T12:14:27Z</time></trkpt><trkpt lat="39.29111560278023" lon="9.320327021327467"><ele>166.66666666666669</ele><time>2026-03-28T12:14:29Z</time></trkpt><trkpt lat="39.29113383663543" lon="9.320425796135638"><ele>169.0</ele><time>2026-03-28T12:14:31Z</time></trkpt><trkpt lat="39.291154132761505" lon="9.320504218763991"><ele>168.16666666666669</ele><time>2026-03-28T12:14:34Z</time></trkpt><trkpt lat="39.29120056084835" lon="9.320574020921455"><ele>167.33333333333334</ele><time>2026-03-28T12:14:51Z</time></trkpt><trkpt lat="39.29125005218557" lon="9.320648773107697"><ele>166.5</ele><time>2026-03-28T12:14:54Z</time></trkpt><trkpt lat="39.29129970536426" lon="9.320719177825657"><ele>165.66666666666666</ele><time>2026-03-28T12:14:56.999Z</time></trkpt><trkpt lat="39.291341053279524" lon="9.320808585793937"><ele>164.83333333333331</ele><time>2026-03-28T12:14:58.999Z</time></trkpt><trkpt lat="39.291389968937615" lon="9.32089994164684"><ele>164.0</ele><time>2026-03-28T12:15:01.999Z</time></trkpt><trkpt lat="39.2914354207716" lon="9.32097519699643"><ele>164.0</ele><time>2026-03-28T12:15:04.999Z</time></trkpt><trkpt lat="39.291496384918815" lon="9.321066047522399"><ele>164.0</ele><time>2026-03-28T12:15:06.999Z</time></trkpt><trkpt lat="39.29150344627145" lon="9.32115402729439"><ele>164.0</ele><time>2026-03-28T12:15:08.999Z</time></trkpt><trkpt lat="39.29154435170088" lon="9.321235906790106"><ele>164.0</ele><time>2026-03-28T12:15:10.999Z</time></trkpt><trkpt lat="39.291597590556194" lon="9.321310348994182"><ele>164.0</ele><time>2026-03-28T12:15:12.999Z</time></trkpt><trkpt lat="39.291580212149604" lon="9.321403316385412"><ele>164.0</ele><time>2026-03-28T12:15:14.999Z</time></trkpt><trkpt lat="39.29156274516498" lon="9.321506768535995"><ele>166.6</ele><time>2026-03-28T12:15:16.999Z</time></trkpt><trkpt lat="39.291519694847274" lon="9.321609836836888"><ele>169.2</ele><time>2026-03-28T12:15:18.999Z</time></trkpt><trkpt lat="39.291497195848535" lon="9.321737832369559"><ele>171.79999999999998</ele><time>2026-03-28T12:15:21.999Z</time></trkpt><trkpt lat="39.291453127155634" lon="9.321878997008522"><ele>174.39999999999998</ele><time>2026-03-28T12:15:24.999Z</time></trkpt><trkpt lat="39.29142251860231" lon="9.322003384088418"><ele>177.0</ele><time>2026-03-28T12:15:26.999Z</time></trkpt><trkpt lat="39.291387384736154" lon="9.322088066740475"><ele>181.8</ele><time>2026-03-28T12:15:28.999Z</time></trkpt><trkpt lat="39.29134722286707" lon="9.322190609289791"><ele>186.6</ele><time>2026-03-28T12:15:30.999Z</time></trkpt><trkpt lat="39.29130190490809" lon="9.322314775728742"><ele>191.4</ele><time>2026-03-28T12:15:32.999Z</time></trkpt><trkpt lat="39.29123687504844" lon="9.322374669275616"><ele>196.20000000000002</ele><time>2026-03-28T12:15:34.999Z</time></trkpt><trkpt lat="39.291190515671374" lon="9.322444817783966"><ele>201.0</ele><time>2026-03-28T12:15:36.999Z</time></trkpt><trkpt lat="39.291116194057714" lon="9.322556847278044"><ele>201.0</ele><time>2026-03-28T12:15:38.999Z</time></trkpt><trkpt lat="39.29107678700681" lon="9.322631081116967"><ele>201.0</ele><time>2026-03-28T12:15:39.999Z</time></trkpt><trkpt lat="39.29103373427183" lon="9.322694052835201"><ele>201.0</ele><time>2026-03-28T12:15:41.999Z</time></trkpt><trkpt lat="39.29098300126274" lon="9.322768533471915"><ele>201.0</ele><time>2026-03-28T12:15:43.999Z</time></trkpt><trkpt lat="39.290951802857535" lon="9.322850935188074"><ele>201.0</ele><time>2026-03-28T12:15:45.999Z</time></trkpt><trkpt lat="39.290915192214456" lon="9.322923129497292"><ele>201.0</ele><time>2026-03-28T12:15:47.999Z</time></trkpt><trkpt lat="39.290852765477474" lon="9.323002981654046"><ele>201.0</ele><time>2026-03-28T12:15:50.999Z</time></trkpt><trkpt lat="39.29078401329533" lon="9.323092679473183"><ele>199.83333333333334</ele><time>2026-03-28T12:15:53.999Z</time></trkpt><trkpt lat="39.290723029894515" lon="9.32318733722181"><ele>198.66666666666669</ele><time>2026-03-28T12:15:55.999Z</time></trkpt><trkpt lat="39.29066130747678" lon="9.32326030877646"><ele>197.5</ele><time>2026-03-28T12:15:58.999Z</time></trkpt><trkpt lat="39.29060887907911" lon="9.323318921127512"><ele>196.33333333333334</ele><time>2026-03-28T12:15:59.999Z</time></trkpt><trkpt lat="39.29055079554011" lon="9.323410808021926"><ele>195.16666666666669</ele><time>2026-03-28T12:16:01.999Z</time></trkpt><trkpt lat="39.29050363402681" lon="9.323518836160607"><ele>194.0</ele><time>2026-03-28T12:16:03.998Z</time></trkpt><trkpt lat="39.290441743965125" lon="9.323598843194889"><ele>196.33333333333334</ele><time>2026-03-28T12:16:05.998Z</time></trkpt><trkpt lat="39.29043100422" lon="9.323713144211206"><ele>198.66666666666669</ele><time>2026-03-28T12:16:08.998Z</time></trkpt><trkpt lat="39.29040530577363" lon="9.323805584436764"><ele>201.0</ele><time>2026-03-28T12:16:11.998Z</time></trkpt><trkpt lat="39.2903858372972" lon="9.32388304126267"><ele>203.33333333333331</ele><time>2026-03-28T12:16:18.998Z</time></trkpt><trkpt lat="39.29033686302504" lon="9.323961486804725"><ele>205.66666666666666</ele><time>2026-03-28T12:16:22.998Z</time></trkpt><trkpt lat="39.29029054895545" lon="9.324023846255791"><ele>208.0</ele><time>2026-03-28T12:16:26Z</time></trkpt><trkpt lat="39.29024507484599" lon="9.324214751087885"><ele>208.0</ele><time>2026-03-28T12:16:28Z</time></trkpt><trkpt lat="39.29020691363479" lon="9.324292283186274"><ele>208.0</ele><time>2026-03-28T12:16:31Z</time></trkpt><trkpt lat="39.2901904381914" lon="9.324371339031524"><ele>208.0</ele><time>2026-03-28T12:16:34Z</time></trkpt><trkpt lat="39.29018248669827" lon="9.32445589327827"><ele>208.0</ele><time>2026-03-28T12:16:47Z</time></trkpt><trkpt lat="39.290148850990796" lon="9.324539004860087"><ele>208.0</ele><time>2026-03-28T12:16:51Z</time></trkpt><trkpt lat="39.29013997851668" lon="9.324647320789216"><ele>208.0</ele><time>2026-03-28T12:16:53Z</time></trkpt><trkpt lat="39.29012801106262" lon="9.324744897157283"><ele>208.0</ele><time>2026-03-28T12:16:55Z</time></trkpt><trkpt lat="39.290165762629826" lon="9.324832272524462"><ele>209.16666666666666</ele><time>2026-03-28T12:17:27.999Z</time></trkpt><trkpt lat="39.29021662601062" lon="9.32490551884773"><ele>210.33333333333331</ele><time>2026-03-28T12:17:29.999Z</time></trkpt><trkpt lat="39.29028047089093" lon="9.324957861782057"><ele>211.5</ele><time>2026-03-28T12:17:31.999Z</time></trkpt><trkpt lat="39.2903533159077" lon="9.325010938705416"><ele>212.66666666666669</ele><time>2026-03-28T12:17:33.999Z</time></trkpt><trkpt lat="39.290454403646" lon="9.325095132572816"><ele>213.83333333333334</ele><time>2026-03-28T12:17:35.999Z</time></trkpt><trkpt lat="39.29053115450905" lon="9.32515228725322"><ele>215.0</ele><time>2026-03-28T12:17:36.999Z</time></trkpt><trkpt lat="39.29058969723037" lon="9.325214140310681"><ele>214.6</ele><time>2026-03-28T12:17:37.999Z</time></trkpt><trkpt lat="39.29068199058105" lon="9.325312956231828"><ele>214.2</ele><time>2026-03-28T12:17:39.999Z</time></trkpt><trkpt lat="39.2907577549137" lon="9.325401567299014"><ele>213.8</ele><time>2026-03-28T12:17:41.999Z</time></trkpt><trkpt lat="39.290838958597234" lon="9.325483939796701"><ele>213.4</ele><time>2026-03-28T12:17:43.999Z</time></trkpt><trkpt lat="39.290909163791476" lon="9.325536977214096"><ele>213.0</ele><time>2026-03-28T12:17:45.999Z</time></trkpt><trkpt lat="39.290942578681644" lon="9.325656224007192"><ele>213.8</ele><time>2026-03-28T12:21:12.999Z</time></trkpt><trkpt lat="39.29084525792896" lon="9.32568829497623"><ele>214.60000000000002</ele><time>2026-03-28T12:21:13.999Z</time></trkpt><trkpt lat="39.290739871992116" lon="9.325700943652931"><ele>215.39999999999998</ele><time>2026-03-28T12:21:14.999Z</time></trkpt><trkpt lat="39.29064829031508" lon="9.32572785130449"><ele>216.2</ele><time>2026-03-28T12:21:15.999Z</time></trkpt><trkpt lat="39.290565155992496" lon="9.32575090101008"><ele>217.0</ele><time>2026-03-28T12:21:16.999Z</time></trkpt><trkpt lat="39.29048411508633" lon="9.325752539548837"><ele>217.2</ele><time>2026-03-28T12:21:17.999Z</time></trkpt><trkpt lat="39.29039323516824" lon="9.32574270333117"><ele>217.39999999999998</ele><time>2026-03-28T12:21:18.999Z</time></trkpt><trkpt lat="39.29029827712634" lon="9.32571756571086"><ele>217.60000000000002</ele><time>2026-03-28T12:21:19.999Z</time></trkpt><trkpt lat="39.29020674094317" lon="9.325693481936318"><ele>217.8</ele><time>2026-03-28T12:21:20.999Z</time></trkpt><trkpt lat="39.29010950684561" lon="9.325671327014916"><ele>218.0</ele><time>2026-03-28T12:21:21.999Z</time></trkpt><trkpt lat="39.29002381599517" lon="9.32564404209399"><ele>218.0</ele><time>2026-03-28T12:21:22.999Z</time></trkpt><trkpt lat="39.289959033287865" lon="9.325615785718433"><ele>218.0</ele><time>2026-03-28T12:21:23.999Z</time></trkpt><trkpt lat="39.28985186003161" lon="9.325547668285115"><ele>218.0</ele><time>2026-03-28T12:21:25.999Z</time></trkpt><trkpt lat="39.289806008556354" lon="9.325490406757961"><ele>218.0</ele><time>2026-03-28T12:21:26.999Z</time></trkpt><trkpt lat="39.28974159405915" lon="9.325391648827232"><ele>218.0</ele><time>2026-03-28T12:21:28.999Z</time></trkpt><trkpt lat="39.28966454882624" lon="9.325277950666331"><ele>218.50000000000003</ele><time>2026-03-28T12:21:30.999Z</time></trkpt><trkpt lat="39.28962980576342" lon="9.325190639947055"><ele>219.0</ele><time>2026-03-28T12:21:31.999Z</time></trkpt><trkpt lat="39.28959296078871" lon="9.325077577259083"><ele>219.5</ele><time>2026-03-28T12:21:32.999Z</time></trkpt><trkpt lat="39.289544928334" lon="9.324967299814352"><ele>220.0</ele><time>2026-03-28T12:21:33.999Z</time></trkpt><trkpt lat="39.28949897989961" lon="9.324873632654288"><ele>220.50000000000003</ele><time>2026-03-28T12:21:34.999Z</time></trkpt><trkpt lat="39.28946163893136" lon="9.324793394892401"><ele>221.0</ele><time>2026-03-28T12:21:35.999Z</time></trkpt><trkpt lat="39.289413770980566" lon="9.32463928173982"><ele>221.0</ele><time>2026-03-28T12:21:37.999Z</time></trkpt><trkpt lat="39.28937071875072" lon="9.324519849723615"><ele>221.00000000000003</ele><time>2026-03-28T12:21:39.999Z</time></trkpt><trkpt lat="39.28925793709636" lon="9.324451768645359"><ele>221.00000000000003</ele><time>2026-03-28T12:21:41.999Z</time></trkpt><trkpt lat="39.28918413206025" lon="9.324459333369665"><ele>221.0</ele><time>2026-03-28T12:21:42.999Z</time></trkpt><trkpt lat="39.289091463396474" lon="9.324539956469978"><ele>221.0</ele><time>2026-03-28T12:21:44.999Z</time></trkpt><trkpt lat="39.28901345942312" lon="9.324551350682377"><ele>221.00000000000003</ele><time>2026-03-28T12:21:46.999Z</time></trkpt><trkpt lat="39.28895117885031" lon="9.32456477493225"><ele>221.0</ele><time>2026-03-28T12:21:48.999Z</time></trkpt><trkpt lat="39.28889373827166" lon="9.324520533182067"><ele>221.0</ele><time>2026-03-28T12:21:50.999Z</time></trkpt><trkpt lat="39.28886666273964" lon="9.324370048134819"><ele>221.0</ele><time>2026-03-28T12:21:52.999Z</time></trkpt><trkpt lat="39.28885794941313" lon="9.324273283964638"><ele>221.00000000000003</ele><time>2026-03-28T12:21:53.999Z</time></trkpt><trkpt lat="39.28885033971158" lon="9.324185602183926"><ele>221.0</ele><time>2026-03-28T12:21:54.999Z</time></trkpt><trkpt lat="39.28882353976206" lon="9.324111571841168"><ele>220.33333333333334</ele><time>2026-03-28T12:21:55.999Z</time></trkpt><trkpt lat="39.28879630189099" lon="9.324020398854023"><ele>219.66666666666669</ele><time>2026-03-28T12:21:57.999Z</time></trkpt><trkpt lat="39.28881064420316" lon="9.323906200321408"><ele>219.0</ele><time>2026-03-28T12:21:59.999Z</time></trkpt><trkpt lat="39.2887781876433" lon="9.32380441060502"><ele>218.33333333333331</ele><time>2026-03-28T12:22:01.999Z</time></trkpt><trkpt lat="39.288776745911136" lon="9.323708797476693"><ele>217.66666666666666</ele><time>2026-03-28T12:22:05.999Z</time></trkpt><trkpt lat="39.28886756213903" lon="9.32365440666777"><ele>217.0</ele><time>2026-03-28T12:22:18.999Z</time></trkpt><trkpt lat="39.28892296543121" lon="9.323582218369467"><ele>216.99999999999997</ele><time>2026-03-28T12:22:20.998Z</time></trkpt><trkpt lat="39.28890434548773" lon="9.32348644680409"><ele>217.0</ele><time>2026-03-28T12:22:46Z</time></trkpt><trkpt lat="39.288908002657166" lon="9.3233958674648"><ele>217.0</ele><time>2026-03-28T12:22:48Z</time></trkpt><trkpt lat="39.28891529157177" lon="9.323288702120022"><ele>217.0</ele><time>2026-03-28T12:22:54Z</time></trkpt><trkpt lat="39.28892687228547" lon="9.323180541038756"><ele>216.99999999999997</ele><time>2026-03-28T12:22:57Z</time></trkpt><trkpt lat="39.28891063044841" lon="9.32304475262738"><ele>217.0</ele><time>2026-03-28T12:23:00Z</time></trkpt><trkpt lat="39.288899593533834" lon="9.32293929098581"><ele>220.16666666666666</ele><time>2026-03-28T12:23:02Z</time></trkpt><trkpt lat="39.28887646793894" lon="9.322861345187018"><ele>223.33333333333331</ele><time>2026-03-28T12:23:04Z</time></trkpt><trkpt lat="39.28881819395856" lon="9.322815688232824"><ele>226.5</ele><time>2026-03-28T12:23:07Z</time></trkpt><trkpt lat="39.28876812894652" lon="9.322757600547101"><ele>229.66666666666669</ele><time>2026-03-28T12:23:11Z</time></trkpt><trkpt lat="39.28876212758429" lon="9.322631893095657"><ele>232.83333333333334</ele><time>2026-03-28T12:23:13Z</time></trkpt><trkpt lat="39.28875986936711" lon="9.322548881669986"><ele>236.0</ele><time>2026-03-28T12:23:14Z</time></trkpt><trkpt lat="39.288745993163396" lon="9.322425864798296"><ele>236.00000000000003</ele><time>2026-03-28T12:23:16Z</time></trkpt><trkpt lat="39.28870563463954" lon="9.322363396130207"><ele>236.0</ele><time>2026-03-28T12:23:18Z</time></trkpt><trkpt lat="39.2885982352106" lon="9.32233811801971"><ele>236.0</ele><time>2026-03-28T12:23:20Z</time></trkpt><trkpt lat="39.28852223173206" lon="9.322336553426625"><ele>236.0</ele><time>2026-03-28T12:23:23Z</time></trkpt><trkpt lat="39.28844497017367" lon="9.322346319794338"><ele>236.00000000000003</ele><time>2026-03-28T12:23:25Z</time></trkpt><trkpt lat="39.288399888188415" lon="9.322408994701844"><ele>236.0</ele><time>2026-03-28T12:23:29Z</time></trkpt><trkpt lat="39.28834385459156" lon="9.322368592022839"><ele>236.00000000000003</ele><time>2026-03-28T12:23:32Z</time></trkpt><trkpt lat="39.28828850236679" lon="9.322442319784926"><ele>236.0</ele><time>2026-03-28T12:23:35Z</time></trkpt><trkpt lat="39.288223404022524" lon="9.322460178103697"><ele>236.0</ele><time>2026-03-28T12:23:37Z</time></trkpt><trkpt lat="39.28818526108227" lon="9.322392077417174"><ele>236.0</ele><time>2026-03-28T12:23:40Z</time></trkpt><trkpt lat="39.28811347786326" lon="9.322289817742787"><ele>236.00000000000003</ele><time>2026-03-28T12:23:42.999Z</time></trkpt><trkpt lat="39.288046659514144" lon="9.322262471896616"><ele>236.0</ele><time>2026-03-28T12:23:43.999Z</time></trkpt><trkpt lat="39.287983171813195" lon="9.32224832403892"><ele>233.83333333333334</ele><time>2026-03-28T12:23:44.999Z</time></trkpt><trkpt lat="39.28791420475641" lon="9.322256216143675"><ele>231.66666666666669</ele><time>2026-03-28T12:23:45.999Z</time></trkpt><trkpt lat="39.28778110208432" lon="9.322278502976824"><ele>229.5</ele><time>2026-03-28T12:23:47.999Z</time></trkpt><trkpt lat="39.28771664291838" lon="9.322279229348746"><ele>227.33333333333331</ele><time>2026-03-28T12:23:48.999Z</time></trkpt><trkpt lat="39.287676538505075" lon="9.322190658860565"><ele>225.16666666666666</ele><time>2026-03-28T12:23:51.999Z</time></trkpt><trkpt lat="39.28767000907526" lon="9.322088633187148"><ele>223.0</ele><time>2026-03-28T12:23:53.999Z</time></trkpt><trkpt lat="39.287620743052145" lon="9.321993047307116"><ele>222.83333333333331</ele><time>2026-03-28T12:23:56.999Z</time></trkpt><trkpt lat="39.28754939854005" lon="9.321936214121427"><ele>222.66666666666666</ele><time>2026-03-28T12:23:58.999Z</time></trkpt><trkpt lat="39.287472797450285" lon="9.321930395333712"><ele>222.5</ele><time>2026-03-28T12:24:00.999Z</time></trkpt><trkpt lat="39.28740636235004" lon="9.321850934714288"><ele>222.33333333333331</ele><time>2026-03-28T12:24:03.999Z</time></trkpt><trkpt lat="39.28735890325546" lon="9.321795875009531"><ele>222.16666666666666</ele><time>2026-03-28T12:24:05.999Z</time></trkpt><trkpt lat="39.28738577476348" lon="9.321687777777163"><ele>222.0</ele><time>2026-03-28T12:24:07.999Z</time></trkpt><trkpt lat="39.28737197178958" lon="9.321537642170656"><ele>222.0</ele><time>2026-03-28T12:24:09.999Z</time></trkpt><trkpt lat="39.287285031472976" lon="9.321412268994612"><ele>222.0</ele><time>2026-03-28T12:24:11.999Z</time></trkpt><trkpt lat="39.28723407882702" lon="9.32133914366173"><ele>222.0</ele><time>2026-03-28T12:24:12.999Z</time></trkpt><trkpt lat="39.287174150945006" lon="9.321248915636998"><ele>222.0</ele><time>2026-03-28T12:24:14.999Z</time></trkpt><trkpt lat="39.28712056424369" lon="9.321136082327445"><ele>222.0</ele><time>2026-03-28T12:24:16.999Z</time></trkpt><trkpt lat="39.28707513413146" lon="9.32100848543898"><ele>222.0</ele><time>2026-03-28T12:24:18.999Z</time></trkpt><trkpt lat="39.28701044480262" lon="9.3209090910953"><ele>222.0</ele><time>2026-03-28T12:24:20.999Z</time></trkpt><trkpt lat="39.28694485993303" lon="9.320837509997896"><ele>222.0</ele><time>2026-03-28T12:24:22.999Z</time></trkpt><trkpt lat="39.28689849188668" lon="9.320754941920676"><ele>222.0</ele><time>2026-03-28T12:24:25.999Z</time></trkpt><trkpt lat="39.28684671765919" lon="9.320696063507986"><ele>222.0</ele><time>2026-03-28T12:24:27.999Z</time></trkpt><trkpt lat="39.286788439050696" lon="9.320642753627888"><ele>222.0</ele><time>2026-03-28T12:24:29.999Z</time></trkpt><trkpt lat="39.286712524806525" lon="9.320596245655533"><ele>218.0</ele><time>2026-03-28T12:24:31.999Z</time></trkpt><trkpt lat="39.28661985137956" lon="9.320561886443457"><ele>214.0</ele><time>2026-03-28T12:24:34.999Z</time></trkpt><trkpt lat="39.28653469024477" lon="9.320521770651734"><ele>210.0</ele><time>2026-03-28T12:24:37.999Z</time></trkpt><trkpt lat="39.286431458507884" lon="9.32050229923095"><ele>206.0</ele><time>2026-03-28T12:24:41.999Z</time></trkpt><trkpt lat="39.28636167133091" lon="9.320514101017329"><ele>202.0</ele><time>2026-03-28T12:24:44.999Z</time></trkpt><trkpt lat="39.286297975024134" lon="9.320532654103857"><ele>198.0</ele><time>2026-03-28T12:24:47.999Z</time></trkpt><trkpt lat="39.28623310366799" lon="9.32050961660739"><ele>197.0</ele><time>2026-03-28T12:25:03Z</time></trkpt><trkpt lat="39.28616993527083" lon="9.320494256139806"><ele>196.0</ele><time>2026-03-28T12:25:08Z</time></trkpt><trkpt lat="39.28609669568771" lon="9.32045986465067"><ele>195.0</ele><time>2026-03-28T12:25:11Z</time></trkpt><trkpt lat="39.28603531675566" lon="9.32042442125544"><ele>194.0</ele><time>2026-03-28T12:25:12Z</time></trkpt><trkpt lat="39.28595663712254" lon="9.320416817733093"><ele>193.0</ele><time>2026-03-28T12:25:14Z</time></trkpt><trkpt lat="39.28589994103636" lon="9.320466903502552"><ele>192.0</ele><time>2026-03-28T12:25:19Z</time></trkpt><trkpt lat="39.28583116768163" lon="9.320455399400872"><ele>191.0</ele><time>2026-03-28T12:25:26Z</time></trkpt><trkpt lat="39.28580402263778" lon="9.320378097347502"><ele>191.0</ele><time>2026-03-28T12:25:29Z</time></trkpt><trkpt lat="39.285766746834206" lon="9.320287772253499"><ele>191.0</ele><time>2026-03-28T12:25:36Z</time></trkpt><trkpt lat="39.285729274952025" lon="9.320218829936012"><ele>191.0</ele><time>2026-03-28T12:25:43Z</time></trkpt><trkpt lat="39.28564995944835" lon="9.320193244802443"><ele>191.0</ele><time>2026-03-28T12:25:48Z</time></trkpt><trkpt lat="39.285574848435466" lon="9.32016599485248"><ele>191.0</ele><time>2026-03-28T12:25:53.999Z</time></trkpt><trkpt lat="39.28549651049817" lon="9.320136926595817"><ele>191.0</ele><time>2026-03-28T12:25:57.999Z</time></trkpt><trkpt lat="39.28543537477044" lon="9.320095897547679"><ele>188.66666666666666</ele><time>2026-03-28T12:26:00.999Z</time></trkpt><trkpt lat="39.28536706241813" lon="9.320095734897102"><ele>186.33333333333331</ele><time>2026-03-28T12:26:03.999Z</time></trkpt><trkpt lat="39.28529220352209" lon="9.32004522960935"><ele>184.0</ele><time>2026-03-28T12:26:05.999Z</time></trkpt><trkpt lat="39.28522962989851" lon="9.319977732981446"><ele>181.66666666666666</ele><time>2026-03-28T12:26:06.999Z</time></trkpt><trkpt lat="39.28513829847807" lon="9.319942015450751"><ele>179.33333333333334</ele><time>2026-03-28T12:26:07.999Z</time></trkpt><trkpt lat="39.28507143313416" lon="9.319893251933063"><ele>177.0</ele><time>2026-03-28T12:26:44.999Z</time></trkpt><trkpt lat="39.28501052645491" lon="9.31987141910839"><ele>177.0</ele><time>2026-03-28T12:26:45.999Z</time></trkpt><trkpt lat="39.2849202599863" lon="9.319860097671842"><ele>177.0</ele><time>2026-03-28T12:26:46.999Z</time></trkpt><trkpt lat="39.28482825689778" lon="9.3198241376114"><ele>177.0</ele><time>2026-03-28T12:26:47.999Z</time></trkpt><trkpt lat="39.2847584682629" lon="9.319788053361066"><ele>177.0</ele><time>2026-03-28T12:26:48.999Z</time></trkpt><trkpt lat="39.28465278659426" lon="9.319766827486122"><ele>177.0</ele><time>2026-03-28T12:26:50.999Z</time></trkpt><trkpt lat="39.28463328470343" lon="9.31961248841825"><ele>176.83333333333334</ele><time>2026-03-28T12:26:52.999Z</time></trkpt><trkpt lat="39.28460310158484" lon="9.319501431263406"><ele>176.66666666666666</ele><time>2026-03-28T12:26:55Z</time></trkpt><trkpt lat="39.28455114144303" lon="9.319452961781117"><ele>176.5</ele><time>2026-03-28T12:26:56Z</time></trkpt><trkpt lat="39.28449388128884" lon="9.319388303063402"><ele>176.33333333333331</ele><time>2026-03-28T12:26:57Z</time></trkpt><trkpt lat="39.28445329628917" lon="9.319318247600695"><ele>176.16666666666666</ele><time>2026-03-28T12:26:58Z</time></trkpt><trkpt lat="39.28437000350036" lon="9.319275308492207"><ele>176.0</ele><time>2026-03-28T12:27:00Z</time></trkpt><trkpt lat="39.284335852608834" lon="9.319119625216649"><ele>176.0</ele><time>2026-03-28T12:27:02Z</time></trkpt><trkpt lat="39.28431617914688" lon="9.319006688117927"><ele>176.0</ele><time>2026-03-28T12:27:03Z</time></trkpt><trkpt lat="39.284310379333235" lon="9.318869577722404"><ele>176.0</ele><time>2026-03-28T12:27:04Z</time></trkpt><trkpt lat="39.28428700732129" lon="9.31870881408649"><ele>176.0</ele><time>2026-03-28T12:27:05Z</time></trkpt><trkpt lat="39.2842601409063" lon="9.318587471127806"><ele>176.0</ele><time>2026-03-28T12:27:06Z</time></trkpt><trkpt lat="39.284249182624606" lon="9.31848148866364"><ele>176.66666666666666</ele><time>2026-03-28T12:27:07Z</time></trkpt><trkpt lat="39.2842440674374" lon="9.318364637685992"><ele>177.33333333333331</ele><time>2026-03-28T12:27:09Z</time></trkpt><trkpt lat="39.284188220088446" lon="9.318284482893082"><ele>178.0</ele><time>2026-03-28T12:27:11Z</time></trkpt><trkpt lat="39.284118862019426" lon="9.318271294324353"><ele>178.66666666666666</ele><time>2026-03-28T12:27:13Z</time></trkpt><trkpt lat="39.28405814208105" lon="9.318242708302645"><ele>179.33333333333334</ele><time>2026-03-28T12:27:15Z</time></trkpt><trkpt lat="39.28398966366864" lon="9.31822270953741"><ele>180.0</ele><time>2026-03-28T12:27:17Z</time></trkpt><trkpt lat="39.283909794212946" lon="9.318188252248953"><ele>177.4</ele><time>2026-03-28T12:27:19Z</time></trkpt><trkpt lat="39.28383569159998" lon="9.318157726331332"><ele>174.8</ele><time>2026-03-28T12:27:21Z</time></trkpt><trkpt lat="39.2837349390753" lon="9.318154600217046"><ele>172.2</ele><time>2026-03-28T12:27:23Z</time></trkpt><trkpt lat="39.283641566789576" lon="9.318066076267801"><ele>169.6</ele><time>2026-03-28T12:27:25Z</time></trkpt><trkpt lat="39.283570832835906" lon="9.317991994690786"><ele>167.0</ele><time>2026-03-28T12:27:27Z</time></trkpt><trkpt lat="39.28347354362081" lon="9.318015769238052"><ele>166.0</ele><time>2026-03-28T12:27:29Z</time></trkpt><trkpt lat="39.28335383964226" lon="9.317955777072601"><ele>165.0</ele><time>2026-03-28T12:27:31Z</time></trkpt><trkpt lat="39.28325942134612" lon="9.317860767240937"><ele>164.0</ele><time>2026-03-28T12:27:33Z</time></trkpt><trkpt lat="39.2831375626663" lon="9.317821949362823"><ele>163.0</ele><time>2026-03-28T12:27:35Z</time></trkpt><trkpt lat="39.28301626146497" lon="9.31786736399156"><ele>162.33333333333334</ele><time>2026-03-28T12:27:37Z</time></trkpt><trkpt lat="39.28295416117773" lon="9.317886513313711"><ele>161.66666666666669</ele><time>2026-03-28T12:27:38Z</time></trkpt><trkpt lat="39.282842501574294" lon="9.317895643510152"><ele>161.0</ele><time>2026-03-28T12:27:40Z</time></trkpt><trkpt lat="39.28276924706097" lon="9.317877610017533"><ele>160.33333333333334</ele><time>2026-03-28T12:27:41Z</time></trkpt><trkpt lat="39.28270343239454" lon="9.317850347030642"><ele>159.66666666666666</ele><time>2026-03-28T12:27:42Z</time></trkpt><trkpt lat="39.28261705296527" lon="9.317812121038793"><ele>159.0</ele><time>2026-03-28T12:27:43Z</time></trkpt><trkpt lat="39.28254300630232" lon="9.317801033544372"><ele>159.0</ele><time>2026-03-28T12:27:44Z</time></trkpt><trkpt lat="39.28246519253913" lon="9.3177860017257"><ele>159.0</ele><time>2026-03-28T12:27:45Z</time></trkpt><trkpt lat="39.282399074042225" lon="9.317755187920445"><ele>159.0</ele><time>2026-03-28T12:27:46Z</time></trkpt><trkpt lat="39.28230006362803" lon="9.317683252468346"><ele>159.0</ele><time>2026-03-28T12:27:48Z</time></trkpt><trkpt lat="39.28224513134876" lon="9.317640487705832"><ele>159.0</ele><time>2026-03-28T12:27:49Z</time></trkpt><trkpt lat="39.282153925342996" lon="9.317555354441305"><ele>159.0</ele><time>2026-03-28T12:27:51Z</time></trkpt><trkpt lat="39.28209269398203" lon="9.317530263241554"><ele>158.0</ele><time>2026-03-28T12:27:52Z</time></trkpt><trkpt lat="39.282030940788296" lon="9.317498816169872"><ele>157.0</ele><time>2026-03-28T12:27:53Z</time></trkpt><trkpt lat="39.28196416212186" lon="9.31745759289413"><ele>156.0</ele><time>2026-03-28T12:27:54Z</time></trkpt><trkpt lat="39.28187678221546" lon="9.317395644997507"><ele>155.0</ele><time>2026-03-28T12:27:56Z</time></trkpt><trkpt lat="39.28181789425677" lon="9.317465028397727"><ele>154.0</ele><time>2026-03-28T12:27:58Z</time></trkpt><trkpt lat="39.281806015251576" lon="9.317578332520497"><ele>153.0</ele><time>2026-03-28T12:28:03Z</time></trkpt><trkpt lat="39.28177916576448" lon="9.317655004023798"><ele>153.0</ele><time>2026-03-28T12:28:05.999Z</time></trkpt><trkpt lat="39.2817271359981" lon="9.317731339458753"><ele>153.0</ele><time>2026-03-28T12:28:10.999Z</time></trkpt><trkpt lat="39.28167572281731" lon="9.317826241076016"><ele>153.0</ele><time>2026-03-28T12:28:13.999Z</time></trkpt><trkpt lat="39.281633506268925" lon="9.317955783652938"><ele>153.0</ele><time>2026-03-28T12:28:15.999Z</time></trkpt><trkpt lat="39.28157049055324" lon="9.318090534418895"><ele>153.0</ele><time>2026-03-28T12:28:17.999Z</time></trkpt><trkpt lat="39.28154675792492" lon="9.318216807090133"><ele>151.5</ele><time>2026-03-28T12:28:19.999Z</time></trkpt><trkpt lat="39.28150615708433" lon="9.318301446765348"><ele>150.0</ele><time>2026-03-28T12:28:22.999Z</time></trkpt><trkpt lat="39.28145604333799" lon="9.318382139876238"><ele>148.5</ele><time>2026-03-28T12:28:24.999Z</time></trkpt><trkpt lat="39.281419773020936" lon="9.318462656416658"><ele>147.0</ele><time>2026-03-28T12:28:26.999Z</time></trkpt><trkpt lat="39.28138270415424" lon="9.31854418571018"><ele>145.5</ele><time>2026-03-28T12:28:28.999Z</time></trkpt><trkpt lat="39.281314940198826" lon="9.318589520024316"><ele>144.0</ele><time>2026-03-28T12:28:30.999Z</time></trkpt><trkpt lat="39.28125490619536" lon="9.318647899235714"><ele>141.0</ele><time>2026-03-28T12:28:32.999Z</time></trkpt><trkpt lat="39.28119697961835" lon="9.318721166963119"><ele>138.0</ele><time>2026-03-28T12:28:34.999Z</time></trkpt><trkpt lat="39.28113068958416" lon="9.31880011443593"><ele>135.0</ele><time>2026-03-28T12:28:37.999Z</time></trkpt><trkpt lat="39.281059122151255" lon="9.318899174328385"><ele>132.0</ele><time>2026-03-28T12:28:41.999Z</time></trkpt><trkpt lat="39.28098171905653" lon="9.31896799030859"><ele>129.0</ele><time>2026-03-28T12:28:42.999Z</time></trkpt><trkpt lat="39.28092807683507" lon="9.31902767419141"><ele>126.0</ele><time>2026-03-28T12:28:44.999Z</time></trkpt><trkpt lat="39.28086890752026" lon="9.319081531969632"><ele>126.0</ele><time>2026-03-28T12:28:46.999Z</time></trkpt><trkpt lat="39.28080483236255" lon="9.319127365323723"><ele>126.0</ele><time>2026-03-28T12:28:49.999Z</time></trkpt><trkpt lat="39.2807300580472" lon="9.319198372410435"><ele>126.0</ele><time>2026-03-28T12:28:52.999Z</time></trkpt><trkpt lat="39.28066810533493" lon="9.319230453751748"><ele>126.0</ele><time>2026-03-28T12:28:57.999Z</time></trkpt><trkpt lat="39.28066423061983" lon="9.319132436569836"><ele>126.0</ele><time>2026-03-28T12:29:06Z</time></trkpt><trkpt lat="39.28067864792555" lon="9.319013163613151"><ele>126.0</ele><time>2026-03-28T12:29:10Z</time></trkpt><trkpt lat="39.28069648184348" lon="9.318906889977727"><ele>126.0</ele><time>2026-03-28T12:29:13Z</time></trkpt><trkpt lat="39.2807094365981" lon="9.318813540724832"><ele>126.0</ele><time>2026-03-28T12:29:16Z</time></trkpt><trkpt lat="39.28072194735183" lon="9.318728558885029"><ele>126.0</ele><time>2026-03-28T12:29:19Z</time></trkpt><trkpt lat="39.28072986032943" lon="9.31861554978624"><ele>126.0</ele><time>2026-03-28T12:29:22Z</time></trkpt><trkpt lat="39.280725020469056" lon="9.318508954949973"><ele>126.0</ele><time>2026-03-28T12:29:25Z</time></trkpt><trkpt lat="39.28067848290717" lon="9.318426955615198"><ele>126.0</ele><time>2026-03-28T12:29:28Z</time></trkpt><trkpt lat="39.28061322877031" lon="9.318438093300728"><ele>124.71428571428572</ele><time>2026-03-28T12:29:38Z</time></trkpt><trkpt lat="39.28055278874352" lon="9.318496160018704"><ele>123.42857142857143</ele><time>2026-03-28T12:29:43Z</time></trkpt><trkpt lat="39.280493983885215" lon="9.318536921980618"><ele>122.14285714285714</ele><time>2026-03-28T12:29:49Z</time></trkpt><trkpt lat="39.28043657537803" lon="9.318589622424096"><ele>120.85714285714286</ele><time>2026-03-28T12:29:53Z</time></trkpt><trkpt lat="39.280370605222856" lon="9.318615922142348"><ele>119.57142857142858</ele><time>2026-03-28T12:29:58Z</time></trkpt><trkpt lat="39.28032392447924" lon="9.318673074141204"><ele>118.28571428571429</ele><time>2026-03-28T12:30:06Z</time></trkpt><trkpt lat="39.2802564380298" lon="9.318721957998324"><ele>117.0</ele><time>2026-03-28T12:30:46.999Z</time></trkpt><trkpt lat="39.28020278227003" lon="9.318799878626875"><ele>117.0</ele><time>2026-03-28T12:30:49.999Z</time></trkpt><trkpt lat="39.280134538591305" lon="9.31884463093865"><ele>117.00000000000001</ele><time>2026-03-28T12:30:52.999Z</time></trkpt><trkpt lat="39.28006179653022" lon="9.31889017938396"><ele>117.0</ele><time>2026-03-28T12:30:55.998Z</time></trkpt><trkpt lat="39.28000513382749" lon="9.318937545004081"><ele>117.0</ele><time>2026-03-28T12:30:57.998Z</time></trkpt><trkpt lat="39.279944444418476" lon="9.318964296216167"><ele>117.00000000000001</ele><time>2026-03-28T12:31:00.998Z</time></trkpt><trkpt lat="39.27987208369449" lon="9.3189962460405"><ele>117.0</ele><time>2026-03-28T12:31:03.998Z</time></trkpt><trkpt lat="39.27980096549532" lon="9.319029702063215"><ele>117.0</ele><time>2026-03-28T12:31:07Z</time></trkpt><trkpt lat="39.27968549555988" lon="9.3190601717353"><ele>113.71428571428572</ele><time>2026-03-28T12:31:07.999Z</time></trkpt><trkpt lat="39.27962402625506" lon="9.31908091164035"><ele>110.42857142857144</ele><time>2026-03-28T12:31:10Z</time></trkpt><trkpt lat="39.279559254235565" lon="9.319136308165136"><ele>107.14285714285714</ele><time>2026-03-28T12:31:32.999Z</time></trkpt><trkpt lat="39.27951925251415" lon="9.319199368442439"><ele>103.85714285714286</ele><time>2026-03-28T12:31:36.999Z</time></trkpt><trkpt lat="39.279457336166786" lon="9.319225348665347"><ele>100.57142857142857</ele><time>2026-03-28T12:31:40.999Z</time></trkpt><trkpt lat="39.279378313531296" lon="9.319240439592187"><ele>97.28571428571428</ele><time>2026-03-28T12:31:44.999Z</time></trkpt><trkpt lat="39.279309416632344" lon="9.319266833097194"><ele>94.0</ele><time>2026-03-28T12:31:47.999Z</time></trkpt><trkpt lat="39.2792681493758" lon="9.31933346351608"><ele>94.0</ele><time>2026-03-28T12:31:52.999Z</time></trkpt><trkpt lat="39.27921943672165" lon="9.319419678576816"><ele>94.0</ele><time>2026-03-28T12:33:30Z</time></trkpt><trkpt lat="39.27914159590928" lon="9.319440404207523"><ele>94.0</ele><time>2026-03-28T12:33:32Z</time></trkpt><trkpt lat="39.27908655196135" lon="9.3192955879932"><ele>94.0</ele><time>2026-03-28T12:33:34.999Z</time></trkpt><trkpt lat="39.27906663161527" lon="9.319188467947823"><ele>94.0</ele><time>2026-03-28T12:33:35.999Z</time></trkpt><trkpt lat="39.27904098595947" lon="9.31909275403238"><ele>94.0</ele><time>2026-03-28T12:33:36.999Z</time></trkpt><trkpt lat="39.27901533316895" lon="9.319016061604001"><ele>94.0</ele><time>2026-03-28T12:33:37.999Z</time></trkpt><trkpt lat="39.278976255141494" lon="9.318936201667551"><ele>94.0</ele><time>2026-03-28T12:33:38.999Z</time></trkpt><trkpt lat="39.278933678328876" lon="9.318837275792553"><ele>94.0</ele><time>2026-03-28T12:33:39.999Z</time></trkpt><trkpt lat="39.27889698955468" lon="9.318739478707833"><ele>94.0</ele><time>2026-03-28T12:33:40.999Z</time></trkpt><trkpt lat="39.27886526051585" lon="9.318647219083806"><ele>94.0</ele><time>2026-03-28T12:33:41.999Z</time></trkpt><trkpt lat="39.27883282736781" lon="9.318556448521917"><ele>94.5</ele><time>2026-03-28T12:33:42.999Z</time></trkpt><trkpt lat="39.27880791486243" lon="9.318468066090404"><ele>95.0</ele><time>2026-03-28T12:33:43.999Z</time></trkpt><trkpt lat="39.27877807773766" lon="9.318379581293014"><ele>95.5</ele><time>2026-03-28T12:33:44.999Z</time></trkpt><trkpt lat="39.27875302269169" lon="9.318294069687326"><ele>96.0</ele><time>2026-03-28T12:33:45.999Z</time></trkpt><trkpt lat="39.278708068488946" lon="9.318218480126086"><ele>96.50000000000001</ele><time>2026-03-28T12:33:46.999Z</time></trkpt><trkpt lat="39.27866564439408" lon="9.318151415220141"><ele>97.0</ele><time>2026-03-28T12:33:47.999Z</time></trkpt><trkpt lat="39.27860976023013" lon="9.31802006089497"><ele>97.00000000000001</ele><time>2026-03-28T12:33:49.999Z</time></trkpt><trkpt lat="39.278557849255606" lon="9.317948609691333"><ele>97.0</ele><time>2026-03-28T12:33:50.999Z</time></trkpt><trkpt lat="39.27848197625843" lon="9.317887201945203"><ele>97.0</ele><time>2026-03-28T12:33:51.999Z</time></trkpt><trkpt lat="39.27839578512747" lon="9.317844385663687"><ele>97.0</ele><time>2026-03-28T12:33:52.999Z</time></trkpt><trkpt lat="39.278334215575455" lon="9.317793059298033"><ele>97.00000000000001</ele><time>2026-03-28T12:33:53.999Z</time></trkpt><trkpt lat="39.27825623375687" lon="9.317738543177539"><ele>97.0</ele><time>2026-03-28T12:33:54.999Z</time></trkpt><trkpt lat="39.27819694349236" lon="9.317656270364706"><ele>97.00000000000001</ele><time>2026-03-28T12:33:55.999Z</time></trkpt><trkpt lat="39.27813603464404" lon="9.317568978105482"><ele>97.0</ele><time>2026-03-28T12:33:56.999Z</time></trkpt><trkpt lat="39.27806494521915" lon="9.317500099433719"><ele>97.0</ele><time>2026-03-28T12:33:57.999Z</time></trkpt><trkpt lat="39.27801938899854" lon="9.31742278117311"><ele>97.0</ele><time>2026-03-28T12:33:58.999Z</time></trkpt><trkpt lat="39.277986523010085" lon="9.317353413714379"><ele>97.00000000000001</ele><time>2026-03-28T12:33:59.999Z</time></trkpt><trkpt lat="39.277940856151545" lon="9.317256923988202"><ele>97.0</ele><time>2026-03-28T12:34:01.999Z</time></trkpt><trkpt lat="39.2778990466579" lon="9.317127195909807"><ele>95.0</ele><time>2026-03-28T12:34:03.999Z</time></trkpt><trkpt lat="39.27788480852984" lon="9.317020564216937"><ele>93.0</ele><time>2026-03-28T12:34:04.999Z</time></trkpt><trkpt lat="39.277861434783965" lon="9.316873079582429"><ele>91.0</ele><time>2026-03-28T12:34:05.999Z</time></trkpt><trkpt lat="39.27780933922484" lon="9.316747023117424"><ele>89.0</ele><time>2026-03-28T12:34:06.999Z</time></trkpt><trkpt lat="39.2777906252906" lon="9.316643207703859"><ele>87.0</ele><time>2026-03-28T12:34:07.999Z</time></trkpt><trkpt lat="39.27773651156313" lon="9.316517950517671"><ele>87.0</ele><time>2026-03-28T12:34:09.999Z</time></trkpt><trkpt lat="39.27770008272637" lon="9.316442634991875"><ele>87.0</ele><time>2026-03-28T12:34:10.999Z</time></trkpt><trkpt lat="39.277648115191006" lon="9.316352843792668"><ele>87.0</ele><time>2026-03-28T12:34:11.999Z</time></trkpt><trkpt lat="39.277565687251645" lon="9.31626884564817"><ele>87.0</ele><time>2026-03-28T12:34:12.999Z</time></trkpt><trkpt lat="39.2774837658127" lon="9.316201132864547"><ele>87.0</ele><time>2026-03-28T12:34:13.999Z</time></trkpt><trkpt lat="39.277410692985335" lon="9.31612782432745"><ele>86.5</ele><time>2026-03-28T12:34:14.999Z</time></trkpt><trkpt lat="39.277343628479386" lon="9.316057200224027"><ele>86.0</ele><time>2026-03-28T12:34:15.999Z</time></trkpt><trkpt lat="39.277275224252534" lon="9.315997636054863"><ele>85.5</ele><time>2026-03-28T12:34:16.999Z</time></trkpt><trkpt lat="39.2772023407154" lon="9.315932178193629"><ele>85.0</ele><time>2026-03-28T12:34:17.999Z</time></trkpt><trkpt lat="39.27712839083032" lon="9.31586742059613"><ele>84.5</ele><time>2026-03-28T12:34:18.999Z</time></trkpt><trkpt lat="39.27705154177856" lon="9.315802931718354"><ele>84.0</ele><time>2026-03-28T12:34:19.999Z</time></trkpt><trkpt lat="39.27695979296121" lon="9.315757656793965"><ele>84.0</ele><time>2026-03-28T12:34:20.999Z</time></trkpt><trkpt lat="39.27687043110498" lon="9.315695246556633"><ele>84.0</ele><time>2026-03-28T12:34:21.999Z</time></trkpt><trkpt lat="39.27677963269205" lon="9.315640711314538"><ele>84.0</ele><time>2026-03-28T12:34:22.999Z</time></trkpt><trkpt lat="39.276703676474206" lon="9.315563378198803"><ele>84.0</ele><time>2026-03-28T12:34:23.999Z</time></trkpt><trkpt lat="39.27663698358477" lon="9.315499937680967"><ele>84.0</ele><time>2026-03-28T12:34:24.999Z</time></trkpt><trkpt lat="39.27658007193262" lon="9.315424107502512"><ele>85.0</ele><time>2026-03-28T12:34:25.999Z</time></trkpt><trkpt lat="39.27653225644073" lon="9.315329547610899"><ele>86.0</ele><time>2026-03-28T12:34:26.999Z</time></trkpt><trkpt lat="39.276460254435904" lon="9.315230079268801"><ele>87.0</ele><time>2026-03-28T12:34:27.999Z</time></trkpt><trkpt lat="39.276404326167054" lon="9.315117984612657"><ele>88.0</ele><time>2026-03-28T12:34:28.999Z</time></trkpt><trkpt lat="39.27635564615591" lon="9.314986443371442"><ele>89.0</ele><time>2026-03-28T12:34:29.999Z</time></trkpt><trkpt lat="39.276307591141354" lon="9.314880016599329"><ele>87.66666666666667</ele><time>2026-03-28T12:34:30.999Z</time></trkpt><trkpt lat="39.27626917926669" lon="9.31478013079249"><ele>86.33333333333334</ele><time>2026-03-28T12:34:31.999Z</time></trkpt><trkpt lat="39.276234386457276" lon="9.314690738881838"><ele>85.0</ele><time>2026-03-28T12:34:32.999Z</time></trkpt><trkpt lat="39.27619969338068" lon="9.314610068974565"><ele>83.66666666666667</ele><time>2026-03-28T12:34:33.999Z</time></trkpt><trkpt lat="39.27613116821065" lon="9.314493062289541"><ele>82.33333333333333</ele><time>2026-03-28T12:34:35.999Z</time></trkpt><trkpt lat="39.27607235586264" lon="9.314459964755363"><ele>81.0</ele><time>2026-03-28T12:34:43.998Z</time></trkpt><trkpt lat="39.276005135786576" lon="9.314641985063115"><ele>80.66666666666667</ele><time>2026-03-28T12:34:45.998Z</time></trkpt><trkpt lat="39.27599900040821" lon="9.314750986822563"><ele>80.33333333333333</ele><time>2026-03-28T12:34:46.998Z</time></trkpt><trkpt lat="39.27598490517487" lon="9.314868422701792"><ele>80.0</ele><time>2026-03-28T12:34:47.998Z</time></trkpt><trkpt lat="39.275968631146796" lon="9.314972400473943"><ele>79.66666666666666</ele><time>2026-03-28T12:34:48.998Z</time></trkpt><trkpt lat="39.27595482040775" lon="9.315088705666899"><ele>79.33333333333333</ele><time>2026-03-28T12:34:49.998Z</time></trkpt><trkpt lat="39.27593415578394" lon="9.315205761906354"><ele>79.0</ele><time>2026-03-28T12:34:50.998Z</time></trkpt><trkpt lat="39.27591225993808" lon="9.31532834187481"><ele>79.0</ele><time>2026-03-28T12:34:51.998Z</time></trkpt><trkpt lat="39.27589283158901" lon="9.315454723406782"><ele>79.0</ele><time>2026-03-28T12:34:52.998Z</time></trkpt><trkpt lat="39.27587315895055" lon="9.31557231454864"><ele>79.0</ele><time>2026-03-28T12:34:53.998Z</time></trkpt><trkpt lat="39.27585446944807" lon="9.31568903948931"><ele>79.0</ele><time>2026-03-28T12:34:54.998Z</time></trkpt><trkpt lat="39.27583434596905" lon="9.31580449789998"><ele>79.0</ele><time>2026-03-28T12:34:55.998Z</time></trkpt><trkpt lat="39.27580772608385" lon="9.31590495313345"><ele>79.16666666666666</ele><time>2026-03-28T12:34:56.998Z</time></trkpt><trkpt lat="39.27576750061162" lon="9.31598733331304"><ele>79.33333333333333</ele><time>2026-03-28T12:34:57.998Z</time></trkpt><trkpt lat="39.27571808405321" lon="9.316057441680854"><ele>79.5</ele><time>2026-03-28T12:34:58.998Z</time></trkpt><trkpt lat="39.27565054431291" lon="9.316114533696107"><ele>79.66666666666667</ele><time>2026-03-28T12:34:59.998Z</time></trkpt><trkpt lat="39.275569802444885" lon="9.316167038493333"><ele>79.83333333333334</ele><time>2026-03-28T12:35:00.998Z</time></trkpt><trkpt lat="39.27549773591584" lon="9.31622994480635"><ele>80.0</ele><time>2026-03-28T12:35:01.998Z</time></trkpt><trkpt lat="39.275441160539394" lon="9.316309610147274"><ele>80.33333333333334</ele><time>2026-03-28T12:35:02.998Z</time></trkpt><trkpt lat="39.27539644412644" lon="9.316388489950429"><ele>80.66666666666667</ele><time>2026-03-28T12:35:03.998Z</time></trkpt><trkpt lat="39.2753396567057" lon="9.316432251773"><ele>81.0</ele><time>2026-03-28T12:35:04.998Z</time></trkpt><trkpt lat="39.275251218433844" lon="9.316513686391822"><ele>81.33333333333333</ele><time>2026-03-28T12:35:06.998Z</time></trkpt><trkpt lat="39.27524233870084" lon="9.316618994284893"><ele>81.66666666666666</ele><time>2026-03-28T12:35:11.998Z</time></trkpt><trkpt lat="39.27524420669806" lon="9.316710764744588"><ele>82.0</ele><time>2026-03-28T12:35:14.998Z</time></trkpt><trkpt lat="39.27527068674982" lon="9.316814224878838"><ele>82.5</ele><time>2026-03-28T12:35:15.998Z</time></trkpt><trkpt lat="39.27531912598517" lon="9.316940993735342"><ele>83.0</ele><time>2026-03-28T12:35:16.998Z</time></trkpt><trkpt lat="39.27538939983842" lon="9.317088723365275"><ele>83.5</ele><time>2026-03-28T12:35:18Z</time></trkpt><trkpt lat="39.275463960741966" lon="9.317242048544543"><ele>84.0</ele><time>2026-03-28T12:35:19Z</time></trkpt><trkpt lat="39.27552937600938" lon="9.317383357637707"><ele>84.25</ele><time>2026-03-28T12:35:20Z</time></trkpt><trkpt lat="39.27559774011133" lon="9.317532367847562"><ele>84.5</ele><time>2026-03-28T12:35:21Z</time></trkpt><trkpt lat="39.27567275049089" lon="9.317687323622451"><ele>84.75</ele><time>2026-03-28T12:35:22Z</time></trkpt><trkpt lat="39.27574480070309" lon="9.317833902570472"><ele>85.0</ele><time>2026-03-28T12:35:23Z</time></trkpt><trkpt lat="39.275808284741125" lon="9.317966448613236"><ele>85.5</ele><time>2026-03-28T12:35:24Z</time></trkpt><trkpt lat="39.275870226987365" lon="9.318092410198114"><ele>86.0</ele><time>2026-03-28T12:35:25Z</time></trkpt><trkpt lat="39.27593051307652" lon="9.318220338748242"><ele>86.5</ele><time>2026-03-28T12:35:26Z</time></trkpt><trkpt lat="39.27599106355541" lon="9.318353077204238"><ele>87.0</ele><time>2026-03-28T12:35:27Z</time></trkpt><trkpt lat="39.27605947451185" lon="9.318487235140612"><ele>87.0</ele><time>2026-03-28T12:35:28Z</time></trkpt><trkpt lat="39.276126503526164" lon="9.318621024224095"><ele>87.0</ele><time>2026-03-28T12:35:29Z</time></trkpt><trkpt lat="39.276187247773514" lon="9.3187522583329"><ele>87.0</ele><time>2026-03-28T12:35:30Z</time></trkpt><trkpt lat="39.27624802731552" lon="9.318876715552989"><ele>87.0</ele><time>2026-03-28T12:35:31Z</time></trkpt><trkpt lat="39.27630791508107" lon="9.319004112129347"><ele>86.75</ele><time>2026-03-28T12:35:32Z</time></trkpt><trkpt lat="39.276367803032926" lon="9.31912887895246"><ele>86.5</ele><time>2026-03-28T12:35:33Z</time></trkpt><trkpt lat="39.276429359828796" lon="9.319251420689824"><ele>86.25</ele><time>2026-03-28T12:35:34Z</time></trkpt><trkpt lat="39.276489348419524" lon="9.31937688295447"><ele>86.0</ele><time>2026-03-28T12:35:35Z</time></trkpt><trkpt lat="39.27655042333831" lon="9.319507707263783"><ele>86.5</ele><time>2026-03-28T12:35:36Z</time></trkpt><trkpt lat="39.27661312227602" lon="9.319637695078065"><ele>87.0</ele><time>2026-03-28T12:35:37Z</time></trkpt><trkpt lat="39.27667531840139" lon="9.319763352994979"><ele>87.5</ele><time>2026-03-28T12:35:38Z</time></trkpt><trkpt lat="39.27673516404943" lon="9.31988716321769"><ele>88.0</ele><time>2026-03-28T12:35:39Z</time></trkpt><trkpt lat="39.27679291822758" lon="9.32000926510789"><ele>88.60000000000001</ele><time>2026-03-28T12:35:40Z</time></trkpt><trkpt lat="39.27685038167767" lon="9.320126562218626"><ele>89.2</ele><time>2026-03-28T12:35:41Z</time></trkpt><trkpt lat="39.276904053591124" lon="9.320238938873304"><ele>89.8</ele><time>2026-03-28T12:35:42Z</time></trkpt><trkpt lat="39.27695146253563" lon="9.320334205990257"><ele>90.4</ele><time>2026-03-28T12:35:43Z</time></trkpt><trkpt lat="39.27699786641652" lon="9.320419119439107"><ele>91.0</ele><time>2026-03-28T12:35:44Z</time></trkpt><trkpt lat="39.27704399243146" lon="9.320510766596932"><ele>90.83333333333333</ele><time>2026-03-28T12:35:44.999Z</time></trkpt><trkpt lat="39.27708903423606" lon="9.320600324375407"><ele>90.66666666666666</ele><time>2026-03-28T12:35:45.999Z</time></trkpt><trkpt lat="39.27713922437465" lon="9.320697843968446"><ele>90.5</ele><time>2026-03-28T12:35:46.999Z</time></trkpt><trkpt lat="39.2771935125892" lon="9.320797149393329"><ele>90.33333333333333</ele><time>2026-03-28T12:35:47.999Z</time></trkpt><trkpt lat="39.277233909523815" lon="9.320900681458102"><ele>90.16666666666667</ele><time>2026-03-28T12:35:48.999Z</time></trkpt><trkpt lat="39.27726875367749" lon="9.320972460505109"><ele>90.0</ele><time>2026-03-28T12:35:49.999Z</time></trkpt><trkpt lat="39.27731557827219" lon="9.321068919289647"><ele>90.0</ele><time>2026-03-28T12:35:51.999Z</time></trkpt><trkpt lat="39.27735735264761" lon="9.321154974615865"><ele>90.0</ele><time>2026-03-28T12:35:54.999Z</time></trkpt><trkpt lat="39.27756555137938" lon="9.321106185616001"><ele>90.0</ele><time>2026-03-28T12:35:57.999Z</time></trkpt><trkpt lat="39.27759224784425" lon="9.321181715770843"><ele>90.0</ele><time>2026-03-28T12:35:59.999Z</time></trkpt><trkpt lat="39.27762956700451" lon="9.32128079401317"><ele>90.0</ele><time>2026-03-28T12:36:02.999Z</time></trkpt><trkpt lat="39.27768921013025" lon="9.32132254852451"><ele>90.0</ele><time>2026-03-28T12:36:06.999Z</time></trkpt><trkpt lat="39.277757476528684" lon="9.32133739317785"><ele>90.0</ele><time>2026-03-28T12:37:40Z</time></trkpt><trkpt lat="39.27774673677053" lon="9.32125567271355"><ele>90.0</ele><time>2026-03-28T12:40:32.999Z</time></trkpt></trkseg></trk></gpx>